<?xml version="1.0" encoding="UTF-8" standalone="no" ?>
<gpx xmlns="http://www.topografix.com/GPX/1/1" xmlns:xsi="http://www.w3.org/2001/XMLSchema-instance" xsi:schemaLocation="http://www.topografix.com/GPX/1/1 http://www.topografix.com/GPX/1/1/gpx.xsd" version="1.1" creator="VisuGPX - https://www.visugpx.com">
  <metadata>
    <name>2022 12 04 tour de roche noire</name>
    <desc><![CDATA[
2022 12 04 tour de roche noire
sortie GEMSA]]></desc>
  </metadata>
  <trk>
    <name><![CDATA[2022 12 04 tour de roche noire]]></name>
    <desc><![CDATA[comment ...]]></desc>
    <extensions>
      <line xmlns="http://www.topografix.com/GPX/gpx_style/0/2">
        <color>0000FF</color>
        <width>4</width>
      </line>
    </extensions>
    <trkseg>
      <trkpt lat="45.26473" lon="6.01615">
        <ele>1578</ele>
        <time>2022-12-04T08:51:30Z</time>
      </trkpt>
      <trkpt lat="45.26494" lon="6.01869">
        <ele>1605</ele>
        <time>2022-12-04T08:53:15Z</time>
      </trkpt>
      <trkpt lat="45.26485" lon="6.01872">
        <ele>1621</ele>
        <time>2022-12-04T08:53:21Z</time>
      </trkpt>
      <trkpt lat="45.26487" lon="6.01878">
        <ele>1620</ele>
        <time>2022-12-04T08:53:31Z</time>
      </trkpt>
      <trkpt lat="45.26489" lon="6.01879">
        <ele>1619</ele>
        <time>2022-12-04T08:53:33Z</time>
      </trkpt>
      <trkpt lat="45.26491" lon="6.01882">
        <ele>1616</ele>
        <time>2022-12-04T08:53:36Z</time>
      </trkpt>
      <trkpt lat="45.26492" lon="6.01884">
        <ele>1615</ele>
        <time>2022-12-04T08:53:38Z</time>
      </trkpt>
      <trkpt lat="45.26493" lon="6.01887">
        <ele>1615</ele>
        <time>2022-12-04T08:53:41Z</time>
      </trkpt>
      <trkpt lat="45.26494" lon="6.0189">
        <ele>1615</ele>
        <time>2022-12-04T08:53:44Z</time>
      </trkpt>
      <trkpt lat="45.26493" lon="6.01893">
        <ele>1616</ele>
        <time>2022-12-04T08:53:47Z</time>
      </trkpt>
      <trkpt lat="45.26495" lon="6.01906">
        <ele>1618</ele>
        <time>2022-12-04T08:53:59Z</time>
      </trkpt>
      <trkpt lat="45.26496" lon="6.01908">
        <ele>1618</ele>
        <time>2022-12-04T08:54:01Z</time>
      </trkpt>
      <trkpt lat="45.26497" lon="6.01909">
        <ele>1618</ele>
        <time>2022-12-04T08:54:05Z</time>
      </trkpt>
      <trkpt lat="45.265" lon="6.01911">
        <ele>1617</ele>
        <time>2022-12-04T08:54:14Z</time>
      </trkpt>
      <trkpt lat="45.26501" lon="6.01914">
        <ele>1617</ele>
        <time>2022-12-04T08:54:17Z</time>
      </trkpt>
      <trkpt lat="45.265" lon="6.01918">
        <ele>1619</ele>
        <time>2022-12-04T08:54:22Z</time>
      </trkpt>
      <trkpt lat="45.26498" lon="6.01918">
        <ele>1619</ele>
        <time>2022-12-04T08:54:23Z</time>
      </trkpt>
      <trkpt lat="45.26497" lon="6.0192">
        <ele>1619</ele>
        <time>2022-12-04T08:54:27Z</time>
      </trkpt>
      <trkpt lat="45.26496" lon="6.01921">
        <ele>1619</ele>
        <time>2022-12-04T08:54:29Z</time>
      </trkpt>
      <trkpt lat="45.26495" lon="6.01923">
        <ele>1620</ele>
        <time>2022-12-04T08:54:32Z</time>
      </trkpt>
      <trkpt lat="45.26493" lon="6.01926">
        <ele>1623</ele>
        <time>2022-12-04T08:54:37Z</time>
      </trkpt>
      <trkpt lat="45.26491" lon="6.01929">
        <ele>1624</ele>
        <time>2022-12-04T08:54:43Z</time>
      </trkpt>
      <trkpt lat="45.26489" lon="6.01929">
        <ele>1623</ele>
        <time>2022-12-04T08:54:54Z</time>
      </trkpt>
      <trkpt lat="45.26488" lon="6.01931">
        <ele>1623</ele>
        <time>2022-12-04T08:54:56Z</time>
      </trkpt>
      <trkpt lat="45.26486" lon="6.01939">
        <ele>1621</ele>
        <time>2022-12-04T08:55:04Z</time>
      </trkpt>
      <trkpt lat="45.26484" lon="6.0194">
        <ele>1621</ele>
        <time>2022-12-04T08:55:08Z</time>
      </trkpt>
      <trkpt lat="45.26484" lon="6.01943">
        <ele>1621</ele>
        <time>2022-12-04T08:55:11Z</time>
      </trkpt>
      <trkpt lat="45.26482" lon="6.01947">
        <ele>1621</ele>
        <time>2022-12-04T08:55:15Z</time>
      </trkpt>
      <trkpt lat="45.26481" lon="6.01948">
        <ele>1621</ele>
        <time>2022-12-04T08:55:17Z</time>
      </trkpt>
      <trkpt lat="45.26479" lon="6.01951">
        <ele>1622</ele>
        <time>2022-12-04T08:55:20Z</time>
      </trkpt>
      <trkpt lat="45.26476" lon="6.01954">
        <ele>1623</ele>
        <time>2022-12-04T08:55:25Z</time>
      </trkpt>
      <trkpt lat="45.26473" lon="6.0196">
        <ele>1624</ele>
        <time>2022-12-04T08:55:33Z</time>
      </trkpt>
      <trkpt lat="45.26474" lon="6.01962">
        <ele>1624</ele>
        <time>2022-12-04T08:55:36Z</time>
      </trkpt>
      <trkpt lat="45.26476" lon="6.01963">
        <ele>1623</ele>
        <time>2022-12-04T08:56:01Z</time>
      </trkpt>
      <trkpt lat="45.26476" lon="6.01965">
        <ele>1625</ele>
        <time>2022-12-04T08:56:25Z</time>
      </trkpt>
      <trkpt lat="45.26478" lon="6.01966">
        <ele>1625</ele>
        <time>2022-12-04T08:56:27Z</time>
      </trkpt>
      <trkpt lat="45.26486" lon="6.0197">
        <ele>1623</ele>
        <time>2022-12-04T08:56:44Z</time>
      </trkpt>
      <trkpt lat="45.26487" lon="6.01969">
        <ele>1623</ele>
        <time>2022-12-04T08:56:47Z</time>
      </trkpt>
      <trkpt lat="45.26492" lon="6.0197">
        <ele>1624</ele>
        <time>2022-12-04T08:56:55Z</time>
      </trkpt>
      <trkpt lat="45.26494" lon="6.0197">
        <ele>1624</ele>
        <time>2022-12-04T08:56:58Z</time>
      </trkpt>
      <trkpt lat="45.26496" lon="6.01971">
        <ele>1623</ele>
        <time>2022-12-04T08:57:01Z</time>
      </trkpt>
      <trkpt lat="45.26498" lon="6.01973">
        <ele>1623</ele>
        <time>2022-12-04T08:57:04Z</time>
      </trkpt>
      <trkpt lat="45.26496" lon="6.01975">
        <ele>1623</ele>
        <time>2022-12-04T08:57:07Z</time>
      </trkpt>
      <trkpt lat="45.26494" lon="6.01979">
        <ele>1623</ele>
        <time>2022-12-04T08:57:14Z</time>
      </trkpt>
      <trkpt lat="45.26493" lon="6.0198">
        <ele>1624</ele>
        <time>2022-12-04T08:57:17Z</time>
      </trkpt>
      <trkpt lat="45.26491" lon="6.01984">
        <ele>1625</ele>
        <time>2022-12-04T08:57:22Z</time>
      </trkpt>
      <trkpt lat="45.26485" lon="6.01996">
        <ele>1626</ele>
        <time>2022-12-04T08:57:37Z</time>
      </trkpt>
      <trkpt lat="45.26485" lon="6.01998">
        <ele>1626</ele>
        <time>2022-12-04T08:57:44Z</time>
      </trkpt>
      <trkpt lat="45.26486" lon="6.01998">
        <ele>1626</ele>
        <time>2022-12-04T08:57:50Z</time>
      </trkpt>
      <trkpt lat="45.26488" lon="6.01997">
        <ele>1626</ele>
        <time>2022-12-04T08:57:56Z</time>
      </trkpt>
      <trkpt lat="45.26499" lon="6.01999">
        <ele>1630</ele>
        <time>2022-12-04T08:58:28Z</time>
      </trkpt>
      <trkpt lat="45.26502" lon="6.02">
        <ele>1631</ele>
        <time>2022-12-04T08:58:34Z</time>
      </trkpt>
      <trkpt lat="45.26503" lon="6.02003">
        <ele>1633</ele>
        <time>2022-12-04T08:58:38Z</time>
      </trkpt>
      <trkpt lat="45.26501" lon="6.02006">
        <ele>1633</ele>
        <time>2022-12-04T08:58:42Z</time>
      </trkpt>
      <trkpt lat="45.26499" lon="6.02007">
        <ele>1633</ele>
        <time>2022-12-04T08:58:59Z</time>
      </trkpt>
      <trkpt lat="45.26498" lon="6.02009">
        <ele>1633</ele>
        <time>2022-12-04T08:59:03Z</time>
      </trkpt>
      <trkpt lat="45.26495" lon="6.02018">
        <ele>1636</ele>
        <time>2022-12-04T08:59:12Z</time>
      </trkpt>
      <trkpt lat="45.26495" lon="6.0202">
        <ele>1636</ele>
        <time>2022-12-04T08:59:16Z</time>
      </trkpt>
      <trkpt lat="45.26497" lon="6.02023">
        <ele>1637</ele>
        <time>2022-12-04T08:59:31Z</time>
      </trkpt>
      <trkpt lat="45.26497" lon="6.02026">
        <ele>1637</ele>
        <time>2022-12-04T08:59:36Z</time>
      </trkpt>
      <trkpt lat="45.26499" lon="6.02026">
        <ele>1638</ele>
        <time>2022-12-04T08:59:40Z</time>
      </trkpt>
      <trkpt lat="45.26501" lon="6.0203">
        <ele>1641</ele>
        <time>2022-12-04T09:00:00Z</time>
      </trkpt>
      <trkpt lat="45.26503" lon="6.02029">
        <ele>1642</ele>
        <time>2022-12-04T09:00:03Z</time>
      </trkpt>
      <trkpt lat="45.26506" lon="6.0203">
        <ele>1643</ele>
        <time>2022-12-04T09:00:08Z</time>
      </trkpt>
      <trkpt lat="45.26508" lon="6.02031">
        <ele>1644</ele>
        <time>2022-12-04T09:00:10Z</time>
      </trkpt>
      <trkpt lat="45.26509" lon="6.02033">
        <ele>1644</ele>
        <time>2022-12-04T09:00:12Z</time>
      </trkpt>
      <trkpt lat="45.26507" lon="6.02037">
        <ele>1647</ele>
        <time>2022-12-04T09:00:19Z</time>
      </trkpt>
      <trkpt lat="45.26507" lon="6.02043">
        <ele>1649</ele>
        <time>2022-12-04T09:00:24Z</time>
      </trkpt>
      <trkpt lat="45.26507" lon="6.02045">
        <ele>1649</ele>
        <time>2022-12-04T09:00:26Z</time>
      </trkpt>
      <trkpt lat="45.26505" lon="6.0205">
        <ele>1649</ele>
        <time>2022-12-04T09:00:32Z</time>
      </trkpt>
      <trkpt lat="45.26506" lon="6.02053">
        <ele>1650</ele>
        <time>2022-12-04T09:00:35Z</time>
      </trkpt>
      <trkpt lat="45.26503" lon="6.02058">
        <ele>1651</ele>
        <time>2022-12-04T09:00:40Z</time>
      </trkpt>
      <trkpt lat="45.26502" lon="6.02061">
        <ele>1651</ele>
        <time>2022-12-04T09:00:44Z</time>
      </trkpt>
      <trkpt lat="45.26501" lon="6.02064">
        <ele>1651</ele>
        <time>2022-12-04T09:00:48Z</time>
      </trkpt>
      <trkpt lat="45.265" lon="6.02069">
        <ele>1653</ele>
        <time>2022-12-04T09:00:53Z</time>
      </trkpt>
      <trkpt lat="45.265" lon="6.02072">
        <ele>1655</ele>
        <time>2022-12-04T09:00:56Z</time>
      </trkpt>
      <trkpt lat="45.26501" lon="6.02074">
        <ele>1655</ele>
        <time>2022-12-04T09:00:59Z</time>
      </trkpt>
      <trkpt lat="45.26506" lon="6.02075">
        <ele>1655</ele>
        <time>2022-12-04T09:01:21Z</time>
      </trkpt>
      <trkpt lat="45.26508" lon="6.02075">
        <ele>1655</ele>
        <time>2022-12-04T09:01:23Z</time>
      </trkpt>
      <trkpt lat="45.26515" lon="6.02074">
        <ele>1656</ele>
        <time>2022-12-04T09:01:34Z</time>
      </trkpt>
      <trkpt lat="45.26517" lon="6.02074">
        <ele>1656</ele>
        <time>2022-12-04T09:01:37Z</time>
      </trkpt>
      <trkpt lat="45.26518" lon="6.02076">
        <ele>1655</ele>
        <time>2022-12-04T09:01:39Z</time>
      </trkpt>
      <trkpt lat="45.26519" lon="6.02079">
        <ele>1655</ele>
        <time>2022-12-04T09:01:41Z</time>
      </trkpt>
      <trkpt lat="45.2652" lon="6.02081">
        <ele>1654</ele>
        <time>2022-12-04T09:01:44Z</time>
      </trkpt>
      <trkpt lat="45.2652" lon="6.02084">
        <ele>1653</ele>
        <time>2022-12-04T09:01:47Z</time>
      </trkpt>
      <trkpt lat="45.26522" lon="6.02096">
        <ele>1655</ele>
        <time>2022-12-04T09:01:59Z</time>
      </trkpt>
      <trkpt lat="45.26522" lon="6.02099">
        <ele>1655</ele>
        <time>2022-12-04T09:02:02Z</time>
      </trkpt>
      <trkpt lat="45.26521" lon="6.02106">
        <ele>1656</ele>
        <time>2022-12-04T09:02:08Z</time>
      </trkpt>
      <trkpt lat="45.2652" lon="6.02109">
        <ele>1656</ele>
        <time>2022-12-04T09:02:11Z</time>
      </trkpt>
      <trkpt lat="45.26521" lon="6.02109">
        <ele>1656</ele>
        <time>2022-12-04T09:02:27Z</time>
      </trkpt>
      <trkpt lat="45.26523" lon="6.0211">
        <ele>1657</ele>
        <time>2022-12-04T09:02:31Z</time>
      </trkpt>
      <trkpt lat="45.26527" lon="6.02109">
        <ele>1657</ele>
        <time>2022-12-04T09:02:38Z</time>
      </trkpt>
      <trkpt lat="45.26528" lon="6.02107">
        <ele>1658</ele>
        <time>2022-12-04T09:02:41Z</time>
      </trkpt>
      <trkpt lat="45.2653" lon="6.02104">
        <ele>1660</ele>
        <time>2022-12-04T09:03:03Z</time>
      </trkpt>
      <trkpt lat="45.26534" lon="6.02103">
        <ele>1660</ele>
        <time>2022-12-04T09:03:08Z</time>
      </trkpt>
      <trkpt lat="45.26535" lon="6.02102">
        <ele>1660</ele>
        <time>2022-12-04T09:03:10Z</time>
      </trkpt>
      <trkpt lat="45.26539" lon="6.021">
        <ele>1658</ele>
        <time>2022-12-04T09:03:15Z</time>
      </trkpt>
      <trkpt lat="45.2654" lon="6.02102">
        <ele>1658</ele>
        <time>2022-12-04T09:03:17Z</time>
      </trkpt>
      <trkpt lat="45.26541" lon="6.02103">
        <ele>1657</ele>
        <time>2022-12-04T09:03:19Z</time>
      </trkpt>
      <trkpt lat="45.26541" lon="6.02107">
        <ele>1656</ele>
        <time>2022-12-04T09:03:22Z</time>
      </trkpt>
      <trkpt lat="45.26542" lon="6.0211">
        <ele>1655</ele>
        <time>2022-12-04T09:03:25Z</time>
      </trkpt>
      <trkpt lat="45.26543" lon="6.02119">
        <ele>1657</ele>
        <time>2022-12-04T09:03:34Z</time>
      </trkpt>
      <trkpt lat="45.26543" lon="6.02129">
        <ele>1661</ele>
        <time>2022-12-04T09:03:45Z</time>
      </trkpt>
      <trkpt lat="45.26542" lon="6.02131">
        <ele>1663</ele>
        <time>2022-12-04T09:03:48Z</time>
      </trkpt>
      <trkpt lat="45.26541" lon="6.02133">
        <ele>1664</ele>
        <time>2022-12-04T09:03:55Z</time>
      </trkpt>
      <trkpt lat="45.26546" lon="6.02136">
        <ele>1669</ele>
        <time>2022-12-04T09:04:05Z</time>
      </trkpt>
      <trkpt lat="45.26559" lon="6.02131">
        <ele>1677</ele>
        <time>2022-12-04T09:04:28Z</time>
      </trkpt>
      <trkpt lat="45.2656" lon="6.02132">
        <ele>1677</ele>
        <time>2022-12-04T09:04:32Z</time>
      </trkpt>
      <trkpt lat="45.26561" lon="6.02134">
        <ele>1676</ele>
        <time>2022-12-04T09:04:34Z</time>
      </trkpt>
      <trkpt lat="45.26562" lon="6.02139">
        <ele>1675</ele>
        <time>2022-12-04T09:04:40Z</time>
      </trkpt>
      <trkpt lat="45.2656" lon="6.02145">
        <ele>1674</ele>
        <time>2022-12-04T09:04:47Z</time>
      </trkpt>
      <trkpt lat="45.26559" lon="6.02148">
        <ele>1675</ele>
        <time>2022-12-04T09:04:50Z</time>
      </trkpt>
      <trkpt lat="45.26558" lon="6.02152">
        <ele>1676</ele>
        <time>2022-12-04T09:04:56Z</time>
      </trkpt>
      <trkpt lat="45.26557" lon="6.02155">
        <ele>1677</ele>
        <time>2022-12-04T09:05:01Z</time>
      </trkpt>
      <trkpt lat="45.26556" lon="6.02159">
        <ele>1677</ele>
        <time>2022-12-04T09:05:06Z</time>
      </trkpt>
      <trkpt lat="45.26555" lon="6.02161">
        <ele>1677</ele>
        <time>2022-12-04T09:05:09Z</time>
      </trkpt>
      <trkpt lat="45.26556" lon="6.02162">
        <ele>1678</ele>
        <time>2022-12-04T09:05:15Z</time>
      </trkpt>
      <trkpt lat="45.26558" lon="6.02163">
        <ele>1679</ele>
        <time>2022-12-04T09:05:28Z</time>
      </trkpt>
      <trkpt lat="45.26559" lon="6.02165">
        <ele>1681</ele>
        <time>2022-12-04T09:05:30Z</time>
      </trkpt>
      <trkpt lat="45.26563" lon="6.02166">
        <ele>1683</ele>
        <time>2022-12-04T09:05:36Z</time>
      </trkpt>
      <trkpt lat="45.26564" lon="6.02167">
        <ele>1684</ele>
        <time>2022-12-04T09:05:38Z</time>
      </trkpt>
      <trkpt lat="45.26566" lon="6.02169">
        <ele>1685</ele>
        <time>2022-12-04T09:05:41Z</time>
      </trkpt>
      <trkpt lat="45.26569" lon="6.0217">
        <ele>1686</ele>
        <time>2022-12-04T09:05:56Z</time>
      </trkpt>
      <trkpt lat="45.26574" lon="6.02171">
        <ele>1685</ele>
        <time>2022-12-04T09:06:03Z</time>
      </trkpt>
      <trkpt lat="45.26576" lon="6.02171">
        <ele>1685</ele>
        <time>2022-12-04T09:06:06Z</time>
      </trkpt>
      <trkpt lat="45.26577" lon="6.02172">
        <ele>1685</ele>
        <time>2022-12-04T09:06:08Z</time>
      </trkpt>
      <trkpt lat="45.26579" lon="6.02174">
        <ele>1685</ele>
        <time>2022-12-04T09:06:11Z</time>
      </trkpt>
      <trkpt lat="45.26581" lon="6.02176">
        <ele>1686</ele>
        <time>2022-12-04T09:06:14Z</time>
      </trkpt>
      <trkpt lat="45.26583" lon="6.02179">
        <ele>1687</ele>
        <time>2022-12-04T09:06:18Z</time>
      </trkpt>
      <trkpt lat="45.26585" lon="6.0218">
        <ele>1687</ele>
        <time>2022-12-04T09:06:21Z</time>
      </trkpt>
      <trkpt lat="45.26588" lon="6.02181">
        <ele>1688</ele>
        <time>2022-12-04T09:06:29Z</time>
      </trkpt>
      <trkpt lat="45.26591" lon="6.02184">
        <ele>1689</ele>
        <time>2022-12-04T09:06:34Z</time>
      </trkpt>
      <trkpt lat="45.26592" lon="6.02184">
        <ele>1689</ele>
        <time>2022-12-04T09:06:36Z</time>
      </trkpt>
      <trkpt lat="45.26595" lon="6.02189">
        <ele>1689</ele>
        <time>2022-12-04T09:06:44Z</time>
      </trkpt>
      <trkpt lat="45.26595" lon="6.02191">
        <ele>1689</ele>
        <time>2022-12-04T09:06:46Z</time>
      </trkpt>
      <trkpt lat="45.26596" lon="6.02193">
        <ele>1689</ele>
        <time>2022-12-04T09:06:49Z</time>
      </trkpt>
      <trkpt lat="45.26597" lon="6.02196">
        <ele>1690</ele>
        <time>2022-12-04T09:06:52Z</time>
      </trkpt>
      <trkpt lat="45.26598" lon="6.02198">
        <ele>1689</ele>
        <time>2022-12-04T09:06:55Z</time>
      </trkpt>
      <trkpt lat="45.26599" lon="6.02202">
        <ele>1689</ele>
        <time>2022-12-04T09:06:59Z</time>
      </trkpt>
      <trkpt lat="45.266" lon="6.02206">
        <ele>1691</ele>
        <time>2022-12-04T09:07:06Z</time>
      </trkpt>
      <trkpt lat="45.266" lon="6.02208">
        <ele>1692</ele>
        <time>2022-12-04T09:07:08Z</time>
      </trkpt>
      <trkpt lat="45.26601" lon="6.02211">
        <ele>1692</ele>
        <time>2022-12-04T09:07:11Z</time>
      </trkpt>
      <trkpt lat="45.266" lon="6.02212">
        <ele>1692</ele>
        <time>2022-12-04T09:07:13Z</time>
      </trkpt>
      <trkpt lat="45.26598" lon="6.02214">
        <ele>1693</ele>
        <time>2022-12-04T09:07:15Z</time>
      </trkpt>
      <trkpt lat="45.26597" lon="6.02218">
        <ele>1696</ele>
        <time>2022-12-04T09:07:32Z</time>
      </trkpt>
      <trkpt lat="45.26597" lon="6.0222">
        <ele>1697</ele>
        <time>2022-12-04T09:07:34Z</time>
      </trkpt>
      <trkpt lat="45.26596" lon="6.02221">
        <ele>1697</ele>
        <time>2022-12-04T09:07:36Z</time>
      </trkpt>
      <trkpt lat="45.26594" lon="6.02222">
        <ele>1697</ele>
        <time>2022-12-04T09:07:39Z</time>
      </trkpt>
      <trkpt lat="45.26591" lon="6.02223">
        <ele>1697</ele>
        <time>2022-12-04T09:07:42Z</time>
      </trkpt>
      <trkpt lat="45.2659" lon="6.02224">
        <ele>1697</ele>
        <time>2022-12-04T09:08:03Z</time>
      </trkpt>
      <trkpt lat="45.26587" lon="6.02227">
        <ele>1697</ele>
        <time>2022-12-04T09:08:08Z</time>
      </trkpt>
      <trkpt lat="45.26585" lon="6.02227">
        <ele>1697</ele>
        <time>2022-12-04T09:08:12Z</time>
      </trkpt>
      <trkpt lat="45.26582" lon="6.02229">
        <ele>1697</ele>
        <time>2022-12-04T09:08:16Z</time>
      </trkpt>
      <trkpt lat="45.26581" lon="6.02231">
        <ele>1698</ele>
        <time>2022-12-04T09:08:20Z</time>
      </trkpt>
      <trkpt lat="45.2658" lon="6.02232">
        <ele>1697</ele>
        <time>2022-12-04T09:08:23Z</time>
      </trkpt>
      <trkpt lat="45.26578" lon="6.02234">
        <ele>1697</ele>
        <time>2022-12-04T09:08:27Z</time>
      </trkpt>
      <trkpt lat="45.26576" lon="6.02237">
        <ele>1697</ele>
        <time>2022-12-04T09:08:33Z</time>
      </trkpt>
      <trkpt lat="45.26576" lon="6.02239">
        <ele>1696</ele>
        <time>2022-12-04T09:08:36Z</time>
      </trkpt>
      <trkpt lat="45.26576" lon="6.02242">
        <ele>1696</ele>
        <time>2022-12-04T09:08:42Z</time>
      </trkpt>
      <trkpt lat="45.26578" lon="6.02244">
        <ele>1698</ele>
        <time>2022-12-04T09:09:09Z</time>
      </trkpt>
      <trkpt lat="45.26581" lon="6.02246">
        <ele>1700</ele>
        <time>2022-12-04T09:09:14Z</time>
      </trkpt>
      <trkpt lat="45.26583" lon="6.02248">
        <ele>1702</ele>
        <time>2022-12-04T09:09:17Z</time>
      </trkpt>
      <trkpt lat="45.26584" lon="6.02247">
        <ele>1702</ele>
        <time>2022-12-04T09:09:20Z</time>
      </trkpt>
      <trkpt lat="45.26586" lon="6.02248">
        <ele>1703</ele>
        <time>2022-12-04T09:09:23Z</time>
      </trkpt>
      <trkpt lat="45.26586" lon="6.02249">
        <ele>1704</ele>
        <time>2022-12-04T09:13:30Z</time>
      </trkpt>
      <trkpt lat="45.26588" lon="6.02249">
        <ele>1705</ele>
        <time>2022-12-04T09:16:14Z</time>
      </trkpt>
      <trkpt lat="45.2659" lon="6.0225">
        <ele>1706</ele>
        <time>2022-12-04T09:16:17Z</time>
      </trkpt>
      <trkpt lat="45.26597" lon="6.02257">
        <ele>1707</ele>
        <time>2022-12-04T09:16:36Z</time>
      </trkpt>
      <trkpt lat="45.26604" lon="6.02267">
        <ele>1710</ele>
        <time>2022-12-04T09:16:51Z</time>
      </trkpt>
      <trkpt lat="45.26606" lon="6.02268">
        <ele>1709</ele>
        <time>2022-12-04T09:16:55Z</time>
      </trkpt>
      <trkpt lat="45.2661" lon="6.02268">
        <ele>1708</ele>
        <time>2022-12-04T09:17:03Z</time>
      </trkpt>
      <trkpt lat="45.26612" lon="6.02268">
        <ele>1707</ele>
        <time>2022-12-04T09:17:07Z</time>
      </trkpt>
      <trkpt lat="45.26614" lon="6.02269">
        <ele>1707</ele>
        <time>2022-12-04T09:17:10Z</time>
      </trkpt>
      <trkpt lat="45.26616" lon="6.02271">
        <ele>1707</ele>
        <time>2022-12-04T09:17:14Z</time>
      </trkpt>
      <trkpt lat="45.26618" lon="6.02279">
        <ele>1707</ele>
        <time>2022-12-04T09:17:21Z</time>
      </trkpt>
      <trkpt lat="45.26617" lon="6.02282">
        <ele>1708</ele>
        <time>2022-12-04T09:17:24Z</time>
      </trkpt>
      <trkpt lat="45.26614" lon="6.02286">
        <ele>1709</ele>
        <time>2022-12-04T09:17:31Z</time>
      </trkpt>
      <trkpt lat="45.26614" lon="6.02288">
        <ele>1709</ele>
        <time>2022-12-04T09:17:34Z</time>
      </trkpt>
      <trkpt lat="45.26612" lon="6.02293">
        <ele>1710</ele>
        <time>2022-12-04T09:17:41Z</time>
      </trkpt>
      <trkpt lat="45.26611" lon="6.02296">
        <ele>1712</ele>
        <time>2022-12-04T09:17:44Z</time>
      </trkpt>
      <trkpt lat="45.26606" lon="6.02303">
        <ele>1714</ele>
        <time>2022-12-04T09:17:54Z</time>
      </trkpt>
      <trkpt lat="45.26606" lon="6.02307">
        <ele>1714</ele>
        <time>2022-12-04T09:18:00Z</time>
      </trkpt>
      <trkpt lat="45.26607" lon="6.02309">
        <ele>1715</ele>
        <time>2022-12-04T09:18:03Z</time>
      </trkpt>
      <trkpt lat="45.26611" lon="6.0231">
        <ele>1715</ele>
        <time>2022-12-04T09:18:11Z</time>
      </trkpt>
      <trkpt lat="45.26619" lon="6.0231">
        <ele>1714</ele>
        <time>2022-12-04T09:18:25Z</time>
      </trkpt>
      <trkpt lat="45.26623" lon="6.02309">
        <ele>1715</ele>
        <time>2022-12-04T09:18:32Z</time>
      </trkpt>
      <trkpt lat="45.26627" lon="6.02311">
        <ele>1715</ele>
        <time>2022-12-04T09:18:38Z</time>
      </trkpt>
      <trkpt lat="45.26629" lon="6.02311">
        <ele>1715</ele>
        <time>2022-12-04T09:18:42Z</time>
      </trkpt>
      <trkpt lat="45.26631" lon="6.02311">
        <ele>1716</ele>
        <time>2022-12-04T09:18:45Z</time>
      </trkpt>
      <trkpt lat="45.26632" lon="6.02314">
        <ele>1716</ele>
        <time>2022-12-04T09:18:49Z</time>
      </trkpt>
      <trkpt lat="45.26632" lon="6.02322">
        <ele>1718</ele>
        <time>2022-12-04T09:18:59Z</time>
      </trkpt>
      <trkpt lat="45.26632" lon="6.02325">
        <ele>1719</ele>
        <time>2022-12-04T09:19:03Z</time>
      </trkpt>
      <trkpt lat="45.26631" lon="6.02328">
        <ele>1721</ele>
        <time>2022-12-04T09:19:07Z</time>
      </trkpt>
      <trkpt lat="45.26628" lon="6.0233">
        <ele>1721</ele>
        <time>2022-12-04T09:19:10Z</time>
      </trkpt>
      <trkpt lat="45.26627" lon="6.02337">
        <ele>1722</ele>
        <time>2022-12-04T09:19:19Z</time>
      </trkpt>
      <trkpt lat="45.26624" lon="6.02342">
        <ele>1724</ele>
        <time>2022-12-04T09:19:27Z</time>
      </trkpt>
      <trkpt lat="45.26623" lon="6.02345">
        <ele>1724</ele>
        <time>2022-12-04T09:19:32Z</time>
      </trkpt>
      <trkpt lat="45.26622" lon="6.02348">
        <ele>1724</ele>
        <time>2022-12-04T09:19:36Z</time>
      </trkpt>
      <trkpt lat="45.2662" lon="6.0235">
        <ele>1725</ele>
        <time>2022-12-04T09:19:40Z</time>
      </trkpt>
      <trkpt lat="45.26619" lon="6.02354">
        <ele>1726</ele>
        <time>2022-12-04T09:19:46Z</time>
      </trkpt>
      <trkpt lat="45.26619" lon="6.02372">
        <ele>1730</ele>
        <time>2022-12-04T09:20:05Z</time>
      </trkpt>
      <trkpt lat="45.26619" lon="6.02375">
        <ele>1731</ele>
        <time>2022-12-04T09:20:10Z</time>
      </trkpt>
      <trkpt lat="45.26619" lon="6.02379">
        <ele>1730</ele>
        <time>2022-12-04T09:20:15Z</time>
      </trkpt>
      <trkpt lat="45.26618" lon="6.02382">
        <ele>1730</ele>
        <time>2022-12-04T09:20:20Z</time>
      </trkpt>
      <trkpt lat="45.26617" lon="6.02387">
        <ele>1729</ele>
        <time>2022-12-04T09:20:25Z</time>
      </trkpt>
      <trkpt lat="45.26615" lon="6.0239">
        <ele>1731</ele>
        <time>2022-12-04T09:20:29Z</time>
      </trkpt>
      <trkpt lat="45.26615" lon="6.02394">
        <ele>1731</ele>
        <time>2022-12-04T09:20:34Z</time>
      </trkpt>
      <trkpt lat="45.26614" lon="6.02401">
        <ele>1734</ele>
        <time>2022-12-04T09:20:43Z</time>
      </trkpt>
      <trkpt lat="45.26612" lon="6.02417">
        <ele>1735</ele>
        <time>2022-12-04T09:21:02Z</time>
      </trkpt>
      <trkpt lat="45.26607" lon="6.02429">
        <ele>1737</ele>
        <time>2022-12-04T09:21:18Z</time>
      </trkpt>
      <trkpt lat="45.26605" lon="6.02431">
        <ele>1737</ele>
        <time>2022-12-04T09:21:22Z</time>
      </trkpt>
      <trkpt lat="45.26604" lon="6.02435">
        <ele>1737</ele>
        <time>2022-12-04T09:21:26Z</time>
      </trkpt>
      <trkpt lat="45.26602" lon="6.0244">
        <ele>1738</ele>
        <time>2022-12-04T09:21:34Z</time>
      </trkpt>
      <trkpt lat="45.26601" lon="6.02442">
        <ele>1738</ele>
        <time>2022-12-04T09:21:37Z</time>
      </trkpt>
      <trkpt lat="45.26598" lon="6.02447">
        <ele>1739</ele>
        <time>2022-12-04T09:21:45Z</time>
      </trkpt>
      <trkpt lat="45.266" lon="6.02449">
        <ele>1739</ele>
        <time>2022-12-04T09:21:53Z</time>
      </trkpt>
      <trkpt lat="45.26603" lon="6.0245">
        <ele>1739</ele>
        <time>2022-12-04T09:21:59Z</time>
      </trkpt>
      <trkpt lat="45.26605" lon="6.0245">
        <ele>1739</ele>
        <time>2022-12-04T09:22:02Z</time>
      </trkpt>
      <trkpt lat="45.2661" lon="6.0245">
        <ele>1739</ele>
        <time>2022-12-04T09:22:10Z</time>
      </trkpt>
      <trkpt lat="45.26612" lon="6.02449">
        <ele>1740</ele>
        <time>2022-12-04T09:22:13Z</time>
      </trkpt>
      <trkpt lat="45.2662" lon="6.02446">
        <ele>1742</ele>
        <time>2022-12-04T09:22:26Z</time>
      </trkpt>
      <trkpt lat="45.26622" lon="6.02448">
        <ele>1742</ele>
        <time>2022-12-04T09:22:29Z</time>
      </trkpt>
      <trkpt lat="45.26624" lon="6.02448">
        <ele>1741</ele>
        <time>2022-12-04T09:22:33Z</time>
      </trkpt>
      <trkpt lat="45.26626" lon="6.02447">
        <ele>1742</ele>
        <time>2022-12-04T09:22:37Z</time>
      </trkpt>
      <trkpt lat="45.26627" lon="6.0245">
        <ele>1743</ele>
        <time>2022-12-04T09:22:45Z</time>
      </trkpt>
      <trkpt lat="45.26627" lon="6.02453">
        <ele>1745</ele>
        <time>2022-12-04T09:22:50Z</time>
      </trkpt>
      <trkpt lat="45.26623" lon="6.02462">
        <ele>1750</ele>
        <time>2022-12-04T09:23:05Z</time>
      </trkpt>
      <trkpt lat="45.26622" lon="6.02466">
        <ele>1750</ele>
        <time>2022-12-04T09:23:10Z</time>
      </trkpt>
      <trkpt lat="45.2662" lon="6.02476">
        <ele>1753</ele>
        <time>2022-12-04T09:23:22Z</time>
      </trkpt>
      <trkpt lat="45.26619" lon="6.0248">
        <ele>1753</ele>
        <time>2022-12-04T09:23:26Z</time>
      </trkpt>
      <trkpt lat="45.26618" lon="6.02484">
        <ele>1754</ele>
        <time>2022-12-04T09:23:31Z</time>
      </trkpt>
      <trkpt lat="45.26618" lon="6.02488">
        <ele>1754</ele>
        <time>2022-12-04T09:23:35Z</time>
      </trkpt>
      <trkpt lat="45.26619" lon="6.02491">
        <ele>1753</ele>
        <time>2022-12-04T09:23:38Z</time>
      </trkpt>
      <trkpt lat="45.26621" lon="6.02492">
        <ele>1753</ele>
        <time>2022-12-04T09:23:43Z</time>
      </trkpt>
      <trkpt lat="45.26626" lon="6.02487">
        <ele>1753</ele>
        <time>2022-12-04T09:23:54Z</time>
      </trkpt>
      <trkpt lat="45.26627" lon="6.02485">
        <ele>1753</ele>
        <time>2022-12-04T09:23:56Z</time>
      </trkpt>
      <trkpt lat="45.26628" lon="6.02483">
        <ele>1754</ele>
        <time>2022-12-04T09:23:59Z</time>
      </trkpt>
      <trkpt lat="45.26632" lon="6.02483">
        <ele>1755</ele>
        <time>2022-12-04T09:24:04Z</time>
      </trkpt>
      <trkpt lat="45.26643" lon="6.02473">
        <ele>1757</ele>
        <time>2022-12-04T09:24:23Z</time>
      </trkpt>
      <trkpt lat="45.26644" lon="6.02471">
        <ele>1757</ele>
        <time>2022-12-04T09:24:25Z</time>
      </trkpt>
      <trkpt lat="45.26649" lon="6.02469">
        <ele>1757</ele>
        <time>2022-12-04T09:24:33Z</time>
      </trkpt>
      <trkpt lat="45.26651" lon="6.02467">
        <ele>1757</ele>
        <time>2022-12-04T09:24:38Z</time>
      </trkpt>
      <trkpt lat="45.26653" lon="6.02467">
        <ele>1757</ele>
        <time>2022-12-04T09:24:41Z</time>
      </trkpt>
      <trkpt lat="45.26667" lon="6.02464">
        <ele>1760</ele>
        <time>2022-12-04T09:25:02Z</time>
      </trkpt>
      <trkpt lat="45.26684" lon="6.02455">
        <ele>1762</ele>
        <time>2022-12-04T09:25:29Z</time>
      </trkpt>
      <trkpt lat="45.26687" lon="6.02455">
        <ele>1762</ele>
        <time>2022-12-04T09:25:33Z</time>
      </trkpt>
      <trkpt lat="45.26688" lon="6.02462">
        <ele>1763</ele>
        <time>2022-12-04T09:25:41Z</time>
      </trkpt>
      <trkpt lat="45.26689" lon="6.02466">
        <ele>1764</ele>
        <time>2022-12-04T09:25:45Z</time>
      </trkpt>
      <trkpt lat="45.26689" lon="6.02468">
        <ele>1765</ele>
        <time>2022-12-04T09:28:47Z</time>
      </trkpt>
      <trkpt lat="45.26689" lon="6.0247">
        <ele>1766</ele>
        <time>2022-12-04T09:34:12Z</time>
      </trkpt>
      <trkpt lat="45.26687" lon="6.02483">
        <ele>1766</ele>
        <time>2022-12-04T09:34:24Z</time>
      </trkpt>
      <trkpt lat="45.26686" lon="6.02492">
        <ele>1766</ele>
        <time>2022-12-04T09:34:33Z</time>
      </trkpt>
      <trkpt lat="45.26683" lon="6.02501">
        <ele>1767</ele>
        <time>2022-12-04T09:34:42Z</time>
      </trkpt>
      <trkpt lat="45.26672" lon="6.02527">
        <ele>1769</ele>
        <time>2022-12-04T09:35:11Z</time>
      </trkpt>
      <trkpt lat="45.2667" lon="6.02532">
        <ele>1771</ele>
        <time>2022-12-04T09:35:17Z</time>
      </trkpt>
      <trkpt lat="45.26669" lon="6.02536">
        <ele>1771</ele>
        <time>2022-12-04T09:35:20Z</time>
      </trkpt>
      <trkpt lat="45.26669" lon="6.02538">
        <ele>1771</ele>
        <time>2022-12-04T09:35:23Z</time>
      </trkpt>
      <trkpt lat="45.26657" lon="6.02566">
        <ele>1773</ele>
        <time>2022-12-04T09:35:54Z</time>
      </trkpt>
      <trkpt lat="45.26655" lon="6.02573">
        <ele>1773</ele>
        <time>2022-12-04T09:36:00Z</time>
      </trkpt>
      <trkpt lat="45.26654" lon="6.02579">
        <ele>1774</ele>
        <time>2022-12-04T09:36:07Z</time>
      </trkpt>
      <trkpt lat="45.26655" lon="6.02582">
        <ele>1774</ele>
        <time>2022-12-04T09:36:10Z</time>
      </trkpt>
      <trkpt lat="45.26665" lon="6.026">
        <ele>1775</ele>
        <time>2022-12-04T09:36:32Z</time>
      </trkpt>
      <trkpt lat="45.26667" lon="6.0261">
        <ele>1777</ele>
        <time>2022-12-04T09:36:44Z</time>
      </trkpt>
      <trkpt lat="45.26668" lon="6.02626">
        <ele>1779</ele>
        <time>2022-12-04T09:36:58Z</time>
      </trkpt>
      <trkpt lat="45.26667" lon="6.02629">
        <ele>1779</ele>
        <time>2022-12-04T09:37:01Z</time>
      </trkpt>
      <trkpt lat="45.26667" lon="6.02639">
        <ele>1779</ele>
        <time>2022-12-04T09:37:10Z</time>
      </trkpt>
      <trkpt lat="45.26668" lon="6.02655">
        <ele>1781</ele>
        <time>2022-12-04T09:37:24Z</time>
      </trkpt>
      <trkpt lat="45.26668" lon="6.02658">
        <ele>1781</ele>
        <time>2022-12-04T09:37:27Z</time>
      </trkpt>
      <trkpt lat="45.26667" lon="6.02661">
        <ele>1782</ele>
        <time>2022-12-04T09:37:30Z</time>
      </trkpt>
      <trkpt lat="45.26667" lon="6.02665">
        <ele>1783</ele>
        <time>2022-12-04T09:37:33Z</time>
      </trkpt>
      <trkpt lat="45.26667" lon="6.02683">
        <ele>1783</ele>
        <time>2022-12-04T09:37:48Z</time>
      </trkpt>
      <trkpt lat="45.26671" lon="6.02716">
        <ele>1784</ele>
        <time>2022-12-04T09:38:15Z</time>
      </trkpt>
      <trkpt lat="45.26674" lon="6.02724">
        <ele>1784</ele>
        <time>2022-12-04T09:38:20Z</time>
      </trkpt>
      <trkpt lat="45.26677" lon="6.02737">
        <ele>1786</ele>
        <time>2022-12-04T09:38:31Z</time>
      </trkpt>
      <trkpt lat="45.26678" lon="6.02742">
        <ele>1786</ele>
        <time>2022-12-04T09:38:34Z</time>
      </trkpt>
      <trkpt lat="45.2668" lon="6.02752">
        <ele>1787</ele>
        <time>2022-12-04T09:38:43Z</time>
      </trkpt>
      <trkpt lat="45.26682" lon="6.02758">
        <ele>1787</ele>
        <time>2022-12-04T09:38:47Z</time>
      </trkpt>
      <trkpt lat="45.26689" lon="6.02796">
        <ele>1790</ele>
        <time>2022-12-04T09:39:17Z</time>
      </trkpt>
      <trkpt lat="45.26693" lon="6.02821">
        <ele>1789</ele>
        <time>2022-12-04T09:39:36Z</time>
      </trkpt>
      <trkpt lat="45.26694" lon="6.02824">
        <ele>1789</ele>
        <time>2022-12-04T09:39:39Z</time>
      </trkpt>
      <trkpt lat="45.26701" lon="6.02848">
        <ele>1791</ele>
        <time>2022-12-04T09:40:00Z</time>
      </trkpt>
      <trkpt lat="45.26706" lon="6.0287">
        <ele>1792</ele>
        <time>2022-12-04T09:40:20Z</time>
      </trkpt>
      <trkpt lat="45.26708" lon="6.02873">
        <ele>1792</ele>
        <time>2022-12-04T09:40:23Z</time>
      </trkpt>
      <trkpt lat="45.26715" lon="6.02894">
        <ele>1795</ele>
        <time>2022-12-04T09:40:44Z</time>
      </trkpt>
      <trkpt lat="45.2672" lon="6.02904">
        <ele>1796</ele>
        <time>2022-12-04T09:40:55Z</time>
      </trkpt>
      <trkpt lat="45.26729" lon="6.02917">
        <ele>1798</ele>
        <time>2022-12-04T09:41:10Z</time>
      </trkpt>
      <trkpt lat="45.26745" lon="6.02948">
        <ele>1801</ele>
        <time>2022-12-04T09:41:41Z</time>
      </trkpt>
      <trkpt lat="45.26746" lon="6.0295">
        <ele>1801</ele>
        <time>2022-12-04T09:41:44Z</time>
      </trkpt>
      <trkpt lat="45.26748" lon="6.02955">
        <ele>1800</ele>
        <time>2022-12-04T09:41:50Z</time>
      </trkpt>
      <trkpt lat="45.2675" lon="6.02956">
        <ele>1801</ele>
        <time>2022-12-04T09:41:54Z</time>
      </trkpt>
      <trkpt lat="45.26751" lon="6.02958">
        <ele>1801</ele>
        <time>2022-12-04T09:41:56Z</time>
      </trkpt>
      <trkpt lat="45.26752" lon="6.02964">
        <ele>1802</ele>
        <time>2022-12-04T09:42:01Z</time>
      </trkpt>
      <trkpt lat="45.26753" lon="6.02969">
        <ele>1802</ele>
        <time>2022-12-04T09:42:07Z</time>
      </trkpt>
      <trkpt lat="45.26754" lon="6.02972">
        <ele>1802</ele>
        <time>2022-12-04T09:42:11Z</time>
      </trkpt>
      <trkpt lat="45.26756" lon="6.02974">
        <ele>1802</ele>
        <time>2022-12-04T09:42:15Z</time>
      </trkpt>
      <trkpt lat="45.26758" lon="6.02977">
        <ele>1803</ele>
        <time>2022-12-04T09:42:19Z</time>
      </trkpt>
      <trkpt lat="45.2676" lon="6.0298">
        <ele>1803</ele>
        <time>2022-12-04T09:42:24Z</time>
      </trkpt>
      <trkpt lat="45.26767" lon="6.02992">
        <ele>1805</ele>
        <time>2022-12-04T09:42:47Z</time>
      </trkpt>
      <trkpt lat="45.26768" lon="6.02994">
        <ele>1806</ele>
        <time>2022-12-04T09:43:03Z</time>
      </trkpt>
      <trkpt lat="45.26776" lon="6.03008">
        <ele>1810</ele>
        <time>2022-12-04T09:43:32Z</time>
      </trkpt>
      <trkpt lat="45.26776" lon="6.03011">
        <ele>1810</ele>
        <time>2022-12-04T09:43:38Z</time>
      </trkpt>
      <trkpt lat="45.26774" lon="6.0301">
        <ele>1811</ele>
        <time>2022-12-04T09:45:14Z</time>
      </trkpt>
      <trkpt lat="45.26768" lon="6.03006">
        <ele>1810</ele>
        <time>2022-12-04T09:45:21Z</time>
      </trkpt>
      <trkpt lat="45.26766" lon="6.03005">
        <ele>1810</ele>
        <time>2022-12-04T09:45:24Z</time>
      </trkpt>
      <trkpt lat="45.26766" lon="6.03008">
        <ele>1811</ele>
        <time>2022-12-04T09:45:29Z</time>
      </trkpt>
      <trkpt lat="45.2677" lon="6.03012">
        <ele>1811</ele>
        <time>2022-12-04T09:45:37Z</time>
      </trkpt>
      <trkpt lat="45.26771" lon="6.03012">
        <ele>1811</ele>
        <time>2022-12-04T09:48:08Z</time>
      </trkpt>
      <trkpt lat="45.26772" lon="6.03014">
        <ele>1811</ele>
        <time>2022-12-04T09:48:56Z</time>
      </trkpt>
      <trkpt lat="45.26771" lon="6.03014">
        <ele>1811</ele>
        <time>2022-12-04T09:50:57Z</time>
      </trkpt>
      <trkpt lat="45.2677" lon="6.03016">
        <ele>1812</ele>
        <time>2022-12-04T09:51:13Z</time>
      </trkpt>
      <trkpt lat="45.26771" lon="6.03019">
        <ele>1813</ele>
        <time>2022-12-04T09:52:18Z</time>
      </trkpt>
      <trkpt lat="45.26778" lon="6.03028">
        <ele>1810</ele>
        <time>2022-12-04T09:52:32Z</time>
      </trkpt>
      <trkpt lat="45.26777" lon="6.03028">
        <ele>1811</ele>
        <time>2022-12-04T09:52:55Z</time>
      </trkpt>
      <trkpt lat="45.26775" lon="6.03027">
        <ele>1811</ele>
        <time>2022-12-04T09:53:00Z</time>
      </trkpt>
      <trkpt lat="45.26773" lon="6.03026">
        <ele>1813</ele>
        <time>2022-12-04T09:53:28Z</time>
      </trkpt>
      <trkpt lat="45.26771" lon="6.03025">
        <ele>1813</ele>
        <time>2022-12-04T09:53:31Z</time>
      </trkpt>
      <trkpt lat="45.26769" lon="6.03024">
        <ele>1815</ele>
        <time>2022-12-04T09:54:49Z</time>
      </trkpt>
      <trkpt lat="45.26767" lon="6.03023">
        <ele>1815</ele>
        <time>2022-12-04T09:54:52Z</time>
      </trkpt>
      <trkpt lat="45.26765" lon="6.03023">
        <ele>1816</ele>
        <time>2022-12-04T09:54:55Z</time>
      </trkpt>
      <trkpt lat="45.26765" lon="6.03023">
        <ele>1816</ele>
        <time>2022-12-04T09:55:21Z</time>
      </trkpt>
      <trkpt lat="45.26768" lon="6.03027">
        <ele>1815</ele>
        <time>2022-12-04T09:55:40Z</time>
      </trkpt>
      <trkpt lat="45.26771" lon="6.03031">
        <ele>1815</ele>
        <time>2022-12-04T09:55:48Z</time>
      </trkpt>
      <trkpt lat="45.26771" lon="6.03032">
        <ele>1815</ele>
        <time>2022-12-04T09:56:44Z</time>
      </trkpt>
      <trkpt lat="45.26769" lon="6.03032">
        <ele>1816</ele>
        <time>2022-12-04T09:56:47Z</time>
      </trkpt>
      <trkpt lat="45.26767" lon="6.03032">
        <ele>1816</ele>
        <time>2022-12-04T09:56:55Z</time>
      </trkpt>
      <trkpt lat="45.26762" lon="6.03026">
        <ele>1818</ele>
        <time>2022-12-04T09:57:10Z</time>
      </trkpt>
      <trkpt lat="45.26759" lon="6.03025">
        <ele>1819</ele>
        <time>2022-12-04T09:57:32Z</time>
      </trkpt>
      <trkpt lat="45.26757" lon="6.03024">
        <ele>1818</ele>
        <time>2022-12-04T09:57:35Z</time>
      </trkpt>
      <trkpt lat="45.26758" lon="6.03022">
        <ele>1818</ele>
        <time>2022-12-04T09:58:28Z</time>
      </trkpt>
      <trkpt lat="45.2676" lon="6.03025">
        <ele>1819</ele>
        <time>2022-12-04T09:58:35Z</time>
      </trkpt>
      <trkpt lat="45.26761" lon="6.03028">
        <ele>1821</ele>
        <time>2022-12-04T09:59:35Z</time>
      </trkpt>
      <trkpt lat="45.26764" lon="6.0303">
        <ele>1822</ele>
        <time>2022-12-04T09:59:39Z</time>
      </trkpt>
      <trkpt lat="45.26766" lon="6.03032">
        <ele>1821</ele>
        <time>2022-12-04T09:59:49Z</time>
      </trkpt>
      <trkpt lat="45.26767" lon="6.03036">
        <ele>1821</ele>
        <time>2022-12-04T09:59:54Z</time>
      </trkpt>
      <trkpt lat="45.26771" lon="6.0304">
        <ele>1822</ele>
        <time>2022-12-04T10:00:06Z</time>
      </trkpt>
      <trkpt lat="45.26776" lon="6.03043">
        <ele>1822</ele>
        <time>2022-12-04T10:00:15Z</time>
      </trkpt>
      <trkpt lat="45.26778" lon="6.03044">
        <ele>1824</ele>
        <time>2022-12-04T10:00:29Z</time>
      </trkpt>
      <trkpt lat="45.26781" lon="6.03046">
        <ele>1825</ele>
        <time>2022-12-04T10:00:33Z</time>
      </trkpt>
      <trkpt lat="45.26782" lon="6.03049">
        <ele>1824</ele>
        <time>2022-12-04T10:00:36Z</time>
      </trkpt>
      <trkpt lat="45.26784" lon="6.03049">
        <ele>1824</ele>
        <time>2022-12-04T10:00:39Z</time>
      </trkpt>
      <trkpt lat="45.26789" lon="6.03054">
        <ele>1824</ele>
        <time>2022-12-04T10:00:50Z</time>
      </trkpt>
      <trkpt lat="45.26789" lon="6.03055">
        <ele>1824</ele>
        <time>2022-12-04T10:01:09Z</time>
      </trkpt>
      <trkpt lat="45.26787" lon="6.03055">
        <ele>1824</ele>
        <time>2022-12-04T10:01:13Z</time>
      </trkpt>
      <trkpt lat="45.26785" lon="6.03054">
        <ele>1823</ele>
        <time>2022-12-04T10:01:20Z</time>
      </trkpt>
      <trkpt lat="45.26783" lon="6.03054">
        <ele>1822</ele>
        <time>2022-12-04T10:01:54Z</time>
      </trkpt>
      <trkpt lat="45.26781" lon="6.03055">
        <ele>1823</ele>
        <time>2022-12-04T10:02:12Z</time>
      </trkpt>
      <trkpt lat="45.26779" lon="6.03054">
        <ele>1824</ele>
        <time>2022-12-04T10:02:14Z</time>
      </trkpt>
      <trkpt lat="45.26776" lon="6.03055">
        <ele>1824</ele>
        <time>2022-12-04T10:02:18Z</time>
      </trkpt>
      <trkpt lat="45.26773" lon="6.03055">
        <ele>1824</ele>
        <time>2022-12-04T10:02:24Z</time>
      </trkpt>
      <trkpt lat="45.26771" lon="6.03054">
        <ele>1826</ele>
        <time>2022-12-04T10:02:27Z</time>
      </trkpt>
      <trkpt lat="45.26766" lon="6.03054">
        <ele>1825</ele>
        <time>2022-12-04T10:02:32Z</time>
      </trkpt>
      <trkpt lat="45.26763" lon="6.03055">
        <ele>1826</ele>
        <time>2022-12-04T10:02:37Z</time>
      </trkpt>
      <trkpt lat="45.26761" lon="6.03054">
        <ele>1827</ele>
        <time>2022-12-04T10:02:41Z</time>
      </trkpt>
      <trkpt lat="45.2676" lon="6.03054">
        <ele>1828</ele>
        <time>2022-12-04T10:03:07Z</time>
      </trkpt>
      <trkpt lat="45.26762" lon="6.0306">
        <ele>1828</ele>
        <time>2022-12-04T10:03:15Z</time>
      </trkpt>
      <trkpt lat="45.26762" lon="6.03064">
        <ele>1828</ele>
        <time>2022-12-04T10:03:18Z</time>
      </trkpt>
      <trkpt lat="45.26762" lon="6.03068">
        <ele>1828</ele>
        <time>2022-12-04T10:03:21Z</time>
      </trkpt>
      <trkpt lat="45.26765" lon="6.03074">
        <ele>1829</ele>
        <time>2022-12-04T10:03:28Z</time>
      </trkpt>
      <trkpt lat="45.26765" lon="6.03076">
        <ele>1829</ele>
        <time>2022-12-04T10:03:32Z</time>
      </trkpt>
      <trkpt lat="45.26768" lon="6.03083">
        <ele>1831</ele>
        <time>2022-12-04T10:03:40Z</time>
      </trkpt>
      <trkpt lat="45.26768" lon="6.03086">
        <ele>1831</ele>
        <time>2022-12-04T10:03:44Z</time>
      </trkpt>
      <trkpt lat="45.26767" lon="6.03089">
        <ele>1831</ele>
        <time>2022-12-04T10:03:48Z</time>
      </trkpt>
      <trkpt lat="45.26764" lon="6.03091">
        <ele>1833</ele>
        <time>2022-12-04T10:03:52Z</time>
      </trkpt>
      <trkpt lat="45.26762" lon="6.03093">
        <ele>1833</ele>
        <time>2022-12-04T10:03:56Z</time>
      </trkpt>
      <trkpt lat="45.2676" lon="6.03095">
        <ele>1833</ele>
        <time>2022-12-04T10:03:59Z</time>
      </trkpt>
      <trkpt lat="45.26755" lon="6.03098">
        <ele>1833</ele>
        <time>2022-12-04T10:04:07Z</time>
      </trkpt>
      <trkpt lat="45.26746" lon="6.03105">
        <ele>1833</ele>
        <time>2022-12-04T10:04:22Z</time>
      </trkpt>
      <trkpt lat="45.26743" lon="6.03105">
        <ele>1832</ele>
        <time>2022-12-04T10:04:26Z</time>
      </trkpt>
      <trkpt lat="45.2674" lon="6.03105">
        <ele>1833</ele>
        <time>2022-12-04T10:04:31Z</time>
      </trkpt>
      <trkpt lat="45.2674" lon="6.03105">
        <ele>1834</ele>
        <time>2022-12-04T10:05:29Z</time>
      </trkpt>
      <trkpt lat="45.26743" lon="6.03107">
        <ele>1834</ele>
        <time>2022-12-04T10:06:01Z</time>
      </trkpt>
      <trkpt lat="45.2675" lon="6.03106">
        <ele>1837</ele>
        <time>2022-12-04T10:06:39Z</time>
      </trkpt>
      <trkpt lat="45.26754" lon="6.03107">
        <ele>1837</ele>
        <time>2022-12-04T10:06:47Z</time>
      </trkpt>
      <trkpt lat="45.2676" lon="6.03106">
        <ele>1837</ele>
        <time>2022-12-04T10:06:55Z</time>
      </trkpt>
      <trkpt lat="45.2676" lon="6.03108">
        <ele>1838</ele>
        <time>2022-12-04T10:07:16Z</time>
      </trkpt>
      <trkpt lat="45.26757" lon="6.03109">
        <ele>1838</ele>
        <time>2022-12-04T10:07:19Z</time>
      </trkpt>
      <trkpt lat="45.26752" lon="6.03113">
        <ele>1837</ele>
        <time>2022-12-04T10:07:28Z</time>
      </trkpt>
      <trkpt lat="45.26754" lon="6.03113">
        <ele>1836</ele>
        <time>2022-12-04T10:08:05Z</time>
      </trkpt>
      <trkpt lat="45.26763" lon="6.03115">
        <ele>1839</ele>
        <time>2022-12-04T10:08:18Z</time>
      </trkpt>
      <trkpt lat="45.2676" lon="6.03117">
        <ele>1838</ele>
        <time>2022-12-04T10:09:43Z</time>
      </trkpt>
      <trkpt lat="45.26756" lon="6.03119">
        <ele>1837</ele>
        <time>2022-12-04T10:09:58Z</time>
      </trkpt>
      <trkpt lat="45.26746" lon="6.0312">
        <ele>1836</ele>
        <time>2022-12-04T10:10:12Z</time>
      </trkpt>
      <trkpt lat="45.26742" lon="6.03125">
        <ele>1837</ele>
        <time>2022-12-04T10:10:20Z</time>
      </trkpt>
      <trkpt lat="45.26739" lon="6.03127">
        <ele>1835</ele>
        <time>2022-12-04T10:10:27Z</time>
      </trkpt>
      <trkpt lat="45.26736" lon="6.03126">
        <ele>1836</ele>
        <time>2022-12-04T10:10:30Z</time>
      </trkpt>
      <trkpt lat="45.26737" lon="6.03126">
        <ele>1839</ele>
        <time>2022-12-04T10:11:02Z</time>
      </trkpt>
      <trkpt lat="45.26739" lon="6.03128">
        <ele>1842</ele>
        <time>2022-12-04T10:11:06Z</time>
      </trkpt>
      <trkpt lat="45.26746" lon="6.03131">
        <ele>1844</ele>
        <time>2022-12-04T10:11:19Z</time>
      </trkpt>
      <trkpt lat="45.26741" lon="6.03132">
        <ele>1843</ele>
        <time>2022-12-04T10:11:46Z</time>
      </trkpt>
      <trkpt lat="45.26736" lon="6.0313">
        <ele>1843</ele>
        <time>2022-12-04T10:12:07Z</time>
      </trkpt>
      <trkpt lat="45.26733" lon="6.03129">
        <ele>1844</ele>
        <time>2022-12-04T10:12:11Z</time>
      </trkpt>
      <trkpt lat="45.26734" lon="6.03131">
        <ele>1844</ele>
        <time>2022-12-04T10:13:41Z</time>
      </trkpt>
      <trkpt lat="45.26736" lon="6.03132">
        <ele>1845</ele>
        <time>2022-12-04T10:14:00Z</time>
      </trkpt>
      <trkpt lat="45.26737" lon="6.03134">
        <ele>1849</ele>
        <time>2022-12-04T10:14:04Z</time>
      </trkpt>
      <trkpt lat="45.26739" lon="6.03136">
        <ele>1850</ele>
        <time>2022-12-04T10:14:36Z</time>
      </trkpt>
      <trkpt lat="45.26741" lon="6.03137">
        <ele>1851</ele>
        <time>2022-12-04T10:14:39Z</time>
      </trkpt>
      <trkpt lat="45.26739" lon="6.03139">
        <ele>1851</ele>
        <time>2022-12-04T10:14:57Z</time>
      </trkpt>
      <trkpt lat="45.26731" lon="6.03138">
        <ele>1849</ele>
        <time>2022-12-04T10:15:15Z</time>
      </trkpt>
      <trkpt lat="45.2673" lon="6.03139">
        <ele>1848</ele>
        <time>2022-12-04T10:15:52Z</time>
      </trkpt>
      <trkpt lat="45.26731" lon="6.03142">
        <ele>1849</ele>
        <time>2022-12-04T10:16:00Z</time>
      </trkpt>
      <trkpt lat="45.26741" lon="6.03146">
        <ele>1854</ele>
        <time>2022-12-04T10:16:33Z</time>
      </trkpt>
      <trkpt lat="45.26744" lon="6.03147">
        <ele>1856</ele>
        <time>2022-12-04T10:16:38Z</time>
      </trkpt>
      <trkpt lat="45.26745" lon="6.03149">
        <ele>1855</ele>
        <time>2022-12-04T10:16:41Z</time>
      </trkpt>
      <trkpt lat="45.26748" lon="6.0315">
        <ele>1855</ele>
        <time>2022-12-04T10:16:45Z</time>
      </trkpt>
      <trkpt lat="45.26749" lon="6.03153">
        <ele>1855</ele>
        <time>2022-12-04T10:16:49Z</time>
      </trkpt>
      <trkpt lat="45.26751" lon="6.03152">
        <ele>1855</ele>
        <time>2022-12-04T10:16:52Z</time>
      </trkpt>
      <trkpt lat="45.26757" lon="6.03154">
        <ele>1856</ele>
        <time>2022-12-04T10:17:01Z</time>
      </trkpt>
      <trkpt lat="45.26768" lon="6.03158">
        <ele>1860</ele>
        <time>2022-12-04T10:17:19Z</time>
      </trkpt>
      <trkpt lat="45.26769" lon="6.03158">
        <ele>1861</ele>
        <time>2022-12-04T10:17:22Z</time>
      </trkpt>
      <trkpt lat="45.26773" lon="6.03162">
        <ele>1861</ele>
        <time>2022-12-04T10:17:30Z</time>
      </trkpt>
      <trkpt lat="45.26771" lon="6.03162">
        <ele>1860</ele>
        <time>2022-12-04T10:18:09Z</time>
      </trkpt>
      <trkpt lat="45.26765" lon="6.03161">
        <ele>1858</ele>
        <time>2022-12-04T10:18:41Z</time>
      </trkpt>
      <trkpt lat="45.26755" lon="6.03162">
        <ele>1857</ele>
        <time>2022-12-04T10:18:55Z</time>
      </trkpt>
      <trkpt lat="45.26744" lon="6.03161">
        <ele>1859</ele>
        <time>2022-12-04T10:19:17Z</time>
      </trkpt>
      <trkpt lat="45.26744" lon="6.03162">
        <ele>1862</ele>
        <time>2022-12-04T10:19:47Z</time>
      </trkpt>
      <trkpt lat="45.26755" lon="6.03171">
        <ele>1867</ele>
        <time>2022-12-04T10:20:17Z</time>
      </trkpt>
      <trkpt lat="45.26757" lon="6.03172">
        <ele>1868</ele>
        <time>2022-12-04T10:20:21Z</time>
      </trkpt>
      <trkpt lat="45.26756" lon="6.03172">
        <ele>1868</ele>
        <time>2022-12-04T10:20:47Z</time>
      </trkpt>
      <trkpt lat="45.26751" lon="6.03172">
        <ele>1866</ele>
        <time>2022-12-04T10:21:02Z</time>
      </trkpt>
      <trkpt lat="45.26749" lon="6.03172">
        <ele>1866</ele>
        <time>2022-12-04T10:21:09Z</time>
      </trkpt>
      <trkpt lat="45.26738" lon="6.03169">
        <ele>1865</ele>
        <time>2022-12-04T10:21:54Z</time>
      </trkpt>
      <trkpt lat="45.26737" lon="6.03171">
        <ele>1868</ele>
        <time>2022-12-04T10:22:23Z</time>
      </trkpt>
      <trkpt lat="45.26739" lon="6.03173">
        <ele>1869</ele>
        <time>2022-12-04T10:22:44Z</time>
      </trkpt>
      <trkpt lat="45.26743" lon="6.03176">
        <ele>1870</ele>
        <time>2022-12-04T10:22:52Z</time>
      </trkpt>
      <trkpt lat="45.26755" lon="6.03183">
        <ele>1870</ele>
        <time>2022-12-04T10:23:26Z</time>
      </trkpt>
      <trkpt lat="45.26758" lon="6.03186">
        <ele>1869</ele>
        <time>2022-12-04T10:23:32Z</time>
      </trkpt>
      <trkpt lat="45.2676" lon="6.03187">
        <ele>1869</ele>
        <time>2022-12-04T10:23:36Z</time>
      </trkpt>
      <trkpt lat="45.26765" lon="6.03187">
        <ele>1869</ele>
        <time>2022-12-04T10:23:49Z</time>
      </trkpt>
      <trkpt lat="45.26767" lon="6.03186">
        <ele>1869</ele>
        <time>2022-12-04T10:23:54Z</time>
      </trkpt>
      <trkpt lat="45.26769" lon="6.03187">
        <ele>1868</ele>
        <time>2022-12-04T10:23:59Z</time>
      </trkpt>
      <trkpt lat="45.26771" lon="6.03187">
        <ele>1869</ele>
        <time>2022-12-04T10:24:05Z</time>
      </trkpt>
      <trkpt lat="45.26773" lon="6.0319">
        <ele>1869</ele>
        <time>2022-12-04T10:24:10Z</time>
      </trkpt>
      <trkpt lat="45.26781" lon="6.03194">
        <ele>1869</ele>
        <time>2022-12-04T10:24:23Z</time>
      </trkpt>
      <trkpt lat="45.26779" lon="6.03194">
        <ele>1869</ele>
        <time>2022-12-04T10:24:49Z</time>
      </trkpt>
      <trkpt lat="45.26776" lon="6.03194">
        <ele>1870</ele>
        <time>2022-12-04T10:24:54Z</time>
      </trkpt>
      <trkpt lat="45.26771" lon="6.03192">
        <ele>1869</ele>
        <time>2022-12-04T10:25:08Z</time>
      </trkpt>
      <trkpt lat="45.26769" lon="6.03192">
        <ele>1870</ele>
        <time>2022-12-04T10:25:13Z</time>
      </trkpt>
      <trkpt lat="45.26768" lon="6.03195">
        <ele>1869</ele>
        <time>2022-12-04T10:25:19Z</time>
      </trkpt>
      <trkpt lat="45.26766" lon="6.03194">
        <ele>1869</ele>
        <time>2022-12-04T10:25:21Z</time>
      </trkpt>
      <trkpt lat="45.26764" lon="6.03195">
        <ele>1869</ele>
        <time>2022-12-04T10:25:25Z</time>
      </trkpt>
      <trkpt lat="45.26761" lon="6.03194">
        <ele>1870</ele>
        <time>2022-12-04T10:25:37Z</time>
      </trkpt>
      <trkpt lat="45.26758" lon="6.03194">
        <ele>1871</ele>
        <time>2022-12-04T10:25:50Z</time>
      </trkpt>
      <trkpt lat="45.26756" lon="6.03192">
        <ele>1872</ele>
        <time>2022-12-04T10:26:02Z</time>
      </trkpt>
      <trkpt lat="45.26754" lon="6.03194">
        <ele>1872</ele>
        <time>2022-12-04T10:26:06Z</time>
      </trkpt>
      <trkpt lat="45.26747" lon="6.03194">
        <ele>1871</ele>
        <time>2022-12-04T10:26:24Z</time>
      </trkpt>
      <trkpt lat="45.26745" lon="6.03192">
        <ele>1871</ele>
        <time>2022-12-04T10:26:30Z</time>
      </trkpt>
      <trkpt lat="45.26743" lon="6.0319">
        <ele>1871</ele>
        <time>2022-12-04T10:26:34Z</time>
      </trkpt>
      <trkpt lat="45.26738" lon="6.0319">
        <ele>1871</ele>
        <time>2022-12-04T10:26:42Z</time>
      </trkpt>
      <trkpt lat="45.26736" lon="6.03189">
        <ele>1873</ele>
        <time>2022-12-04T10:26:51Z</time>
      </trkpt>
      <trkpt lat="45.26731" lon="6.03189">
        <ele>1872</ele>
        <time>2022-12-04T10:26:59Z</time>
      </trkpt>
      <trkpt lat="45.26732" lon="6.0319">
        <ele>1873</ele>
        <time>2022-12-04T10:27:42Z</time>
      </trkpt>
      <trkpt lat="45.26744" lon="6.03199">
        <ele>1877</ele>
        <time>2022-12-04T10:28:11Z</time>
      </trkpt>
      <trkpt lat="45.26745" lon="6.03201">
        <ele>1877</ele>
        <time>2022-12-04T10:28:16Z</time>
      </trkpt>
      <trkpt lat="45.26744" lon="6.03201">
        <ele>1877</ele>
        <time>2022-12-04T10:28:47Z</time>
      </trkpt>
      <trkpt lat="45.26742" lon="6.032">
        <ele>1878</ele>
        <time>2022-12-04T10:28:53Z</time>
      </trkpt>
      <trkpt lat="45.2674" lon="6.03201">
        <ele>1878</ele>
        <time>2022-12-04T10:29:00Z</time>
      </trkpt>
      <trkpt lat="45.26738" lon="6.03199">
        <ele>1878</ele>
        <time>2022-12-04T10:29:04Z</time>
      </trkpt>
      <trkpt lat="45.26735" lon="6.03198">
        <ele>1878</ele>
        <time>2022-12-04T10:29:17Z</time>
      </trkpt>
      <trkpt lat="45.26733" lon="6.03196">
        <ele>1879</ele>
        <time>2022-12-04T10:29:26Z</time>
      </trkpt>
      <trkpt lat="45.2673" lon="6.03195">
        <ele>1879</ele>
        <time>2022-12-04T10:29:32Z</time>
      </trkpt>
      <trkpt lat="45.26729" lon="6.03197">
        <ele>1879</ele>
        <time>2022-12-04T10:29:55Z</time>
      </trkpt>
      <trkpt lat="45.26732" lon="6.032">
        <ele>1880</ele>
        <time>2022-12-04T10:30:01Z</time>
      </trkpt>
      <trkpt lat="45.26737" lon="6.03205">
        <ele>1880</ele>
        <time>2022-12-04T10:30:11Z</time>
      </trkpt>
      <trkpt lat="45.2674" lon="6.03209">
        <ele>1881</ele>
        <time>2022-12-04T10:30:17Z</time>
      </trkpt>
      <trkpt lat="45.26741" lon="6.0321">
        <ele>1881</ele>
        <time>2022-12-04T10:30:19Z</time>
      </trkpt>
      <trkpt lat="45.26746" lon="6.03212">
        <ele>1882</ele>
        <time>2022-12-04T10:30:25Z</time>
      </trkpt>
      <trkpt lat="45.26749" lon="6.03215">
        <ele>1883</ele>
        <time>2022-12-04T10:30:31Z</time>
      </trkpt>
      <trkpt lat="45.26751" lon="6.03216">
        <ele>1883</ele>
        <time>2022-12-04T10:30:34Z</time>
      </trkpt>
      <trkpt lat="45.26753" lon="6.03217">
        <ele>1883</ele>
        <time>2022-12-04T10:30:38Z</time>
      </trkpt>
      <trkpt lat="45.26761" lon="6.03222">
        <ele>1885</ele>
        <time>2022-12-04T10:30:58Z</time>
      </trkpt>
      <trkpt lat="45.26764" lon="6.03222">
        <ele>1886</ele>
        <time>2022-12-04T10:31:01Z</time>
      </trkpt>
      <trkpt lat="45.26766" lon="6.03223">
        <ele>1886</ele>
        <time>2022-12-04T10:31:07Z</time>
      </trkpt>
      <trkpt lat="45.26773" lon="6.0323">
        <ele>1887</ele>
        <time>2022-12-04T10:31:22Z</time>
      </trkpt>
      <trkpt lat="45.26776" lon="6.0323">
        <ele>1888</ele>
        <time>2022-12-04T10:31:26Z</time>
      </trkpt>
      <trkpt lat="45.26777" lon="6.03232">
        <ele>1888</ele>
        <time>2022-12-04T10:32:02Z</time>
      </trkpt>
      <trkpt lat="45.26778" lon="6.03234">
        <ele>1889</ele>
        <time>2022-12-04T10:32:04Z</time>
      </trkpt>
      <trkpt lat="45.2678" lon="6.03235">
        <ele>1890</ele>
        <time>2022-12-04T10:32:08Z</time>
      </trkpt>
      <trkpt lat="45.26781" lon="6.03237">
        <ele>1890</ele>
        <time>2022-12-04T10:32:12Z</time>
      </trkpt>
      <trkpt lat="45.26783" lon="6.03238">
        <ele>1891</ele>
        <time>2022-12-04T10:32:15Z</time>
      </trkpt>
      <trkpt lat="45.26783" lon="6.0324">
        <ele>1892</ele>
        <time>2022-12-04T10:32:49Z</time>
      </trkpt>
      <trkpt lat="45.26781" lon="6.0324">
        <ele>1892</ele>
        <time>2022-12-04T10:32:53Z</time>
      </trkpt>
      <trkpt lat="45.26778" lon="6.03238">
        <ele>1893</ele>
        <time>2022-12-04T10:32:59Z</time>
      </trkpt>
      <trkpt lat="45.26775" lon="6.03235">
        <ele>1893</ele>
        <time>2022-12-04T10:33:12Z</time>
      </trkpt>
      <trkpt lat="45.26773" lon="6.03235">
        <ele>1895</ele>
        <time>2022-12-04T10:33:21Z</time>
      </trkpt>
      <trkpt lat="45.26771" lon="6.03234">
        <ele>1895</ele>
        <time>2022-12-04T10:33:29Z</time>
      </trkpt>
      <trkpt lat="45.26769" lon="6.03234">
        <ele>1895</ele>
        <time>2022-12-04T10:33:32Z</time>
      </trkpt>
      <trkpt lat="45.26769" lon="6.03236">
        <ele>1897</ele>
        <time>2022-12-04T10:34:22Z</time>
      </trkpt>
      <trkpt lat="45.2677" lon="6.03238">
        <ele>1897</ele>
        <time>2022-12-04T10:34:38Z</time>
      </trkpt>
      <trkpt lat="45.26772" lon="6.03239">
        <ele>1897</ele>
        <time>2022-12-04T10:34:48Z</time>
      </trkpt>
      <trkpt lat="45.26773" lon="6.0324">
        <ele>1896</ele>
        <time>2022-12-04T10:34:55Z</time>
      </trkpt>
      <trkpt lat="45.26777" lon="6.03242">
        <ele>1896</ele>
        <time>2022-12-04T10:35:05Z</time>
      </trkpt>
      <trkpt lat="45.26778" lon="6.03244">
        <ele>1897</ele>
        <time>2022-12-04T10:35:09Z</time>
      </trkpt>
      <trkpt lat="45.26782" lon="6.03246">
        <ele>1897</ele>
        <time>2022-12-04T10:35:20Z</time>
      </trkpt>
      <trkpt lat="45.26783" lon="6.03246">
        <ele>1898</ele>
        <time>2022-12-04T10:35:25Z</time>
      </trkpt>
      <trkpt lat="45.26789" lon="6.0325">
        <ele>1899</ele>
        <time>2022-12-04T10:35:38Z</time>
      </trkpt>
      <trkpt lat="45.26794" lon="6.03254">
        <ele>1900</ele>
        <time>2022-12-04T10:35:54Z</time>
      </trkpt>
      <trkpt lat="45.26808" lon="6.03254">
        <ele>1901</ele>
        <time>2022-12-04T10:36:18Z</time>
      </trkpt>
      <trkpt lat="45.26806" lon="6.03254">
        <ele>1901</ele>
        <time>2022-12-04T10:36:50Z</time>
      </trkpt>
      <trkpt lat="45.26805" lon="6.03256">
        <ele>1902</ele>
        <time>2022-12-04T10:36:59Z</time>
      </trkpt>
      <trkpt lat="45.26803" lon="6.03257">
        <ele>1902</ele>
        <time>2022-12-04T10:37:03Z</time>
      </trkpt>
      <trkpt lat="45.26801" lon="6.03258">
        <ele>1903</ele>
        <time>2022-12-04T10:37:06Z</time>
      </trkpt>
      <trkpt lat="45.26799" lon="6.03257">
        <ele>1904</ele>
        <time>2022-12-04T10:37:16Z</time>
      </trkpt>
      <trkpt lat="45.26797" lon="6.03258">
        <ele>1905</ele>
        <time>2022-12-04T10:37:20Z</time>
      </trkpt>
      <trkpt lat="45.26794" lon="6.03259">
        <ele>1905</ele>
        <time>2022-12-04T10:37:26Z</time>
      </trkpt>
      <trkpt lat="45.26792" lon="6.03258">
        <ele>1904</ele>
        <time>2022-12-04T10:37:29Z</time>
      </trkpt>
      <trkpt lat="45.26784" lon="6.03259">
        <ele>1906</ele>
        <time>2022-12-04T10:37:44Z</time>
      </trkpt>
      <trkpt lat="45.26782" lon="6.03256">
        <ele>1906</ele>
        <time>2022-12-04T10:37:49Z</time>
      </trkpt>
      <trkpt lat="45.26782" lon="6.03254">
        <ele>1907</ele>
        <time>2022-12-04T10:38:01Z</time>
      </trkpt>
      <trkpt lat="45.2678" lon="6.03254">
        <ele>1907</ele>
        <time>2022-12-04T10:38:05Z</time>
      </trkpt>
      <trkpt lat="45.26777" lon="6.03254">
        <ele>1906</ele>
        <time>2022-12-04T10:38:11Z</time>
      </trkpt>
      <trkpt lat="45.26778" lon="6.03257">
        <ele>1906</ele>
        <time>2022-12-04T10:38:44Z</time>
      </trkpt>
      <trkpt lat="45.26782" lon="6.0326">
        <ele>1907</ele>
        <time>2022-12-04T10:38:57Z</time>
      </trkpt>
      <trkpt lat="45.26783" lon="6.03261">
        <ele>1907</ele>
        <time>2022-12-04T10:39:03Z</time>
      </trkpt>
      <trkpt lat="45.26788" lon="6.03264">
        <ele>1906</ele>
        <time>2022-12-04T10:39:12Z</time>
      </trkpt>
      <trkpt lat="45.26793" lon="6.03266">
        <ele>1906</ele>
        <time>2022-12-04T10:39:21Z</time>
      </trkpt>
      <trkpt lat="45.26799" lon="6.03268">
        <ele>1909</ele>
        <time>2022-12-04T10:39:47Z</time>
      </trkpt>
      <trkpt lat="45.26804" lon="6.03269">
        <ele>1909</ele>
        <time>2022-12-04T10:40:02Z</time>
      </trkpt>
      <trkpt lat="45.26804" lon="6.03269">
        <ele>1910</ele>
        <time>2022-12-04T10:40:54Z</time>
      </trkpt>
      <trkpt lat="45.26799" lon="6.03268">
        <ele>1910</ele>
        <time>2022-12-04T10:41:02Z</time>
      </trkpt>
      <trkpt lat="45.26797" lon="6.0327">
        <ele>1910</ele>
        <time>2022-12-04T10:41:11Z</time>
      </trkpt>
      <trkpt lat="45.26794" lon="6.0327">
        <ele>1910</ele>
        <time>2022-12-04T10:41:14Z</time>
      </trkpt>
      <trkpt lat="45.26791" lon="6.0327">
        <ele>1908</ele>
        <time>2022-12-04T10:41:24Z</time>
      </trkpt>
      <trkpt lat="45.26789" lon="6.03271">
        <ele>1909</ele>
        <time>2022-12-04T10:41:30Z</time>
      </trkpt>
      <trkpt lat="45.26787" lon="6.03271">
        <ele>1910</ele>
        <time>2022-12-04T10:41:35Z</time>
      </trkpt>
      <trkpt lat="45.26788" lon="6.03274">
        <ele>1911</ele>
        <time>2022-12-04T10:42:17Z</time>
      </trkpt>
      <trkpt lat="45.2679" lon="6.03274">
        <ele>1911</ele>
        <time>2022-12-04T10:42:22Z</time>
      </trkpt>
      <trkpt lat="45.26801" lon="6.03278">
        <ele>1915</ele>
        <time>2022-12-04T10:42:51Z</time>
      </trkpt>
      <trkpt lat="45.26808" lon="6.03276">
        <ele>1915</ele>
        <time>2022-12-04T10:43:03Z</time>
      </trkpt>
      <trkpt lat="45.26814" lon="6.0328">
        <ele>1916</ele>
        <time>2022-12-04T10:43:19Z</time>
      </trkpt>
      <trkpt lat="45.26819" lon="6.03282">
        <ele>1916</ele>
        <time>2022-12-04T10:43:33Z</time>
      </trkpt>
      <trkpt lat="45.26821" lon="6.03282">
        <ele>1916</ele>
        <time>2022-12-04T10:43:36Z</time>
      </trkpt>
      <trkpt lat="45.26826" lon="6.03282">
        <ele>1917</ele>
        <time>2022-12-04T10:43:44Z</time>
      </trkpt>
      <trkpt lat="45.26829" lon="6.03283">
        <ele>1917</ele>
        <time>2022-12-04T10:43:50Z</time>
      </trkpt>
      <trkpt lat="45.26831" lon="6.03285">
        <ele>1917</ele>
        <time>2022-12-04T10:43:53Z</time>
      </trkpt>
      <trkpt lat="45.26832" lon="6.03287">
        <ele>1917</ele>
        <time>2022-12-04T10:44:13Z</time>
      </trkpt>
      <trkpt lat="45.26833" lon="6.0329">
        <ele>1917</ele>
        <time>2022-12-04T10:46:13Z</time>
      </trkpt>
      <trkpt lat="45.26832" lon="6.03289">
        <ele>1917</ele>
        <time>2022-12-04T10:46:43Z</time>
      </trkpt>
      <trkpt lat="45.26833" lon="6.03292">
        <ele>1918</ele>
        <time>2022-12-04T10:52:33Z</time>
      </trkpt>
      <trkpt lat="45.26834" lon="6.03295">
        <ele>1918</ele>
        <time>2022-12-04T10:52:38Z</time>
      </trkpt>
      <trkpt lat="45.26833" lon="6.03298">
        <ele>1919</ele>
        <time>2022-12-04T10:52:45Z</time>
      </trkpt>
      <trkpt lat="45.26831" lon="6.03299">
        <ele>1920</ele>
        <time>2022-12-04T10:52:48Z</time>
      </trkpt>
      <trkpt lat="45.26815" lon="6.03302">
        <ele>1921</ele>
        <time>2022-12-04T10:53:16Z</time>
      </trkpt>
      <trkpt lat="45.26813" lon="6.03302">
        <ele>1921</ele>
        <time>2022-12-04T10:53:20Z</time>
      </trkpt>
      <trkpt lat="45.26815" lon="6.03307">
        <ele>1924</ele>
        <time>2022-12-04T10:53:49Z</time>
      </trkpt>
      <trkpt lat="45.26819" lon="6.03312">
        <ele>1924</ele>
        <time>2022-12-04T10:53:56Z</time>
      </trkpt>
      <trkpt lat="45.26821" lon="6.03314">
        <ele>1924</ele>
        <time>2022-12-04T10:53:59Z</time>
      </trkpt>
      <trkpt lat="45.26819" lon="6.03317">
        <ele>1926</ele>
        <time>2022-12-04T10:54:07Z</time>
      </trkpt>
      <trkpt lat="45.26813" lon="6.03316">
        <ele>1926</ele>
        <time>2022-12-04T10:54:18Z</time>
      </trkpt>
      <trkpt lat="45.26801" lon="6.03322">
        <ele>1928</ele>
        <time>2022-12-04T10:54:36Z</time>
      </trkpt>
      <trkpt lat="45.26799" lon="6.03322">
        <ele>1929</ele>
        <time>2022-12-04T10:54:39Z</time>
      </trkpt>
      <trkpt lat="45.26793" lon="6.03326">
        <ele>1930</ele>
        <time>2022-12-04T10:54:49Z</time>
      </trkpt>
      <trkpt lat="45.26791" lon="6.03327">
        <ele>1931</ele>
        <time>2022-12-04T10:54:53Z</time>
      </trkpt>
      <trkpt lat="45.26791" lon="6.03331">
        <ele>1933</ele>
        <time>2022-12-04T10:55:03Z</time>
      </trkpt>
      <trkpt lat="45.26798" lon="6.03343">
        <ele>1936</ele>
        <time>2022-12-04T10:55:22Z</time>
      </trkpt>
      <trkpt lat="45.26799" lon="6.03346">
        <ele>1937</ele>
        <time>2022-12-04T10:55:26Z</time>
      </trkpt>
      <trkpt lat="45.26796" lon="6.03347">
        <ele>1937</ele>
        <time>2022-12-04T10:55:58Z</time>
      </trkpt>
      <trkpt lat="45.26794" lon="6.03347">
        <ele>1938</ele>
        <time>2022-12-04T10:56:00Z</time>
      </trkpt>
      <trkpt lat="45.26783" lon="6.03347">
        <ele>1940</ele>
        <time>2022-12-04T10:56:17Z</time>
      </trkpt>
      <trkpt lat="45.26784" lon="6.0335">
        <ele>1941</ele>
        <time>2022-12-04T10:56:26Z</time>
      </trkpt>
      <trkpt lat="45.26785" lon="6.03353">
        <ele>1942</ele>
        <time>2022-12-04T10:56:29Z</time>
      </trkpt>
      <trkpt lat="45.26785" lon="6.03356">
        <ele>1943</ele>
        <time>2022-12-04T10:56:33Z</time>
      </trkpt>
      <trkpt lat="45.26785" lon="6.03359">
        <ele>1943</ele>
        <time>2022-12-04T10:56:37Z</time>
      </trkpt>
      <trkpt lat="45.26786" lon="6.03361">
        <ele>1944</ele>
        <time>2022-12-04T10:56:41Z</time>
      </trkpt>
      <trkpt lat="45.26787" lon="6.03364">
        <ele>1944</ele>
        <time>2022-12-04T10:56:45Z</time>
      </trkpt>
      <trkpt lat="45.26788" lon="6.03369">
        <ele>1945</ele>
        <time>2022-12-04T10:56:50Z</time>
      </trkpt>
      <trkpt lat="45.26793" lon="6.03377">
        <ele>1947</ele>
        <time>2022-12-04T10:57:08Z</time>
      </trkpt>
      <trkpt lat="45.26797" lon="6.03378">
        <ele>1948</ele>
        <time>2022-12-04T10:57:14Z</time>
      </trkpt>
      <trkpt lat="45.268" lon="6.0338">
        <ele>1948</ele>
        <time>2022-12-04T10:57:18Z</time>
      </trkpt>
      <trkpt lat="45.26803" lon="6.03385">
        <ele>1949</ele>
        <time>2022-12-04T10:57:25Z</time>
      </trkpt>
      <trkpt lat="45.26805" lon="6.03387">
        <ele>1949</ele>
        <time>2022-12-04T10:57:32Z</time>
      </trkpt>
      <trkpt lat="45.26804" lon="6.03389">
        <ele>1950</ele>
        <time>2022-12-04T10:57:44Z</time>
      </trkpt>
      <trkpt lat="45.26802" lon="6.03389">
        <ele>1950</ele>
        <time>2022-12-04T10:57:49Z</time>
      </trkpt>
      <trkpt lat="45.26796" lon="6.03392">
        <ele>1953</ele>
        <time>2022-12-04T10:58:02Z</time>
      </trkpt>
      <trkpt lat="45.26794" lon="6.0339">
        <ele>1953</ele>
        <time>2022-12-04T10:58:06Z</time>
      </trkpt>
      <trkpt lat="45.26793" lon="6.0339">
        <ele>1956</ele>
        <time>2022-12-04T10:58:39Z</time>
      </trkpt>
      <trkpt lat="45.26794" lon="6.03393">
        <ele>1956</ele>
        <time>2022-12-04T10:58:43Z</time>
      </trkpt>
      <trkpt lat="45.26796" lon="6.03398">
        <ele>1956</ele>
        <time>2022-12-04T10:58:51Z</time>
      </trkpt>
      <trkpt lat="45.26805" lon="6.03402">
        <ele>1957</ele>
        <time>2022-12-04T10:59:11Z</time>
      </trkpt>
      <trkpt lat="45.26807" lon="6.03403">
        <ele>1958</ele>
        <time>2022-12-04T10:59:15Z</time>
      </trkpt>
      <trkpt lat="45.26809" lon="6.03409">
        <ele>1958</ele>
        <time>2022-12-04T10:59:21Z</time>
      </trkpt>
      <trkpt lat="45.26812" lon="6.03415">
        <ele>1959</ele>
        <time>2022-12-04T10:59:32Z</time>
      </trkpt>
      <trkpt lat="45.2681" lon="6.03416">
        <ele>1960</ele>
        <time>2022-12-04T10:59:52Z</time>
      </trkpt>
      <trkpt lat="45.26806" lon="6.03416">
        <ele>1961</ele>
        <time>2022-12-04T10:59:57Z</time>
      </trkpt>
      <trkpt lat="45.26798" lon="6.03413">
        <ele>1962</ele>
        <time>2022-12-04T11:00:11Z</time>
      </trkpt>
      <trkpt lat="45.26796" lon="6.03413">
        <ele>1962</ele>
        <time>2022-12-04T11:00:14Z</time>
      </trkpt>
      <trkpt lat="45.26796" lon="6.03414">
        <ele>1966</ele>
        <time>2022-12-04T11:00:37Z</time>
      </trkpt>
      <trkpt lat="45.26798" lon="6.03417">
        <ele>1968</ele>
        <time>2022-12-04T11:00:45Z</time>
      </trkpt>
      <trkpt lat="45.26808" lon="6.03432">
        <ele>1973</ele>
        <time>2022-12-04T11:01:17Z</time>
      </trkpt>
      <trkpt lat="45.26811" lon="6.03437">
        <ele>1974</ele>
        <time>2022-12-04T11:01:23Z</time>
      </trkpt>
      <trkpt lat="45.26814" lon="6.03443">
        <ele>1975</ele>
        <time>2022-12-04T11:01:31Z</time>
      </trkpt>
      <trkpt lat="45.26815" lon="6.03445">
        <ele>1976</ele>
        <time>2022-12-04T11:01:35Z</time>
      </trkpt>
      <trkpt lat="45.26816" lon="6.03448">
        <ele>1975</ele>
        <time>2022-12-04T11:01:43Z</time>
      </trkpt>
      <trkpt lat="45.26814" lon="6.0345">
        <ele>1975</ele>
        <time>2022-12-04T11:01:49Z</time>
      </trkpt>
      <trkpt lat="45.26812" lon="6.03451">
        <ele>1975</ele>
        <time>2022-12-04T11:01:52Z</time>
      </trkpt>
      <trkpt lat="45.2681" lon="6.0345">
        <ele>1975</ele>
        <time>2022-12-04T11:01:58Z</time>
      </trkpt>
      <trkpt lat="45.26806" lon="6.03449">
        <ele>1979</ele>
        <time>2022-12-04T11:02:13Z</time>
      </trkpt>
      <trkpt lat="45.26804" lon="6.03449">
        <ele>1979</ele>
        <time>2022-12-04T11:02:16Z</time>
      </trkpt>
      <trkpt lat="45.26802" lon="6.03448">
        <ele>1980</ele>
        <time>2022-12-04T11:02:20Z</time>
      </trkpt>
      <trkpt lat="45.268" lon="6.03447">
        <ele>1981</ele>
        <time>2022-12-04T11:02:23Z</time>
      </trkpt>
      <trkpt lat="45.26797" lon="6.03443">
        <ele>1981</ele>
        <time>2022-12-04T11:02:34Z</time>
      </trkpt>
      <trkpt lat="45.26795" lon="6.03442">
        <ele>1981</ele>
        <time>2022-12-04T11:02:38Z</time>
      </trkpt>
      <trkpt lat="45.26793" lon="6.03442">
        <ele>1982</ele>
        <time>2022-12-04T11:02:42Z</time>
      </trkpt>
      <trkpt lat="45.26792" lon="6.0344">
        <ele>1982</ele>
        <time>2022-12-04T11:02:49Z</time>
      </trkpt>
      <trkpt lat="45.2679" lon="6.03439">
        <ele>1982</ele>
        <time>2022-12-04T11:02:54Z</time>
      </trkpt>
      <trkpt lat="45.26788" lon="6.03437">
        <ele>1982</ele>
        <time>2022-12-04T11:02:58Z</time>
      </trkpt>
      <trkpt lat="45.26786" lon="6.03436">
        <ele>1982</ele>
        <time>2022-12-04T11:03:03Z</time>
      </trkpt>
      <trkpt lat="45.26782" lon="6.0343">
        <ele>1984</ele>
        <time>2022-12-04T11:03:13Z</time>
      </trkpt>
      <trkpt lat="45.2678" lon="6.03428">
        <ele>1984</ele>
        <time>2022-12-04T11:03:17Z</time>
      </trkpt>
      <trkpt lat="45.26779" lon="6.03427">
        <ele>1984</ele>
        <time>2022-12-04T11:03:20Z</time>
      </trkpt>
      <trkpt lat="45.2678" lon="6.03428">
        <ele>1984</ele>
        <time>2022-12-04T11:03:46Z</time>
      </trkpt>
      <trkpt lat="45.26783" lon="6.03434">
        <ele>1984</ele>
        <time>2022-12-04T11:03:59Z</time>
      </trkpt>
      <trkpt lat="45.26785" lon="6.03435">
        <ele>1985</ele>
        <time>2022-12-04T11:04:04Z</time>
      </trkpt>
      <trkpt lat="45.26784" lon="6.03441">
        <ele>1985</ele>
        <time>2022-12-04T11:04:11Z</time>
      </trkpt>
      <trkpt lat="45.26789" lon="6.03448">
        <ele>1985</ele>
        <time>2022-12-04T11:04:23Z</time>
      </trkpt>
      <trkpt lat="45.26791" lon="6.03462">
        <ele>1987</ele>
        <time>2022-12-04T11:04:50Z</time>
      </trkpt>
      <trkpt lat="45.26791" lon="6.03465">
        <ele>1988</ele>
        <time>2022-12-04T11:04:54Z</time>
      </trkpt>
      <trkpt lat="45.26791" lon="6.03468">
        <ele>1988</ele>
        <time>2022-12-04T11:04:57Z</time>
      </trkpt>
      <trkpt lat="45.26794" lon="6.03473">
        <ele>1991</ele>
        <time>2022-12-04T11:05:05Z</time>
      </trkpt>
      <trkpt lat="45.26794" lon="6.03476">
        <ele>1991</ele>
        <time>2022-12-04T11:05:10Z</time>
      </trkpt>
      <trkpt lat="45.26794" lon="6.0348">
        <ele>1992</ele>
        <time>2022-12-04T11:05:14Z</time>
      </trkpt>
      <trkpt lat="45.26796" lon="6.03481">
        <ele>1992</ele>
        <time>2022-12-04T11:05:21Z</time>
      </trkpt>
      <trkpt lat="45.26796" lon="6.03483">
        <ele>1992</ele>
        <time>2022-12-04T11:05:27Z</time>
      </trkpt>
      <trkpt lat="45.268" lon="6.0349">
        <ele>1992</ele>
        <time>2022-12-04T11:05:45Z</time>
      </trkpt>
      <trkpt lat="45.26802" lon="6.03492">
        <ele>1993</ele>
        <time>2022-12-04T11:05:49Z</time>
      </trkpt>
      <trkpt lat="45.26806" lon="6.03497">
        <ele>1993</ele>
        <time>2022-12-04T11:06:07Z</time>
      </trkpt>
      <trkpt lat="45.26809" lon="6.03503">
        <ele>1995</ele>
        <time>2022-12-04T11:06:19Z</time>
      </trkpt>
      <trkpt lat="45.26814" lon="6.0351">
        <ele>1995</ele>
        <time>2022-12-04T11:06:31Z</time>
      </trkpt>
      <trkpt lat="45.26819" lon="6.03517">
        <ele>1994</ele>
        <time>2022-12-04T11:06:44Z</time>
      </trkpt>
      <trkpt lat="45.26817" lon="6.03517">
        <ele>1994</ele>
        <time>2022-12-04T11:07:15Z</time>
      </trkpt>
      <trkpt lat="45.26815" lon="6.03516">
        <ele>1994</ele>
        <time>2022-12-04T11:07:18Z</time>
      </trkpt>
      <trkpt lat="45.26813" lon="6.03515">
        <ele>1995</ele>
        <time>2022-12-04T11:07:21Z</time>
      </trkpt>
      <trkpt lat="45.26811" lon="6.03514">
        <ele>1996</ele>
        <time>2022-12-04T11:07:24Z</time>
      </trkpt>
      <trkpt lat="45.26808" lon="6.03511">
        <ele>1997</ele>
        <time>2022-12-04T11:07:31Z</time>
      </trkpt>
      <trkpt lat="45.26808" lon="6.03511">
        <ele>1997</ele>
        <time>2022-12-04T11:07:55Z</time>
      </trkpt>
      <trkpt lat="45.26812" lon="6.03519">
        <ele>1998</ele>
        <time>2022-12-04T11:08:03Z</time>
      </trkpt>
      <trkpt lat="45.26814" lon="6.03523">
        <ele>2000</ele>
        <time>2022-12-04T11:08:09Z</time>
      </trkpt>
      <trkpt lat="45.26812" lon="6.03523">
        <ele>2000</ele>
        <time>2022-12-04T11:08:14Z</time>
      </trkpt>
      <trkpt lat="45.2681" lon="6.03522">
        <ele>2000</ele>
        <time>2022-12-04T11:08:16Z</time>
      </trkpt>
      <trkpt lat="45.26808" lon="6.0352">
        <ele>2000</ele>
        <time>2022-12-04T11:08:19Z</time>
      </trkpt>
      <trkpt lat="45.26806" lon="6.03519">
        <ele>2001</ele>
        <time>2022-12-04T11:08:22Z</time>
      </trkpt>
      <trkpt lat="45.26805" lon="6.03518">
        <ele>2001</ele>
        <time>2022-12-04T11:08:24Z</time>
      </trkpt>
      <trkpt lat="45.26803" lon="6.03517">
        <ele>2001</ele>
        <time>2022-12-04T11:08:28Z</time>
      </trkpt>
      <trkpt lat="45.26802" lon="6.03516">
        <ele>2002</ele>
        <time>2022-12-04T11:08:35Z</time>
      </trkpt>
      <trkpt lat="45.26805" lon="6.03521">
        <ele>2002</ele>
        <time>2022-12-04T11:08:46Z</time>
      </trkpt>
      <trkpt lat="45.26803" lon="6.0352">
        <ele>2005</ele>
        <time>2022-12-04T11:09:12Z</time>
      </trkpt>
      <trkpt lat="45.26801" lon="6.03521">
        <ele>2006</ele>
        <time>2022-12-04T11:09:16Z</time>
      </trkpt>
      <trkpt lat="45.26798" lon="6.0352">
        <ele>2007</ele>
        <time>2022-12-04T11:09:20Z</time>
      </trkpt>
      <trkpt lat="45.26797" lon="6.0352">
        <ele>2008</ele>
        <time>2022-12-04T11:09:23Z</time>
      </trkpt>
      <trkpt lat="45.26795" lon="6.0352">
        <ele>2008</ele>
        <time>2022-12-04T11:09:33Z</time>
      </trkpt>
      <trkpt lat="45.268" lon="6.03527">
        <ele>2011</ele>
        <time>2022-12-04T11:09:49Z</time>
      </trkpt>
      <trkpt lat="45.268" lon="6.03529">
        <ele>2012</ele>
        <time>2022-12-04T11:09:53Z</time>
      </trkpt>
      <trkpt lat="45.26801" lon="6.03532">
        <ele>2013</ele>
        <time>2022-12-04T11:09:58Z</time>
      </trkpt>
      <trkpt lat="45.26801" lon="6.03536">
        <ele>2013</ele>
        <time>2022-12-04T11:10:02Z</time>
      </trkpt>
      <trkpt lat="45.26803" lon="6.03537">
        <ele>2013</ele>
        <time>2022-12-04T11:10:07Z</time>
      </trkpt>
      <trkpt lat="45.268" lon="6.03538">
        <ele>2013</ele>
        <time>2022-12-04T11:10:18Z</time>
      </trkpt>
      <trkpt lat="45.26797" lon="6.03536">
        <ele>2013</ele>
        <time>2022-12-04T11:10:24Z</time>
      </trkpt>
      <trkpt lat="45.26795" lon="6.03535">
        <ele>2014</ele>
        <time>2022-12-04T11:10:28Z</time>
      </trkpt>
      <trkpt lat="45.26793" lon="6.03535">
        <ele>2014</ele>
        <time>2022-12-04T11:10:32Z</time>
      </trkpt>
      <trkpt lat="45.26791" lon="6.03536">
        <ele>2015</ele>
        <time>2022-12-04T11:10:37Z</time>
      </trkpt>
      <trkpt lat="45.26792" lon="6.03538">
        <ele>2016</ele>
        <time>2022-12-04T11:11:24Z</time>
      </trkpt>
      <trkpt lat="45.26794" lon="6.03543">
        <ele>2017</ele>
        <time>2022-12-04T11:11:31Z</time>
      </trkpt>
      <trkpt lat="45.26794" lon="6.03543">
        <ele>2018</ele>
        <time>2022-12-04T11:11:57Z</time>
      </trkpt>
      <trkpt lat="45.26792" lon="6.03544">
        <ele>2018</ele>
        <time>2022-12-04T11:12:00Z</time>
      </trkpt>
      <trkpt lat="45.26787" lon="6.03543">
        <ele>2019</ele>
        <time>2022-12-04T11:12:06Z</time>
      </trkpt>
      <trkpt lat="45.26785" lon="6.03542">
        <ele>2019</ele>
        <time>2022-12-04T11:12:09Z</time>
      </trkpt>
      <trkpt lat="45.26781" lon="6.0354">
        <ele>2022</ele>
        <time>2022-12-04T11:12:15Z</time>
      </trkpt>
      <trkpt lat="45.26779" lon="6.0354">
        <ele>2022</ele>
        <time>2022-12-04T11:12:17Z</time>
      </trkpt>
      <trkpt lat="45.26776" lon="6.03537">
        <ele>2023</ele>
        <time>2022-12-04T11:12:23Z</time>
      </trkpt>
      <trkpt lat="45.26768" lon="6.03533">
        <ele>2026</ele>
        <time>2022-12-04T11:12:35Z</time>
      </trkpt>
      <trkpt lat="45.26763" lon="6.03532">
        <ele>2027</ele>
        <time>2022-12-04T11:12:44Z</time>
      </trkpt>
      <trkpt lat="45.26761" lon="6.03532">
        <ele>2027</ele>
        <time>2022-12-04T11:12:47Z</time>
      </trkpt>
      <trkpt lat="45.26756" lon="6.03534">
        <ele>2028</ele>
        <time>2022-12-04T11:12:53Z</time>
      </trkpt>
      <trkpt lat="45.26751" lon="6.03539">
        <ele>2028</ele>
        <time>2022-12-04T11:13:01Z</time>
      </trkpt>
      <trkpt lat="45.26745" lon="6.03539">
        <ele>2029</ele>
        <time>2022-12-04T11:13:08Z</time>
      </trkpt>
      <trkpt lat="45.26746" lon="6.03541">
        <ele>2027</ele>
        <time>2022-12-04T11:13:17Z</time>
      </trkpt>
      <trkpt lat="45.26748" lon="6.03544">
        <ele>2026</ele>
        <time>2022-12-04T11:13:48Z</time>
      </trkpt>
      <trkpt lat="45.2675" lon="6.03548">
        <ele>2026</ele>
        <time>2022-12-04T11:13:55Z</time>
      </trkpt>
      <trkpt lat="45.26756" lon="6.03555">
        <ele>2025</ele>
        <time>2022-12-04T11:14:07Z</time>
      </trkpt>
      <trkpt lat="45.2676" lon="6.03564">
        <ele>2025</ele>
        <time>2022-12-04T11:14:17Z</time>
      </trkpt>
      <trkpt lat="45.26761" lon="6.03568">
        <ele>2026</ele>
        <time>2022-12-04T11:14:20Z</time>
      </trkpt>
      <trkpt lat="45.26759" lon="6.0357">
        <ele>2027</ele>
        <time>2022-12-04T11:14:27Z</time>
      </trkpt>
      <trkpt lat="45.26754" lon="6.03571">
        <ele>2029</ele>
        <time>2022-12-04T11:14:35Z</time>
      </trkpt>
      <trkpt lat="45.26751" lon="6.03571">
        <ele>2030</ele>
        <time>2022-12-04T11:14:40Z</time>
      </trkpt>
      <trkpt lat="45.26748" lon="6.03577">
        <ele>2032</ele>
        <time>2022-12-04T11:14:48Z</time>
      </trkpt>
      <trkpt lat="45.26747" lon="6.0358">
        <ele>2033</ele>
        <time>2022-12-04T11:14:52Z</time>
      </trkpt>
      <trkpt lat="45.26748" lon="6.03585">
        <ele>2034</ele>
        <time>2022-12-04T11:14:58Z</time>
      </trkpt>
      <trkpt lat="45.26748" lon="6.03589">
        <ele>2035</ele>
        <time>2022-12-04T11:15:02Z</time>
      </trkpt>
      <trkpt lat="45.26753" lon="6.03593">
        <ele>2034</ele>
        <time>2022-12-04T11:15:12Z</time>
      </trkpt>
      <trkpt lat="45.26754" lon="6.03595">
        <ele>2034</ele>
        <time>2022-12-04T11:15:15Z</time>
      </trkpt>
      <trkpt lat="45.26757" lon="6.03597">
        <ele>2034</ele>
        <time>2022-12-04T11:15:19Z</time>
      </trkpt>
      <trkpt lat="45.26775" lon="6.03614">
        <ele>2035</ele>
        <time>2022-12-04T11:15:49Z</time>
      </trkpt>
      <trkpt lat="45.26777" lon="6.03616">
        <ele>2036</ele>
        <time>2022-12-04T11:15:52Z</time>
      </trkpt>
      <trkpt lat="45.26779" lon="6.03618">
        <ele>2036</ele>
        <time>2022-12-04T11:15:56Z</time>
      </trkpt>
      <trkpt lat="45.26784" lon="6.03618">
        <ele>2037</ele>
        <time>2022-12-04T11:16:02Z</time>
      </trkpt>
      <trkpt lat="45.26788" lon="6.0362">
        <ele>2038</ele>
        <time>2022-12-04T11:16:08Z</time>
      </trkpt>
      <trkpt lat="45.26792" lon="6.03623">
        <ele>2039</ele>
        <time>2022-12-04T11:16:16Z</time>
      </trkpt>
      <trkpt lat="45.26795" lon="6.03624">
        <ele>2039</ele>
        <time>2022-12-04T11:16:20Z</time>
      </trkpt>
      <trkpt lat="45.26799" lon="6.03623">
        <ele>2040</ele>
        <time>2022-12-04T11:16:27Z</time>
      </trkpt>
      <trkpt lat="45.26802" lon="6.03625">
        <ele>2040</ele>
        <time>2022-12-04T11:16:31Z</time>
      </trkpt>
      <trkpt lat="45.26804" lon="6.03626">
        <ele>2040</ele>
        <time>2022-12-04T11:16:34Z</time>
      </trkpt>
      <trkpt lat="45.26808" lon="6.03636">
        <ele>2042</ele>
        <time>2022-12-04T11:16:48Z</time>
      </trkpt>
      <trkpt lat="45.26808" lon="6.03639">
        <ele>2043</ele>
        <time>2022-12-04T11:16:51Z</time>
      </trkpt>
      <trkpt lat="45.26806" lon="6.03641">
        <ele>2044</ele>
        <time>2022-12-04T11:16:54Z</time>
      </trkpt>
      <trkpt lat="45.26801" lon="6.03647">
        <ele>2045</ele>
        <time>2022-12-04T11:17:03Z</time>
      </trkpt>
      <trkpt lat="45.26799" lon="6.03649">
        <ele>2045</ele>
        <time>2022-12-04T11:17:06Z</time>
      </trkpt>
      <trkpt lat="45.26794" lon="6.03654">
        <ele>2047</ele>
        <time>2022-12-04T11:17:12Z</time>
      </trkpt>
      <trkpt lat="45.2679" lon="6.03662">
        <ele>2048</ele>
        <time>2022-12-04T11:17:21Z</time>
      </trkpt>
      <trkpt lat="45.26788" lon="6.03669">
        <ele>2049</ele>
        <time>2022-12-04T11:17:27Z</time>
      </trkpt>
      <trkpt lat="45.26786" lon="6.03673">
        <ele>2049</ele>
        <time>2022-12-04T11:17:30Z</time>
      </trkpt>
      <trkpt lat="45.26782" lon="6.03681">
        <ele>2049</ele>
        <time>2022-12-04T11:17:38Z</time>
      </trkpt>
      <trkpt lat="45.26781" lon="6.03683">
        <ele>2049</ele>
        <time>2022-12-04T11:17:41Z</time>
      </trkpt>
      <trkpt lat="45.26777" lon="6.03687">
        <ele>2050</ele>
        <time>2022-12-04T11:17:46Z</time>
      </trkpt>
      <trkpt lat="45.26775" lon="6.03693">
        <ele>2051</ele>
        <time>2022-12-04T11:17:52Z</time>
      </trkpt>
      <trkpt lat="45.26773" lon="6.03693">
        <ele>2051</ele>
        <time>2022-12-04T11:18:46Z</time>
      </trkpt>
      <trkpt lat="45.2677" lon="6.03693">
        <ele>2052</ele>
        <time>2022-12-04T11:18:49Z</time>
      </trkpt>
      <trkpt lat="45.26768" lon="6.03692">
        <ele>2052</ele>
        <time>2022-12-04T11:18:50Z</time>
      </trkpt>
      <trkpt lat="45.26765" lon="6.03692">
        <ele>2051</ele>
        <time>2022-12-04T11:18:52Z</time>
      </trkpt>
      <trkpt lat="45.26763" lon="6.03694">
        <ele>2051</ele>
        <time>2022-12-04T11:18:55Z</time>
      </trkpt>
      <trkpt lat="45.26762" lon="6.03695">
        <ele>2051</ele>
        <time>2022-12-04T11:19:03Z</time>
      </trkpt>
      <trkpt lat="45.2676" lon="6.03694">
        <ele>2049</ele>
        <time>2022-12-04T11:27:10Z</time>
      </trkpt>
      <trkpt lat="45.2676" lon="6.03691">
        <ele>2049</ele>
        <time>2022-12-04T11:30:59Z</time>
      </trkpt>
      <trkpt lat="45.26755" lon="6.03687">
        <ele>2050</ele>
        <time>2022-12-04T11:31:05Z</time>
      </trkpt>
      <trkpt lat="45.26751" lon="6.03683">
        <ele>2050</ele>
        <time>2022-12-04T11:31:07Z</time>
      </trkpt>
      <trkpt lat="45.26749" lon="6.03685">
        <ele>2050</ele>
        <time>2022-12-04T11:31:10Z</time>
      </trkpt>
      <trkpt lat="45.26748" lon="6.03688">
        <ele>2050</ele>
        <time>2022-12-04T11:32:03Z</time>
      </trkpt>
      <trkpt lat="45.26745" lon="6.03689">
        <ele>2049</ele>
        <time>2022-12-04T11:32:04Z</time>
      </trkpt>
      <trkpt lat="45.26743" lon="6.03689">
        <ele>2049</ele>
        <time>2022-12-04T11:32:05Z</time>
      </trkpt>
      <trkpt lat="45.2674" lon="6.0369">
        <ele>2049</ele>
        <time>2022-12-04T11:32:06Z</time>
      </trkpt>
      <trkpt lat="45.26739" lon="6.03693">
        <ele>2048</ele>
        <time>2022-12-04T11:32:07Z</time>
      </trkpt>
      <trkpt lat="45.26736" lon="6.03695">
        <ele>2047</ele>
        <time>2022-12-04T11:32:08Z</time>
      </trkpt>
      <trkpt lat="45.26729" lon="6.03697">
        <ele>2045</ele>
        <time>2022-12-04T11:32:10Z</time>
      </trkpt>
      <trkpt lat="45.26726" lon="6.037">
        <ele>2044</ele>
        <time>2022-12-04T11:32:11Z</time>
      </trkpt>
      <trkpt lat="45.2672" lon="6.03701">
        <ele>2043</ele>
        <time>2022-12-04T11:32:13Z</time>
      </trkpt>
      <trkpt lat="45.26713" lon="6.03707">
        <ele>2041</ele>
        <time>2022-12-04T11:32:15Z</time>
      </trkpt>
      <trkpt lat="45.26709" lon="6.03709">
        <ele>2041</ele>
        <time>2022-12-04T11:32:16Z</time>
      </trkpt>
      <trkpt lat="45.26704" lon="6.03714">
        <ele>2039</ele>
        <time>2022-12-04T11:32:18Z</time>
      </trkpt>
      <trkpt lat="45.26701" lon="6.03714">
        <ele>2038</ele>
        <time>2022-12-04T11:32:19Z</time>
      </trkpt>
      <trkpt lat="45.26699" lon="6.03712">
        <ele>2037</ele>
        <time>2022-12-04T11:32:20Z</time>
      </trkpt>
      <trkpt lat="45.26697" lon="6.03712">
        <ele>2036</ele>
        <time>2022-12-04T11:32:21Z</time>
      </trkpt>
      <trkpt lat="45.26694" lon="6.03712">
        <ele>2034</ele>
        <time>2022-12-04T11:32:30Z</time>
      </trkpt>
      <trkpt lat="45.26692" lon="6.03715">
        <ele>2032</ele>
        <time>2022-12-04T11:32:31Z</time>
      </trkpt>
      <trkpt lat="45.26684" lon="6.03716">
        <ele>2030</ele>
        <time>2022-12-04T11:32:33Z</time>
      </trkpt>
      <trkpt lat="45.26681" lon="6.03719">
        <ele>2029</ele>
        <time>2022-12-04T11:32:34Z</time>
      </trkpt>
      <trkpt lat="45.26677" lon="6.03721">
        <ele>2028</ele>
        <time>2022-12-04T11:32:35Z</time>
      </trkpt>
      <trkpt lat="45.26674" lon="6.03719">
        <ele>2026</ele>
        <time>2022-12-04T11:32:36Z</time>
      </trkpt>
      <trkpt lat="45.26671" lon="6.03721">
        <ele>2025</ele>
        <time>2022-12-04T11:32:38Z</time>
      </trkpt>
      <trkpt lat="45.2667" lon="6.03726">
        <ele>2025</ele>
        <time>2022-12-04T11:32:39Z</time>
      </trkpt>
      <trkpt lat="45.26667" lon="6.03728">
        <ele>2024</ele>
        <time>2022-12-04T11:32:40Z</time>
      </trkpt>
      <trkpt lat="45.26664" lon="6.03726">
        <ele>2022</ele>
        <time>2022-12-04T11:32:41Z</time>
      </trkpt>
      <trkpt lat="45.2666" lon="6.03726">
        <ele>2020</ele>
        <time>2022-12-04T11:32:43Z</time>
      </trkpt>
      <trkpt lat="45.26657" lon="6.03729">
        <ele>2018</ele>
        <time>2022-12-04T11:32:44Z</time>
      </trkpt>
      <trkpt lat="45.26654" lon="6.03727">
        <ele>2017</ele>
        <time>2022-12-04T11:32:45Z</time>
      </trkpt>
      <trkpt lat="45.26652" lon="6.03723">
        <ele>2015</ele>
        <time>2022-12-04T11:32:46Z</time>
      </trkpt>
      <trkpt lat="45.2665" lon="6.0372">
        <ele>2014</ele>
        <time>2022-12-04T11:32:48Z</time>
      </trkpt>
      <trkpt lat="45.26646" lon="6.03717">
        <ele>2011</ele>
        <time>2022-12-04T11:32:53Z</time>
      </trkpt>
      <trkpt lat="45.26644" lon="6.03718">
        <ele>2010</ele>
        <time>2022-12-04T11:32:55Z</time>
      </trkpt>
      <trkpt lat="45.26645" lon="6.03729">
        <ele>2007</ele>
        <time>2022-12-04T11:32:58Z</time>
      </trkpt>
      <trkpt lat="45.26643" lon="6.03733">
        <ele>2006</ele>
        <time>2022-12-04T11:32:59Z</time>
      </trkpt>
      <trkpt lat="45.26636" lon="6.03738">
        <ele>2004</ele>
        <time>2022-12-04T11:33:01Z</time>
      </trkpt>
      <trkpt lat="45.26627" lon="6.03737">
        <ele>2003</ele>
        <time>2022-12-04T11:33:03Z</time>
      </trkpt>
      <trkpt lat="45.26624" lon="6.03741">
        <ele>2002</ele>
        <time>2022-12-04T11:33:04Z</time>
      </trkpt>
      <trkpt lat="45.26615" lon="6.03744">
        <ele>2000</ele>
        <time>2022-12-04T11:33:06Z</time>
      </trkpt>
      <trkpt lat="45.26613" lon="6.03749">
        <ele>1999</ele>
        <time>2022-12-04T11:33:07Z</time>
      </trkpt>
      <trkpt lat="45.26609" lon="6.03751">
        <ele>1998</ele>
        <time>2022-12-04T11:33:08Z</time>
      </trkpt>
      <trkpt lat="45.26605" lon="6.03751">
        <ele>1997</ele>
        <time>2022-12-04T11:33:09Z</time>
      </trkpt>
      <trkpt lat="45.266" lon="6.03759">
        <ele>1995</ele>
        <time>2022-12-04T11:33:11Z</time>
      </trkpt>
      <trkpt lat="45.26596" lon="6.03759">
        <ele>1994</ele>
        <time>2022-12-04T11:33:12Z</time>
      </trkpt>
      <trkpt lat="45.26593" lon="6.03762">
        <ele>1993</ele>
        <time>2022-12-04T11:33:13Z</time>
      </trkpt>
      <trkpt lat="45.26588" lon="6.03762">
        <ele>1991</ele>
        <time>2022-12-04T11:33:14Z</time>
      </trkpt>
      <trkpt lat="45.26572" lon="6.0377">
        <ele>1986</ele>
        <time>2022-12-04T11:33:18Z</time>
      </trkpt>
      <trkpt lat="45.26568" lon="6.03771">
        <ele>1985</ele>
        <time>2022-12-04T11:33:19Z</time>
      </trkpt>
      <trkpt lat="45.26562" lon="6.03773">
        <ele>1983</ele>
        <time>2022-12-04T11:33:21Z</time>
      </trkpt>
      <trkpt lat="45.26557" lon="6.03771">
        <ele>1980</ele>
        <time>2022-12-04T11:33:23Z</time>
      </trkpt>
      <trkpt lat="45.26555" lon="6.0377">
        <ele>1978</ele>
        <time>2022-12-04T11:33:25Z</time>
      </trkpt>
      <trkpt lat="45.26552" lon="6.03771">
        <ele>1976</ele>
        <time>2022-12-04T11:33:26Z</time>
      </trkpt>
      <trkpt lat="45.26546" lon="6.03776">
        <ele>1975</ele>
        <time>2022-12-04T11:33:28Z</time>
      </trkpt>
      <trkpt lat="45.26543" lon="6.03776">
        <ele>1973</ele>
        <time>2022-12-04T11:33:29Z</time>
      </trkpt>
      <trkpt lat="45.26536" lon="6.0378">
        <ele>1971</ele>
        <time>2022-12-04T11:33:31Z</time>
      </trkpt>
      <trkpt lat="45.26532" lon="6.03781">
        <ele>1970</ele>
        <time>2022-12-04T11:33:32Z</time>
      </trkpt>
      <trkpt lat="45.26529" lon="6.0378">
        <ele>1968</ele>
        <time>2022-12-04T11:33:33Z</time>
      </trkpt>
      <trkpt lat="45.26528" lon="6.03784">
        <ele>1967</ele>
        <time>2022-12-04T11:33:35Z</time>
      </trkpt>
      <trkpt lat="45.26525" lon="6.03786">
        <ele>1965</ele>
        <time>2022-12-04T11:33:36Z</time>
      </trkpt>
      <trkpt lat="45.26519" lon="6.03783">
        <ele>1963</ele>
        <time>2022-12-04T11:33:38Z</time>
      </trkpt>
      <trkpt lat="45.26516" lon="6.03785">
        <ele>1961</ele>
        <time>2022-12-04T11:33:39Z</time>
      </trkpt>
      <trkpt lat="45.26514" lon="6.03788">
        <ele>1959</ele>
        <time>2022-12-04T11:33:40Z</time>
      </trkpt>
      <trkpt lat="45.2651" lon="6.03788">
        <ele>1958</ele>
        <time>2022-12-04T11:33:41Z</time>
      </trkpt>
      <trkpt lat="45.26507" lon="6.03787">
        <ele>1956</ele>
        <time>2022-12-04T11:33:42Z</time>
      </trkpt>
      <trkpt lat="45.26505" lon="6.03788">
        <ele>1955</ele>
        <time>2022-12-04T11:33:43Z</time>
      </trkpt>
      <trkpt lat="45.26501" lon="6.03795">
        <ele>1952</ele>
        <time>2022-12-04T11:33:45Z</time>
      </trkpt>
      <trkpt lat="45.26497" lon="6.03797">
        <ele>1950</ele>
        <time>2022-12-04T11:33:46Z</time>
      </trkpt>
      <trkpt lat="45.26493" lon="6.03796">
        <ele>1949</ele>
        <time>2022-12-04T11:33:47Z</time>
      </trkpt>
      <trkpt lat="45.26477" lon="6.03806">
        <ele>1944</ele>
        <time>2022-12-04T11:33:50Z</time>
      </trkpt>
      <trkpt lat="45.26467" lon="6.0382">
        <ele>1942</ele>
        <time>2022-12-04T11:33:53Z</time>
      </trkpt>
      <trkpt lat="45.26465" lon="6.03825">
        <ele>1942</ele>
        <time>2022-12-04T11:33:54Z</time>
      </trkpt>
      <trkpt lat="45.2646" lon="6.03832">
        <ele>1940</ele>
        <time>2022-12-04T11:33:57Z</time>
      </trkpt>
      <trkpt lat="45.26459" lon="6.03834">
        <ele>1940</ele>
        <time>2022-12-04T11:33:58Z</time>
      </trkpt>
      <trkpt lat="45.26459" lon="6.03836">
        <ele>1939</ele>
        <time>2022-12-04T11:34:00Z</time>
      </trkpt>
      <trkpt lat="45.26459" lon="6.03839">
        <ele>1937</ele>
        <time>2022-12-04T11:34:22Z</time>
      </trkpt>
      <trkpt lat="45.26459" lon="6.03844">
        <ele>1934</ele>
        <time>2022-12-04T11:34:29Z</time>
      </trkpt>
      <trkpt lat="45.26458" lon="6.03846">
        <ele>1932</ele>
        <time>2022-12-04T11:34:53Z</time>
      </trkpt>
      <trkpt lat="45.26454" lon="6.03854">
        <ele>1930</ele>
        <time>2022-12-04T11:34:58Z</time>
      </trkpt>
      <trkpt lat="45.26452" lon="6.03859">
        <ele>1930</ele>
        <time>2022-12-04T11:34:59Z</time>
      </trkpt>
      <trkpt lat="45.2645" lon="6.03862">
        <ele>1929</ele>
        <time>2022-12-04T11:35:00Z</time>
      </trkpt>
      <trkpt lat="45.26456" lon="6.03874">
        <ele>1928</ele>
        <time>2022-12-04T11:35:04Z</time>
      </trkpt>
      <trkpt lat="45.26461" lon="6.03895">
        <ele>1926</ele>
        <time>2022-12-04T11:35:09Z</time>
      </trkpt>
      <trkpt lat="45.26463" lon="6.03899">
        <ele>1926</ele>
        <time>2022-12-04T11:35:10Z</time>
      </trkpt>
      <trkpt lat="45.26469" lon="6.03906">
        <ele>1924</ele>
        <time>2022-12-04T11:35:13Z</time>
      </trkpt>
      <trkpt lat="45.26472" lon="6.03911">
        <ele>1923</ele>
        <time>2022-12-04T11:35:15Z</time>
      </trkpt>
      <trkpt lat="45.26476" lon="6.03915">
        <ele>1922</ele>
        <time>2022-12-04T11:35:17Z</time>
      </trkpt>
      <trkpt lat="45.26477" lon="6.03918">
        <ele>1921</ele>
        <time>2022-12-04T11:35:18Z</time>
      </trkpt>
      <trkpt lat="45.26477" lon="6.03921">
        <ele>1921</ele>
        <time>2022-12-04T11:35:24Z</time>
      </trkpt>
      <trkpt lat="45.26477" lon="6.03921">
        <ele>1919</ele>
        <time>2022-12-04T11:37:23Z</time>
      </trkpt>
      <trkpt lat="45.26476" lon="6.0392">
        <ele>1920</ele>
        <time>2022-12-04T11:39:22Z</time>
      </trkpt>
      <trkpt lat="45.26474" lon="6.03922">
        <ele>1921</ele>
        <time>2022-12-04T11:59:44Z</time>
      </trkpt>
      <trkpt lat="45.26476" lon="6.03914">
        <ele>1919</ele>
        <time>2022-12-04T12:00:15Z</time>
      </trkpt>
      <trkpt lat="45.26477" lon="6.03901">
        <ele>1918</ele>
        <time>2022-12-04T12:00:21Z</time>
      </trkpt>
      <trkpt lat="45.26481" lon="6.03877">
        <ele>1918</ele>
        <time>2022-12-04T12:00:29Z</time>
      </trkpt>
      <trkpt lat="45.26495" lon="6.03851">
        <ele>1914</ele>
        <time>2022-12-04T12:00:36Z</time>
      </trkpt>
      <trkpt lat="45.26503" lon="6.03834">
        <ele>1913</ele>
        <time>2022-12-04T12:00:48Z</time>
      </trkpt>
      <trkpt lat="45.26506" lon="6.03832">
        <ele>1913</ele>
        <time>2022-12-04T12:00:51Z</time>
      </trkpt>
      <trkpt lat="45.26514" lon="6.03835">
        <ele>1911</ele>
        <time>2022-12-04T12:01:23Z</time>
      </trkpt>
      <trkpt lat="45.26514" lon="6.03833">
        <ele>1912</ele>
        <time>2022-12-04T12:01:36Z</time>
      </trkpt>
      <trkpt lat="45.26513" lon="6.0383">
        <ele>1913</ele>
        <time>2022-12-04T12:01:39Z</time>
      </trkpt>
      <trkpt lat="45.26509" lon="6.03816">
        <ele>1917</ele>
        <time>2022-12-04T12:01:58Z</time>
      </trkpt>
      <trkpt lat="45.26509" lon="6.03819">
        <ele>1919</ele>
        <time>2022-12-04T12:02:12Z</time>
      </trkpt>
      <trkpt lat="45.26511" lon="6.03821">
        <ele>1919</ele>
        <time>2022-12-04T12:02:16Z</time>
      </trkpt>
      <trkpt lat="45.26523" lon="6.03827">
        <ele>1921</ele>
        <time>2022-12-04T12:02:55Z</time>
      </trkpt>
      <trkpt lat="45.26525" lon="6.03829">
        <ele>1921</ele>
        <time>2022-12-04T12:03:03Z</time>
      </trkpt>
      <trkpt lat="45.26534" lon="6.03832">
        <ele>1921</ele>
        <time>2022-12-04T12:03:28Z</time>
      </trkpt>
      <trkpt lat="45.26536" lon="6.03832">
        <ele>1921</ele>
        <time>2022-12-04T12:03:32Z</time>
      </trkpt>
      <trkpt lat="45.26536" lon="6.03829">
        <ele>1924</ele>
        <time>2022-12-04T12:03:48Z</time>
      </trkpt>
      <trkpt lat="45.26534" lon="6.03829">
        <ele>1926</ele>
        <time>2022-12-04T12:03:54Z</time>
      </trkpt>
      <trkpt lat="45.26533" lon="6.03827">
        <ele>1926</ele>
        <time>2022-12-04T12:03:56Z</time>
      </trkpt>
      <trkpt lat="45.26531" lon="6.03825">
        <ele>1928</ele>
        <time>2022-12-04T12:04:02Z</time>
      </trkpt>
      <trkpt lat="45.26531" lon="6.03822">
        <ele>1928</ele>
        <time>2022-12-04T12:04:05Z</time>
      </trkpt>
      <trkpt lat="45.2653" lon="6.0382">
        <ele>1928</ele>
        <time>2022-12-04T12:04:08Z</time>
      </trkpt>
      <trkpt lat="45.26529" lon="6.03817">
        <ele>1928</ele>
        <time>2022-12-04T12:04:10Z</time>
      </trkpt>
      <trkpt lat="45.26527" lon="6.03812">
        <ele>1929</ele>
        <time>2022-12-04T12:04:18Z</time>
      </trkpt>
      <trkpt lat="45.26527" lon="6.03811">
        <ele>1932</ele>
        <time>2022-12-04T12:17:51Z</time>
      </trkpt>
      <trkpt lat="45.26525" lon="6.0381">
        <ele>1932</ele>
        <time>2022-12-04T12:18:31Z</time>
      </trkpt>
      <trkpt lat="45.26518" lon="6.03809">
        <ele>1930</ele>
        <time>2022-12-04T12:18:37Z</time>
      </trkpt>
      <trkpt lat="45.26524" lon="6.03827">
        <ele>1928</ele>
        <time>2022-12-04T12:18:54Z</time>
      </trkpt>
      <trkpt lat="45.26532" lon="6.03847">
        <ele>1924</ele>
        <time>2022-12-04T12:19:13Z</time>
      </trkpt>
      <trkpt lat="45.2653" lon="6.03846">
        <ele>1923</ele>
        <time>2022-12-04T12:19:27Z</time>
      </trkpt>
      <trkpt lat="45.26514" lon="6.03839">
        <ele>1917</ele>
        <time>2022-12-04T12:20:19Z</time>
      </trkpt>
      <trkpt lat="45.26507" lon="6.03837">
        <ele>1915</ele>
        <time>2022-12-04T12:20:23Z</time>
      </trkpt>
      <trkpt lat="45.26505" lon="6.03837">
        <ele>1915</ele>
        <time>2022-12-04T12:20:24Z</time>
      </trkpt>
      <trkpt lat="45.26503" lon="6.03838">
        <ele>1914</ele>
        <time>2022-12-04T12:20:25Z</time>
      </trkpt>
      <trkpt lat="45.26502" lon="6.0384">
        <ele>1914</ele>
        <time>2022-12-04T12:20:26Z</time>
      </trkpt>
      <trkpt lat="45.26496" lon="6.03852">
        <ele>1914</ele>
        <time>2022-12-04T12:20:33Z</time>
      </trkpt>
      <trkpt lat="45.26493" lon="6.03857">
        <ele>1915</ele>
        <time>2022-12-04T12:20:37Z</time>
      </trkpt>
      <trkpt lat="45.26493" lon="6.03855">
        <ele>1918</ele>
        <time>2022-12-04T12:23:27Z</time>
      </trkpt>
      <trkpt lat="45.26493" lon="6.03855">
        <ele>1920</ele>
        <time>2022-12-04T12:30:55Z</time>
      </trkpt>
      <trkpt lat="45.26494" lon="6.03857">
        <ele>1920</ele>
        <time>2022-12-04T12:32:18Z</time>
      </trkpt>
      <trkpt lat="45.26493" lon="6.03857">
        <ele>1922</ele>
        <time>2022-12-04T12:38:31Z</time>
      </trkpt>
      <trkpt lat="45.26492" lon="6.0386">
        <ele>1922</ele>
        <time>2022-12-04T12:38:35Z</time>
      </trkpt>
      <trkpt lat="45.26488" lon="6.03871">
        <ele>1925</ele>
        <time>2022-12-04T12:38:43Z</time>
      </trkpt>
      <trkpt lat="45.26486" lon="6.03874">
        <ele>1925</ele>
        <time>2022-12-04T12:38:45Z</time>
      </trkpt>
      <trkpt lat="45.26484" lon="6.03876">
        <ele>1925</ele>
        <time>2022-12-04T12:38:47Z</time>
      </trkpt>
      <trkpt lat="45.26481" lon="6.03891">
        <ele>1926</ele>
        <time>2022-12-04T12:38:57Z</time>
      </trkpt>
      <trkpt lat="45.26477" lon="6.03921">
        <ele>1927</ele>
        <time>2022-12-04T12:39:13Z</time>
      </trkpt>
      <trkpt lat="45.26477" lon="6.03923">
        <ele>1927</ele>
        <time>2022-12-04T12:40:55Z</time>
      </trkpt>
      <trkpt lat="45.2648" lon="6.03927">
        <ele>1926</ele>
        <time>2022-12-04T12:40:57Z</time>
      </trkpt>
      <trkpt lat="45.26481" lon="6.03935">
        <ele>1924</ele>
        <time>2022-12-04T12:41:00Z</time>
      </trkpt>
      <trkpt lat="45.26482" lon="6.03943">
        <ele>1922</ele>
        <time>2022-12-04T12:41:03Z</time>
      </trkpt>
      <trkpt lat="45.26482" lon="6.03951">
        <ele>1920</ele>
        <time>2022-12-04T12:41:06Z</time>
      </trkpt>
      <trkpt lat="45.26483" lon="6.03948">
        <ele>1920</ele>
        <time>2022-12-04T12:41:18Z</time>
      </trkpt>
      <trkpt lat="45.26485" lon="6.03947">
        <ele>1920</ele>
        <time>2022-12-04T12:41:20Z</time>
      </trkpt>
      <trkpt lat="45.26486" lon="6.03944">
        <ele>1918</ele>
        <time>2022-12-04T12:41:22Z</time>
      </trkpt>
      <trkpt lat="45.26496" lon="6.03938">
        <ele>1917</ele>
        <time>2022-12-04T12:41:30Z</time>
      </trkpt>
      <trkpt lat="45.26496" lon="6.03941">
        <ele>1916</ele>
        <time>2022-12-04T12:41:40Z</time>
      </trkpt>
      <trkpt lat="45.26493" lon="6.03947">
        <ele>1915</ele>
        <time>2022-12-04T12:41:43Z</time>
      </trkpt>
      <trkpt lat="45.26494" lon="6.03951">
        <ele>1914</ele>
        <time>2022-12-04T12:41:46Z</time>
      </trkpt>
      <trkpt lat="45.26492" lon="6.0395">
        <ele>1917</ele>
        <time>2022-12-04T12:43:02Z</time>
      </trkpt>
      <trkpt lat="45.26493" lon="6.03947">
        <ele>1917</ele>
        <time>2022-12-04T12:43:09Z</time>
      </trkpt>
      <trkpt lat="45.26492" lon="6.0394">
        <ele>1914</ele>
        <time>2022-12-04T12:43:21Z</time>
      </trkpt>
      <trkpt lat="45.26496" lon="6.03923">
        <ele>1909</ele>
        <time>2022-12-04T12:43:34Z</time>
      </trkpt>
      <trkpt lat="45.26497" lon="6.0392">
        <ele>1909</ele>
        <time>2022-12-04T12:43:36Z</time>
      </trkpt>
      <trkpt lat="45.26495" lon="6.03918">
        <ele>1909</ele>
        <time>2022-12-04T12:43:41Z</time>
      </trkpt>
      <trkpt lat="45.26484" lon="6.03922">
        <ele>1916</ele>
        <time>2022-12-04T12:43:52Z</time>
      </trkpt>
      <trkpt lat="45.26479" lon="6.03922">
        <ele>1919</ele>
        <time>2022-12-04T12:43:59Z</time>
      </trkpt>
      <trkpt lat="45.26478" lon="6.03924">
        <ele>1921</ele>
        <time>2022-12-04T12:47:33Z</time>
      </trkpt>
      <trkpt lat="45.26479" lon="6.0393">
        <ele>1921</ele>
        <time>2022-12-04T12:47:49Z</time>
      </trkpt>
      <trkpt lat="45.2648" lon="6.03942">
        <ele>1920</ele>
        <time>2022-12-04T12:47:53Z</time>
      </trkpt>
      <trkpt lat="45.26481" lon="6.03944">
        <ele>1920</ele>
        <time>2022-12-04T12:47:59Z</time>
      </trkpt>
      <trkpt lat="45.26482" lon="6.03941">
        <ele>1919</ele>
        <time>2022-12-04T12:49:00Z</time>
      </trkpt>
      <trkpt lat="45.26483" lon="6.03938">
        <ele>1918</ele>
        <time>2022-12-04T12:49:44Z</time>
      </trkpt>
      <trkpt lat="45.26489" lon="6.03928">
        <ele>1915</ele>
        <time>2022-12-04T12:49:51Z</time>
      </trkpt>
      <trkpt lat="45.26491" lon="6.03926">
        <ele>1914</ele>
        <time>2022-12-04T12:49:52Z</time>
      </trkpt>
      <trkpt lat="45.26497" lon="6.03925">
        <ele>1912</ele>
        <time>2022-12-04T12:49:56Z</time>
      </trkpt>
      <trkpt lat="45.26499" lon="6.03928">
        <ele>1913</ele>
        <time>2022-12-04T12:50:03Z</time>
      </trkpt>
      <trkpt lat="45.26496" lon="6.03935">
        <ele>1913</ele>
        <time>2022-12-04T12:50:07Z</time>
      </trkpt>
      <trkpt lat="45.26495" lon="6.03937">
        <ele>1913</ele>
        <time>2022-12-04T12:50:09Z</time>
      </trkpt>
      <trkpt lat="45.26495" lon="6.03941">
        <ele>1914</ele>
        <time>2022-12-04T12:50:39Z</time>
      </trkpt>
      <trkpt lat="45.26494" lon="6.03945">
        <ele>1915</ele>
        <time>2022-12-04T12:50:41Z</time>
      </trkpt>
      <trkpt lat="45.26495" lon="6.03948">
        <ele>1915</ele>
        <time>2022-12-04T12:50:56Z</time>
      </trkpt>
      <trkpt lat="45.26494" lon="6.03949">
        <ele>1916</ele>
        <time>2022-12-04T12:51:46Z</time>
      </trkpt>
      <trkpt lat="45.26493" lon="6.03952">
        <ele>1917</ele>
        <time>2022-12-04T12:55:48Z</time>
      </trkpt>
      <trkpt lat="45.26492" lon="6.03951">
        <ele>1918</ele>
        <time>2022-12-04T12:55:57Z</time>
      </trkpt>
      <trkpt lat="45.26493" lon="6.03948">
        <ele>1915</ele>
        <time>2022-12-04T12:56:01Z</time>
      </trkpt>
      <trkpt lat="45.26493" lon="6.03946">
        <ele>1914</ele>
        <time>2022-12-04T12:56:05Z</time>
      </trkpt>
      <trkpt lat="45.26496" lon="6.03941">
        <ele>1911</ele>
        <time>2022-12-04T12:56:15Z</time>
      </trkpt>
      <trkpt lat="45.26501" lon="6.03928">
        <ele>1908</ele>
        <time>2022-12-04T12:56:27Z</time>
      </trkpt>
      <trkpt lat="45.26501" lon="6.03925">
        <ele>1908</ele>
        <time>2022-12-04T12:56:29Z</time>
      </trkpt>
      <trkpt lat="45.26499" lon="6.03923">
        <ele>1908</ele>
        <time>2022-12-04T12:56:33Z</time>
      </trkpt>
      <trkpt lat="45.26497" lon="6.03921">
        <ele>1909</ele>
        <time>2022-12-04T12:56:37Z</time>
      </trkpt>
      <trkpt lat="45.2649" lon="6.03923">
        <ele>1914</ele>
        <time>2022-12-04T12:56:49Z</time>
      </trkpt>
      <trkpt lat="45.26488" lon="6.03923">
        <ele>1914</ele>
        <time>2022-12-04T12:56:51Z</time>
      </trkpt>
      <trkpt lat="45.26485" lon="6.03921">
        <ele>1916</ele>
        <time>2022-12-04T12:56:57Z</time>
      </trkpt>
      <trkpt lat="45.26483" lon="6.03921">
        <ele>1918</ele>
        <time>2022-12-04T12:57:00Z</time>
      </trkpt>
      <trkpt lat="45.26481" lon="6.03921">
        <ele>1919</ele>
        <time>2022-12-04T12:57:03Z</time>
      </trkpt>
      <trkpt lat="45.2648" lon="6.03923">
        <ele>1919</ele>
        <time>2022-12-04T12:57:21Z</time>
      </trkpt>
      <trkpt lat="45.26482" lon="6.03929">
        <ele>1921</ele>
        <time>2022-12-04T12:57:28Z</time>
      </trkpt>
      <trkpt lat="45.26483" lon="6.03938">
        <ele>1921</ele>
        <time>2022-12-04T12:57:41Z</time>
      </trkpt>
      <trkpt lat="45.26484" lon="6.03943">
        <ele>1921</ele>
        <time>2022-12-04T12:57:43Z</time>
      </trkpt>
      <trkpt lat="45.26484" lon="6.03949">
        <ele>1920</ele>
        <time>2022-12-04T12:57:45Z</time>
      </trkpt>
      <trkpt lat="45.26496" lon="6.03938">
        <ele>1914</ele>
        <time>2022-12-04T12:58:00Z</time>
      </trkpt>
      <trkpt lat="45.26496" lon="6.03943">
        <ele>1913</ele>
        <time>2022-12-04T12:58:11Z</time>
      </trkpt>
      <trkpt lat="45.26494" lon="6.03947">
        <ele>1913</ele>
        <time>2022-12-04T12:59:23Z</time>
      </trkpt>
      <trkpt lat="45.26493" lon="6.03949">
        <ele>1913</ele>
        <time>2022-12-04T13:00:46Z</time>
      </trkpt>
      <trkpt lat="45.26493" lon="6.03949">
        <ele>1913</ele>
        <time>2022-12-04T13:01:14Z</time>
      </trkpt>
      <trkpt lat="45.26493" lon="6.03947">
        <ele>1911</ele>
        <time>2022-12-04T13:01:25Z</time>
      </trkpt>
      <trkpt lat="45.26495" lon="6.03944">
        <ele>1910</ele>
        <time>2022-12-04T13:01:37Z</time>
      </trkpt>
      <trkpt lat="45.26495" lon="6.03942">
        <ele>1910</ele>
        <time>2022-12-04T13:01:40Z</time>
      </trkpt>
      <trkpt lat="45.26496" lon="6.03941">
        <ele>1910</ele>
        <time>2022-12-04T13:01:50Z</time>
      </trkpt>
      <trkpt lat="45.26496" lon="6.03939">
        <ele>1910</ele>
        <time>2022-12-04T13:02:18Z</time>
      </trkpt>
      <trkpt lat="45.26497" lon="6.03935">
        <ele>1910</ele>
        <time>2022-12-04T13:02:20Z</time>
      </trkpt>
      <trkpt lat="45.26499" lon="6.03933">
        <ele>1910</ele>
        <time>2022-12-04T13:02:22Z</time>
      </trkpt>
      <trkpt lat="45.265" lon="6.03931">
        <ele>1910</ele>
        <time>2022-12-04T13:02:25Z</time>
      </trkpt>
      <trkpt lat="45.26501" lon="6.03928">
        <ele>1910</ele>
        <time>2022-12-04T13:02:28Z</time>
      </trkpt>
      <trkpt lat="45.26501" lon="6.03925">
        <ele>1909</ele>
        <time>2022-12-04T13:02:31Z</time>
      </trkpt>
      <trkpt lat="45.265" lon="6.03923">
        <ele>1909</ele>
        <time>2022-12-04T13:02:36Z</time>
      </trkpt>
      <trkpt lat="45.26498" lon="6.03923">
        <ele>1910</ele>
        <time>2022-12-04T13:02:38Z</time>
      </trkpt>
      <trkpt lat="45.26494" lon="6.03922">
        <ele>1912</ele>
        <time>2022-12-04T13:02:55Z</time>
      </trkpt>
      <trkpt lat="45.26493" lon="6.03923">
        <ele>1913</ele>
        <time>2022-12-04T13:04:39Z</time>
      </trkpt>
      <trkpt lat="45.26492" lon="6.03926">
        <ele>1915</ele>
        <time>2022-12-04T13:04:43Z</time>
      </trkpt>
      <trkpt lat="45.26489" lon="6.03942">
        <ele>1917</ele>
        <time>2022-12-04T13:04:56Z</time>
      </trkpt>
      <trkpt lat="45.26488" lon="6.03949">
        <ele>1917</ele>
        <time>2022-12-04T13:05:08Z</time>
      </trkpt>
      <trkpt lat="45.26487" lon="6.03951">
        <ele>1917</ele>
        <time>2022-12-04T13:05:10Z</time>
      </trkpt>
      <trkpt lat="45.26487" lon="6.03952">
        <ele>1916</ele>
        <time>2022-12-04T13:05:31Z</time>
      </trkpt>
      <trkpt lat="45.26493" lon="6.03951">
        <ele>1912</ele>
        <time>2022-12-04T13:06:14Z</time>
      </trkpt>
      <trkpt lat="45.26494" lon="6.03949">
        <ele>1911</ele>
        <time>2022-12-04T13:06:18Z</time>
      </trkpt>
      <trkpt lat="45.26495" lon="6.03949">
        <ele>1910</ele>
        <time>2022-12-04T13:09:27Z</time>
      </trkpt>
      <trkpt lat="45.26495" lon="6.03945">
        <ele>1908</ele>
        <time>2022-12-04T13:09:31Z</time>
      </trkpt>
      <trkpt lat="45.26499" lon="6.03936">
        <ele>1907</ele>
        <time>2022-12-04T13:09:40Z</time>
      </trkpt>
      <trkpt lat="45.265" lon="6.03934">
        <ele>1907</ele>
        <time>2022-12-04T13:09:42Z</time>
      </trkpt>
      <trkpt lat="45.26502" lon="6.03931">
        <ele>1906</ele>
        <time>2022-12-04T13:09:45Z</time>
      </trkpt>
      <trkpt lat="45.26502" lon="6.03928">
        <ele>1906</ele>
        <time>2022-12-04T13:09:47Z</time>
      </trkpt>
      <trkpt lat="45.26502" lon="6.03925">
        <ele>1907</ele>
        <time>2022-12-04T13:09:49Z</time>
      </trkpt>
      <trkpt lat="45.26502" lon="6.03922">
        <ele>1907</ele>
        <time>2022-12-04T13:09:52Z</time>
      </trkpt>
      <trkpt lat="45.265" lon="6.03921">
        <ele>1910</ele>
        <time>2022-12-04T13:09:55Z</time>
      </trkpt>
      <trkpt lat="45.26499" lon="6.03921">
        <ele>1910</ele>
        <time>2022-12-04T13:11:34Z</time>
      </trkpt>
      <trkpt lat="45.26497" lon="6.03925">
        <ele>1912</ele>
        <time>2022-12-04T13:12:08Z</time>
      </trkpt>
      <trkpt lat="45.26495" lon="6.03931">
        <ele>1914</ele>
        <time>2022-12-04T13:12:12Z</time>
      </trkpt>
      <trkpt lat="45.26494" lon="6.03934">
        <ele>1914</ele>
        <time>2022-12-04T13:14:00Z</time>
      </trkpt>
      <trkpt lat="45.26493" lon="6.03939">
        <ele>1914</ele>
        <time>2022-12-04T13:14:02Z</time>
      </trkpt>
      <trkpt lat="45.26493" lon="6.03943">
        <ele>1913</ele>
        <time>2022-12-04T13:14:04Z</time>
      </trkpt>
      <trkpt lat="45.26492" lon="6.03945">
        <ele>1913</ele>
        <time>2022-12-04T13:16:18Z</time>
      </trkpt>
      <trkpt lat="45.26493" lon="6.03948">
        <ele>1912</ele>
        <time>2022-12-04T13:18:02Z</time>
      </trkpt>
      <trkpt lat="45.26493" lon="6.03947">
        <ele>1911</ele>
        <time>2022-12-04T13:18:19Z</time>
      </trkpt>
      <trkpt lat="45.26494" lon="6.03944">
        <ele>1911</ele>
        <time>2022-12-04T13:18:22Z</time>
      </trkpt>
      <trkpt lat="45.26496" lon="6.03941">
        <ele>1910</ele>
        <time>2022-12-04T13:18:25Z</time>
      </trkpt>
      <trkpt lat="45.26499" lon="6.03937">
        <ele>1910</ele>
        <time>2022-12-04T13:18:29Z</time>
      </trkpt>
      <trkpt lat="45.265" lon="6.03935">
        <ele>1909</ele>
        <time>2022-12-04T13:18:32Z</time>
      </trkpt>
      <trkpt lat="45.26501" lon="6.03931">
        <ele>1910</ele>
        <time>2022-12-04T13:18:36Z</time>
      </trkpt>
      <trkpt lat="45.26501" lon="6.03928">
        <ele>1911</ele>
        <time>2022-12-04T13:18:38Z</time>
      </trkpt>
      <trkpt lat="45.26501" lon="6.03925">
        <ele>1911</ele>
        <time>2022-12-04T13:18:41Z</time>
      </trkpt>
      <trkpt lat="45.265" lon="6.03922">
        <ele>1912</ele>
        <time>2022-12-04T13:18:43Z</time>
      </trkpt>
      <trkpt lat="45.26499" lon="6.03921">
        <ele>1912</ele>
        <time>2022-12-04T13:18:46Z</time>
      </trkpt>
      <trkpt lat="45.26497" lon="6.03921">
        <ele>1913</ele>
        <time>2022-12-04T13:18:48Z</time>
      </trkpt>
      <trkpt lat="45.26496" lon="6.0392">
        <ele>1914</ele>
        <time>2022-12-04T13:19:09Z</time>
      </trkpt>
      <trkpt lat="45.26495" lon="6.0392">
        <ele>1915</ele>
        <time>2022-12-04T13:20:23Z</time>
      </trkpt>
      <trkpt lat="45.26495" lon="6.03922">
        <ele>1916</ele>
        <time>2022-12-04T13:22:13Z</time>
      </trkpt>
      <trkpt lat="45.26501" lon="6.03922">
        <ele>1915</ele>
        <time>2022-12-04T13:22:17Z</time>
      </trkpt>
      <trkpt lat="45.26502" lon="6.03923">
        <ele>1915</ele>
        <time>2022-12-04T13:22:18Z</time>
      </trkpt>
      <trkpt lat="45.26503" lon="6.03926">
        <ele>1915</ele>
        <time>2022-12-04T13:22:19Z</time>
      </trkpt>
      <trkpt lat="45.26502" lon="6.03929">
        <ele>1915</ele>
        <time>2022-12-04T13:22:22Z</time>
      </trkpt>
      <trkpt lat="45.265" lon="6.03931">
        <ele>1915</ele>
        <time>2022-12-04T13:22:35Z</time>
      </trkpt>
      <trkpt lat="45.26498" lon="6.03934">
        <ele>1915</ele>
        <time>2022-12-04T13:22:38Z</time>
      </trkpt>
      <trkpt lat="45.26495" lon="6.03939">
        <ele>1914</ele>
        <time>2022-12-04T13:22:47Z</time>
      </trkpt>
      <trkpt lat="45.26493" lon="6.03942">
        <ele>1914</ele>
        <time>2022-12-04T13:22:49Z</time>
      </trkpt>
      <trkpt lat="45.26492" lon="6.03945">
        <ele>1914</ele>
        <time>2022-12-04T13:24:38Z</time>
      </trkpt>
      <trkpt lat="45.26493" lon="6.03949">
        <ele>1913</ele>
        <time>2022-12-04T13:26:58Z</time>
      </trkpt>
      <trkpt lat="45.26492" lon="6.03949">
        <ele>1914</ele>
        <time>2022-12-04T13:27:36Z</time>
      </trkpt>
      <trkpt lat="45.26494" lon="6.03946">
        <ele>1914</ele>
        <time>2022-12-04T13:27:40Z</time>
      </trkpt>
      <trkpt lat="45.26498" lon="6.03933">
        <ele>1912</ele>
        <time>2022-12-04T13:27:52Z</time>
      </trkpt>
      <trkpt lat="45.26499" lon="6.03931">
        <ele>1913</ele>
        <time>2022-12-04T13:27:55Z</time>
      </trkpt>
      <trkpt lat="45.265" lon="6.03928">
        <ele>1913</ele>
        <time>2022-12-04T13:27:58Z</time>
      </trkpt>
      <trkpt lat="45.265" lon="6.03925">
        <ele>1912</ele>
        <time>2022-12-04T13:28:02Z</time>
      </trkpt>
      <trkpt lat="45.26499" lon="6.03922">
        <ele>1913</ele>
        <time>2022-12-04T13:28:06Z</time>
      </trkpt>
      <trkpt lat="45.26497" lon="6.03921">
        <ele>1915</ele>
        <time>2022-12-04T13:28:30Z</time>
      </trkpt>
      <trkpt lat="45.26497" lon="6.03918">
        <ele>1916</ele>
        <time>2022-12-04T13:28:32Z</time>
      </trkpt>
      <trkpt lat="45.26498" lon="6.03903">
        <ele>1914</ele>
        <time>2022-12-04T13:28:43Z</time>
      </trkpt>
      <trkpt lat="45.26498" lon="6.039">
        <ele>1915</ele>
        <time>2022-12-04T13:28:46Z</time>
      </trkpt>
      <trkpt lat="45.26497" lon="6.03901">
        <ele>1918</ele>
        <time>2022-12-04T13:29:23Z</time>
      </trkpt>
      <trkpt lat="45.26499" lon="6.03908">
        <ele>1917</ele>
        <time>2022-12-04T13:29:27Z</time>
      </trkpt>
      <trkpt lat="45.26501" lon="6.03912">
        <ele>1917</ele>
        <time>2022-12-04T13:29:29Z</time>
      </trkpt>
      <trkpt lat="45.26499" lon="6.03914">
        <ele>1916</ele>
        <time>2022-12-04T13:29:32Z</time>
      </trkpt>
      <trkpt lat="45.26498" lon="6.03915">
        <ele>1917</ele>
        <time>2022-12-04T13:29:44Z</time>
      </trkpt>
      <trkpt lat="45.26498" lon="6.03918">
        <ele>1919</ele>
        <time>2022-12-04T13:30:26Z</time>
      </trkpt>
      <trkpt lat="45.26498" lon="6.0392">
        <ele>1919</ele>
        <time>2022-12-04T13:30:29Z</time>
      </trkpt>
      <trkpt lat="45.265" lon="6.03921">
        <ele>1918</ele>
        <time>2022-12-04T13:30:31Z</time>
      </trkpt>
      <trkpt lat="45.26502" lon="6.03926">
        <ele>1918</ele>
        <time>2022-12-04T13:30:33Z</time>
      </trkpt>
      <trkpt lat="45.265" lon="6.03928">
        <ele>1917</ele>
        <time>2022-12-04T13:30:35Z</time>
      </trkpt>
      <trkpt lat="45.26495" lon="6.03941">
        <ele>1916</ele>
        <time>2022-12-04T13:30:57Z</time>
      </trkpt>
      <trkpt lat="45.26493" lon="6.03943">
        <ele>1916</ele>
        <time>2022-12-04T13:30:59Z</time>
      </trkpt>
      <trkpt lat="45.26493" lon="6.03946">
        <ele>1916</ele>
        <time>2022-12-04T13:31:47Z</time>
      </trkpt>
      <trkpt lat="45.26493" lon="6.03945">
        <ele>1915</ele>
        <time>2022-12-04T13:33:47Z</time>
      </trkpt>
      <trkpt lat="45.26499" lon="6.03932">
        <ele>1916</ele>
        <time>2022-12-04T13:33:58Z</time>
      </trkpt>
      <trkpt lat="45.26501" lon="6.03929">
        <ele>1916</ele>
        <time>2022-12-04T13:34:02Z</time>
      </trkpt>
      <trkpt lat="45.26501" lon="6.03925">
        <ele>1917</ele>
        <time>2022-12-04T13:34:05Z</time>
      </trkpt>
      <trkpt lat="45.26499" lon="6.03923">
        <ele>1917</ele>
        <time>2022-12-04T13:34:08Z</time>
      </trkpt>
      <trkpt lat="45.2649" lon="6.03923">
        <ele>1920</ele>
        <time>2022-12-04T13:34:19Z</time>
      </trkpt>
      <trkpt lat="45.26489" lon="6.03921">
        <ele>1921</ele>
        <time>2022-12-04T13:35:05Z</time>
      </trkpt>
      <trkpt lat="45.26487" lon="6.03921">
        <ele>1921</ele>
        <time>2022-12-04T13:35:07Z</time>
      </trkpt>
      <trkpt lat="45.26485" lon="6.0392">
        <ele>1921</ele>
        <time>2022-12-04T13:35:35Z</time>
      </trkpt>
      <trkpt lat="45.26485" lon="6.03917">
        <ele>1921</ele>
        <time>2022-12-04T13:36:33Z</time>
      </trkpt>
      <trkpt lat="45.26486" lon="6.03916">
        <ele>1921</ele>
        <time>2022-12-04T13:36:45Z</time>
      </trkpt>
      <trkpt lat="45.26487" lon="6.03914">
        <ele>1922</ele>
        <time>2022-12-04T13:37:01Z</time>
      </trkpt>
      <trkpt lat="45.2649" lon="6.03914">
        <ele>1921</ele>
        <time>2022-12-04T13:37:03Z</time>
      </trkpt>
      <trkpt lat="45.26492" lon="6.03912">
        <ele>1921</ele>
        <time>2022-12-04T13:37:04Z</time>
      </trkpt>
      <trkpt lat="45.26494" lon="6.03913">
        <ele>1921</ele>
        <time>2022-12-04T13:37:05Z</time>
      </trkpt>
      <trkpt lat="45.26497" lon="6.03914">
        <ele>1920</ele>
        <time>2022-12-04T13:37:06Z</time>
      </trkpt>
      <trkpt lat="45.26498" lon="6.03918">
        <ele>1920</ele>
        <time>2022-12-04T13:37:07Z</time>
      </trkpt>
      <trkpt lat="45.26497" lon="6.0392">
        <ele>1920</ele>
        <time>2022-12-04T13:37:15Z</time>
      </trkpt>
      <trkpt lat="45.26496" lon="6.03922">
        <ele>1919</ele>
        <time>2022-12-04T13:38:35Z</time>
      </trkpt>
      <trkpt lat="45.26494" lon="6.0392">
        <ele>1919</ele>
        <time>2022-12-04T13:38:39Z</time>
      </trkpt>
      <trkpt lat="45.26493" lon="6.03918">
        <ele>1919</ele>
        <time>2022-12-04T13:41:18Z</time>
      </trkpt>
      <trkpt lat="45.26494" lon="6.03917">
        <ele>1919</ele>
        <time>2022-12-04T13:41:23Z</time>
      </trkpt>
      <trkpt lat="45.26495" lon="6.03914">
        <ele>1919</ele>
        <time>2022-12-04T13:43:18Z</time>
      </trkpt>
      <trkpt lat="45.26499" lon="6.03903">
        <ele>1919</ele>
        <time>2022-12-04T13:43:24Z</time>
      </trkpt>
      <trkpt lat="45.265" lon="6.039">
        <ele>1919</ele>
        <time>2022-12-04T13:43:25Z</time>
      </trkpt>
      <trkpt lat="45.265" lon="6.03897">
        <ele>1918</ele>
        <time>2022-12-04T13:43:26Z</time>
      </trkpt>
      <trkpt lat="45.26499" lon="6.03895">
        <ele>1918</ele>
        <time>2022-12-04T13:43:28Z</time>
      </trkpt>
      <trkpt lat="45.26497" lon="6.03892">
        <ele>1918</ele>
        <time>2022-12-04T13:43:33Z</time>
      </trkpt>
      <trkpt lat="45.26494" lon="6.03889">
        <ele>1919</ele>
        <time>2022-12-04T13:43:42Z</time>
      </trkpt>
      <trkpt lat="45.26495" lon="6.03892">
        <ele>1919</ele>
        <time>2022-12-04T13:43:54Z</time>
      </trkpt>
      <trkpt lat="45.26472" lon="6.03887">
        <ele>1912.546875</ele>
      </trkpt>
      <trkpt lat="45.26459" lon="6.03894">
        <ele>1915.2734375</ele>
      </trkpt>
      <trkpt lat="45.26447" lon="6.03879">
        <ele>1922.7421875</ele>
      </trkpt>
      <trkpt lat="45.26438" lon="6.03866">
        <ele>1928.6328125</ele>
      </trkpt>
      <trkpt lat="45.26419" lon="6.03885">
        <ele>1933.30078125</ele>
      </trkpt>
      <trkpt lat="45.26399" lon="6.03931">
        <ele>1930.9296875</ele>
      </trkpt>
      <trkpt lat="45.26358" lon="6.03984">
        <ele>1924.640625</ele>
      </trkpt>
      <trkpt lat="45.26298" lon="6.03986">
        <ele>1926.08984375</ele>
      </trkpt>
      <trkpt lat="45.26238" lon="6.03956">
        <ele>1933.43359375</ele>
      </trkpt>
      <trkpt lat="45.26168" lon="6.0391">
        <ele>1934.22265625</ele>
      </trkpt>
      <trkpt lat="45.26109" lon="6.03835">
        <ele>1941.953125</ele>
      </trkpt>
      <trkpt lat="45.26059" lon="6.03728">
        <ele>1955.2578125</ele>
      </trkpt>
      <trkpt lat="45.26042" lon="6.03654">
        <ele>1970.6171875</ele>
      </trkpt>
      <trkpt lat="45.2597" lon="6.03587">
        <ele>1979.0859375</ele>
      </trkpt>
      <trkpt lat="45.25951" lon="6.03548">
        <ele>1992.11328125</ele>
      </trkpt>
      <trkpt lat="45.25922" lon="6.03502">
        <ele>2003.7421875</ele>
      </trkpt>
      <trkpt lat="45.25887" lon="6.03472">
        <ele>2008.94140625</ele>
      </trkpt>
      <trkpt lat="45.25866" lon="6.03422">
        <ele>2016.77734375</ele>
      </trkpt>
      <trkpt lat="45.25838" lon="6.03344">
        <ele>2024.12890625</ele>
      </trkpt>
      <trkpt lat="45.25815" lon="6.03288">
        <ele>2029.8671875</ele>
      </trkpt>
      <trkpt lat="45.25793" lon="6.03233">
        <ele>2037.5546875</ele>
      </trkpt>
      <trkpt lat="45.25772" lon="6.03197">
        <ele>2064</ele>
        <time>2022-11-27T12:01:33Z</time>
      </trkpt>
      <trkpt lat="45.25777" lon="6.032">
        <ele>2063</ele>
        <time>2022-11-27T12:01:34Z</time>
      </trkpt>
      <trkpt lat="45.2579" lon="6.03203">
        <ele>2062</ele>
        <time>2022-11-27T12:01:37Z</time>
      </trkpt>
      <trkpt lat="45.25798" lon="6.03202">
        <ele>2061</ele>
        <time>2022-11-27T12:01:39Z</time>
      </trkpt>
      <trkpt lat="45.25805" lon="6.03206">
        <ele>2060</ele>
        <time>2022-11-27T12:01:41Z</time>
      </trkpt>
      <trkpt lat="45.25805" lon="6.03202">
        <ele>2057</ele>
        <time>2022-11-27T12:01:55Z</time>
      </trkpt>
      <trkpt lat="45.25808" lon="6.03201">
        <ele>2057</ele>
        <time>2022-11-27T12:01:56Z</time>
      </trkpt>
      <trkpt lat="45.25812" lon="6.03201">
        <ele>2056</ele>
        <time>2022-11-27T12:01:57Z</time>
      </trkpt>
      <trkpt lat="45.25816" lon="6.03199">
        <ele>2056</ele>
        <time>2022-11-27T12:01:58Z</time>
      </trkpt>
      <trkpt lat="45.25818" lon="6.03195">
        <ele>2055</ele>
        <time>2022-11-27T12:01:59Z</time>
      </trkpt>
      <trkpt lat="45.25817" lon="6.03188">
        <ele>2053</ele>
        <time>2022-11-27T12:02:01Z</time>
      </trkpt>
      <trkpt lat="45.25819" lon="6.03184">
        <ele>2051</ele>
        <time>2022-11-27T12:02:02Z</time>
      </trkpt>
      <trkpt lat="45.25826" lon="6.03183">
        <ele>2050</ele>
        <time>2022-11-27T12:02:04Z</time>
      </trkpt>
      <trkpt lat="45.25826" lon="6.03178">
        <ele>2049</ele>
        <time>2022-11-27T12:02:06Z</time>
      </trkpt>
      <trkpt lat="45.25823" lon="6.03175">
        <ele>2049</ele>
        <time>2022-11-27T12:02:08Z</time>
      </trkpt>
      <trkpt lat="45.2583" lon="6.03171">
        <ele>2047</ele>
        <time>2022-11-27T12:02:14Z</time>
      </trkpt>
      <trkpt lat="45.25832" lon="6.03165">
        <ele>2045</ele>
        <time>2022-11-27T12:02:15Z</time>
      </trkpt>
      <trkpt lat="45.2583" lon="6.0316">
        <ele>2044</ele>
        <time>2022-11-27T12:02:16Z</time>
      </trkpt>
      <trkpt lat="45.25822" lon="6.03151">
        <ele>2041</ele>
        <time>2022-11-27T12:02:19Z</time>
      </trkpt>
      <trkpt lat="45.25826" lon="6.03145">
        <ele>2040</ele>
        <time>2022-11-27T12:02:21Z</time>
      </trkpt>
      <trkpt lat="45.25825" lon="6.03141">
        <ele>2040</ele>
        <time>2022-11-27T12:02:22Z</time>
      </trkpt>
      <trkpt lat="45.25823" lon="6.03137">
        <ele>2039</ele>
        <time>2022-11-27T12:02:24Z</time>
      </trkpt>
      <trkpt lat="45.25824" lon="6.0313">
        <ele>2038</ele>
        <time>2022-11-27T12:02:26Z</time>
      </trkpt>
      <trkpt lat="45.25831" lon="6.03128">
        <ele>2037</ele>
        <time>2022-11-27T12:02:28Z</time>
      </trkpt>
      <trkpt lat="45.25833" lon="6.03121">
        <ele>2035</ele>
        <time>2022-11-27T12:02:29Z</time>
      </trkpt>
      <trkpt lat="45.25833" lon="6.03116">
        <ele>2035</ele>
        <time>2022-11-27T12:02:30Z</time>
      </trkpt>
      <trkpt lat="45.25831" lon="6.03105">
        <ele>2033</ele>
        <time>2022-11-27T12:02:33Z</time>
      </trkpt>
      <trkpt lat="45.25833" lon="6.03089">
        <ele>2031</ele>
        <time>2022-11-27T12:02:37Z</time>
      </trkpt>
      <trkpt lat="45.25839" lon="6.03077">
        <ele>2029</ele>
        <time>2022-11-27T12:02:40Z</time>
      </trkpt>
      <trkpt lat="45.25844" lon="6.03076">
        <ele>2028</ele>
        <time>2022-11-27T12:02:42Z</time>
      </trkpt>
      <trkpt lat="45.25846" lon="6.03073">
        <ele>2028</ele>
        <time>2022-11-27T12:02:43Z</time>
      </trkpt>
      <trkpt lat="45.25849" lon="6.03078">
        <ele>2024</ele>
        <time>2022-11-27T12:02:58Z</time>
      </trkpt>
      <trkpt lat="45.2585" lon="6.03083">
        <ele>2022</ele>
        <time>2022-11-27T12:03:00Z</time>
      </trkpt>
      <trkpt lat="45.25852" lon="6.03086">
        <ele>2020</ele>
        <time>2022-11-27T12:03:02Z</time>
      </trkpt>
      <trkpt lat="45.25855" lon="6.03087">
        <ele>2019</ele>
        <time>2022-11-27T12:03:03Z</time>
      </trkpt>
      <trkpt lat="45.25857" lon="6.03086">
        <ele>2019</ele>
        <time>2022-11-27T12:03:04Z</time>
      </trkpt>
      <trkpt lat="45.25859" lon="6.03087">
        <ele>2019</ele>
        <time>2022-11-27T12:03:05Z</time>
      </trkpt>
      <trkpt lat="45.2586" lon="6.03098">
        <ele>2017</ele>
        <time>2022-11-27T12:03:08Z</time>
      </trkpt>
      <trkpt lat="45.25864" lon="6.03102">
        <ele>2017</ele>
        <time>2022-11-27T12:03:09Z</time>
      </trkpt>
      <trkpt lat="45.25867" lon="6.03102">
        <ele>2016</ele>
        <time>2022-11-27T12:03:10Z</time>
      </trkpt>
      <trkpt lat="45.2587" lon="6.03099">
        <ele>2015</ele>
        <time>2022-11-27T12:03:11Z</time>
      </trkpt>
      <trkpt lat="45.25875" lon="6.03105">
        <ele>2014</ele>
        <time>2022-11-27T12:03:13Z</time>
      </trkpt>
      <trkpt lat="45.25875" lon="6.0311">
        <ele>2013</ele>
        <time>2022-11-27T12:03:14Z</time>
      </trkpt>
      <trkpt lat="45.25877" lon="6.03114">
        <ele>2012</ele>
        <time>2022-11-27T12:03:15Z</time>
      </trkpt>
      <trkpt lat="45.25881" lon="6.03117">
        <ele>2011</ele>
        <time>2022-11-27T12:03:17Z</time>
      </trkpt>
      <trkpt lat="45.25881" lon="6.03122">
        <ele>2010</ele>
        <time>2022-11-27T12:03:18Z</time>
      </trkpt>
      <trkpt lat="45.25882" lon="6.03128">
        <ele>2009</ele>
        <time>2022-11-27T12:03:19Z</time>
      </trkpt>
      <trkpt lat="45.25909" lon="6.03152">
        <ele>2000</ele>
        <time>2022-11-27T12:03:25Z</time>
      </trkpt>
      <trkpt lat="45.25913" lon="6.03154">
        <ele>1999</ele>
        <time>2022-11-27T12:03:26Z</time>
      </trkpt>
      <trkpt lat="45.2592" lon="6.03164">
        <ele>1995</ele>
        <time>2022-11-27T12:03:28Z</time>
      </trkpt>
      <trkpt lat="45.25924" lon="6.03165">
        <ele>1993</ele>
        <time>2022-11-27T12:03:29Z</time>
      </trkpt>
      <trkpt lat="45.25926" lon="6.0317">
        <ele>1993</ele>
        <time>2022-11-27T12:03:30Z</time>
      </trkpt>
      <trkpt lat="45.25929" lon="6.03175">
        <ele>1991</ele>
        <time>2022-11-27T12:03:31Z</time>
      </trkpt>
      <trkpt lat="45.25934" lon="6.03177">
        <ele>1990</ele>
        <time>2022-11-27T12:03:32Z</time>
      </trkpt>
      <trkpt lat="45.25939" lon="6.03177">
        <ele>1989</ele>
        <time>2022-11-27T12:03:33Z</time>
      </trkpt>
      <trkpt lat="45.25942" lon="6.03181">
        <ele>1987</ele>
        <time>2022-11-27T12:03:34Z</time>
      </trkpt>
      <trkpt lat="45.25944" lon="6.03189">
        <ele>1985</ele>
        <time>2022-11-27T12:03:35Z</time>
      </trkpt>
      <trkpt lat="45.25949" lon="6.03193">
        <ele>1984</ele>
        <time>2022-11-27T12:03:36Z</time>
      </trkpt>
      <trkpt lat="45.25953" lon="6.03193">
        <ele>1982</ele>
        <time>2022-11-27T12:03:37Z</time>
      </trkpt>
      <trkpt lat="45.25955" lon="6.03196">
        <ele>1981</ele>
        <time>2022-11-27T12:03:38Z</time>
      </trkpt>
      <trkpt lat="45.25958" lon="6.032">
        <ele>1979</ele>
        <time>2022-11-27T12:03:39Z</time>
      </trkpt>
      <trkpt lat="45.25963" lon="6.03201">
        <ele>1978</ele>
        <time>2022-11-27T12:03:40Z</time>
      </trkpt>
      <trkpt lat="45.25974" lon="6.03201">
        <ele>1974</ele>
        <time>2022-11-27T12:03:42Z</time>
      </trkpt>
      <trkpt lat="45.25978" lon="6.03204">
        <ele>1973</ele>
        <time>2022-11-27T12:03:43Z</time>
      </trkpt>
      <trkpt lat="45.25984" lon="6.03203">
        <ele>1972</ele>
        <time>2022-11-27T12:03:44Z</time>
      </trkpt>
      <trkpt lat="45.25985" lon="6.03197">
        <ele>1971</ele>
        <time>2022-11-27T12:03:45Z</time>
      </trkpt>
      <trkpt lat="45.25984" lon="6.03193">
        <ele>1971</ele>
        <time>2022-11-27T12:03:46Z</time>
      </trkpt>
      <trkpt lat="45.25986" lon="6.03191">
        <ele>1971</ele>
        <time>2022-11-27T12:04:02Z</time>
      </trkpt>
      <trkpt lat="45.25988" lon="6.03191">
        <ele>1970</ele>
        <time>2022-11-27T12:04:03Z</time>
      </trkpt>
      <trkpt lat="45.25991" lon="6.03192">
        <ele>1970</ele>
        <time>2022-11-27T12:04:04Z</time>
      </trkpt>
      <trkpt lat="45.25996" lon="6.03191">
        <ele>1970</ele>
        <time>2022-11-27T12:04:05Z</time>
      </trkpt>
      <trkpt lat="45.25997" lon="6.03186">
        <ele>1969</ele>
        <time>2022-11-27T12:04:06Z</time>
      </trkpt>
      <trkpt lat="45.25997" lon="6.03182">
        <ele>1967</ele>
        <time>2022-11-27T12:04:07Z</time>
      </trkpt>
      <trkpt lat="45.26" lon="6.03179">
        <ele>1966</ele>
        <time>2022-11-27T12:04:08Z</time>
      </trkpt>
      <trkpt lat="45.26002" lon="6.03177">
        <ele>1964</ele>
        <time>2022-11-27T12:04:09Z</time>
      </trkpt>
      <trkpt lat="45.26008" lon="6.03177">
        <ele>1963</ele>
        <time>2022-11-27T12:04:11Z</time>
      </trkpt>
      <trkpt lat="45.26011" lon="6.03175">
        <ele>1962</ele>
        <time>2022-11-27T12:04:12Z</time>
      </trkpt>
      <trkpt lat="45.26013" lon="6.0317">
        <ele>1962</ele>
        <time>2022-11-27T12:04:13Z</time>
      </trkpt>
      <trkpt lat="45.26013" lon="6.03165">
        <ele>1961</ele>
        <time>2022-11-27T12:04:14Z</time>
      </trkpt>
      <trkpt lat="45.26021" lon="6.03146">
        <ele>1958</ele>
        <time>2022-11-27T12:04:19Z</time>
      </trkpt>
      <trkpt lat="45.26026" lon="6.03136">
        <ele>1955</ele>
        <time>2022-11-27T12:04:21Z</time>
      </trkpt>
      <trkpt lat="45.26029" lon="6.03136">
        <ele>1954</ele>
        <time>2022-11-27T12:04:22Z</time>
      </trkpt>
      <trkpt lat="45.26034" lon="6.03131">
        <ele>1953</ele>
        <time>2022-11-27T12:04:23Z</time>
      </trkpt>
      <trkpt lat="45.26035" lon="6.03127">
        <ele>1952</ele>
        <time>2022-11-27T12:04:24Z</time>
      </trkpt>
      <trkpt lat="45.2603" lon="6.03119">
        <ele>1948</ele>
        <time>2022-11-27T12:04:26Z</time>
      </trkpt>
      <trkpt lat="45.2603" lon="6.03114">
        <ele>1947</ele>
        <time>2022-11-27T12:04:27Z</time>
      </trkpt>
      <trkpt lat="45.26034" lon="6.03113">
        <ele>1946</ele>
        <time>2022-11-27T12:04:28Z</time>
      </trkpt>
      <trkpt lat="45.26039" lon="6.03111">
        <ele>1945</ele>
        <time>2022-11-27T12:04:29Z</time>
      </trkpt>
      <trkpt lat="45.26041" lon="6.03105">
        <ele>1944</ele>
        <time>2022-11-27T12:04:30Z</time>
      </trkpt>
      <trkpt lat="45.2604" lon="6.03099">
        <ele>1943</ele>
        <time>2022-11-27T12:04:31Z</time>
      </trkpt>
      <trkpt lat="45.26041" lon="6.03093">
        <ele>1942</ele>
        <time>2022-11-27T12:04:32Z</time>
      </trkpt>
      <trkpt lat="45.26045" lon="6.03086">
        <ele>1940</ele>
        <time>2022-11-27T12:04:33Z</time>
      </trkpt>
      <trkpt lat="45.26048" lon="6.03078">
        <ele>1938</ele>
        <time>2022-11-27T12:04:34Z</time>
      </trkpt>
      <trkpt lat="45.26046" lon="6.03072">
        <ele>1936</ele>
        <time>2022-11-27T12:04:35Z</time>
      </trkpt>
      <trkpt lat="45.26043" lon="6.03065">
        <ele>1933</ele>
        <time>2022-11-27T12:04:36Z</time>
      </trkpt>
      <trkpt lat="45.26047" lon="6.03034">
        <ele>1928</ele>
        <time>2022-11-27T12:04:39Z</time>
      </trkpt>
      <trkpt lat="45.26051" lon="6.03024">
        <ele>1926</ele>
        <time>2022-11-27T12:04:40Z</time>
      </trkpt>
      <trkpt lat="45.26054" lon="6.03014">
        <ele>1924</ele>
        <time>2022-11-27T12:04:41Z</time>
      </trkpt>
      <trkpt lat="45.26054" lon="6.02998">
        <ele>1923</ele>
        <time>2022-11-27T12:04:43Z</time>
      </trkpt>
      <trkpt lat="45.26056" lon="6.02991">
        <ele>1922</ele>
        <time>2022-11-27T12:04:44Z</time>
      </trkpt>
      <trkpt lat="45.26063" lon="6.0298">
        <ele>1921</ele>
        <time>2022-11-27T12:04:46Z</time>
      </trkpt>
      <trkpt lat="45.26064" lon="6.02974">
        <ele>1921</ele>
        <time>2022-11-27T12:04:47Z</time>
      </trkpt>
      <trkpt lat="45.26064" lon="6.0296">
        <ele>1919</ele>
        <time>2022-11-27T12:04:49Z</time>
      </trkpt>
      <trkpt lat="45.26067" lon="6.02955">
        <ele>1918</ele>
        <time>2022-11-27T12:04:50Z</time>
      </trkpt>
      <trkpt lat="45.26068" lon="6.02949">
        <ele>1918</ele>
        <time>2022-11-27T12:04:51Z</time>
      </trkpt>
      <trkpt lat="45.26065" lon="6.02936">
        <ele>1915</ele>
        <time>2022-11-27T12:04:53Z</time>
      </trkpt>
      <trkpt lat="45.26069" lon="6.02931">
        <ele>1915</ele>
        <time>2022-11-27T12:04:54Z</time>
      </trkpt>
      <trkpt lat="45.26078" lon="6.02925">
        <ele>1914</ele>
        <time>2022-11-27T12:04:56Z</time>
      </trkpt>
      <trkpt lat="45.2608" lon="6.02919">
        <ele>1913</ele>
        <time>2022-11-27T12:04:57Z</time>
      </trkpt>
      <trkpt lat="45.26078" lon="6.02914">
        <ele>1913</ele>
        <time>2022-11-27T12:04:58Z</time>
      </trkpt>
      <trkpt lat="45.26075" lon="6.02907">
        <ele>1911</ele>
        <time>2022-11-27T12:05:00Z</time>
      </trkpt>
      <trkpt lat="45.26076" lon="6.02906">
        <ele>1910</ele>
        <time>2022-11-27T12:05:09Z</time>
      </trkpt>
      <trkpt lat="45.26077" lon="6.02904">
        <ele>1910</ele>
        <time>2022-11-27T12:05:10Z</time>
      </trkpt>
      <trkpt lat="45.26083" lon="6.02901">
        <ele>1909</ele>
        <time>2022-11-27T12:05:12Z</time>
      </trkpt>
      <trkpt lat="45.26084" lon="6.02898">
        <ele>1909</ele>
        <time>2022-11-27T12:05:13Z</time>
      </trkpt>
      <trkpt lat="45.26085" lon="6.02894">
        <ele>1908</ele>
        <time>2022-11-27T12:05:14Z</time>
      </trkpt>
      <trkpt lat="45.26089" lon="6.02887">
        <ele>1907</ele>
        <time>2022-11-27T12:05:16Z</time>
      </trkpt>
      <trkpt lat="45.26089" lon="6.02881">
        <ele>1905</ele>
        <time>2022-11-27T12:05:17Z</time>
      </trkpt>
      <trkpt lat="45.26088" lon="6.02877">
        <ele>1905</ele>
        <time>2022-11-27T12:05:18Z</time>
      </trkpt>
      <trkpt lat="45.26087" lon="6.02874">
        <ele>1904</ele>
        <time>2022-11-27T12:05:19Z</time>
      </trkpt>
      <trkpt lat="45.26089" lon="6.0287">
        <ele>1903</ele>
        <time>2022-11-27T12:05:20Z</time>
      </trkpt>
      <trkpt lat="45.26086" lon="6.02863">
        <ele>1901</ele>
        <time>2022-11-27T12:05:22Z</time>
      </trkpt>
      <trkpt lat="45.26086" lon="6.02849">
        <ele>1897</ele>
        <time>2022-11-27T12:05:24Z</time>
      </trkpt>
      <trkpt lat="45.26086" lon="6.02843">
        <ele>1896</ele>
        <time>2022-11-27T12:05:25Z</time>
      </trkpt>
      <trkpt lat="45.26088" lon="6.0284">
        <ele>1895</ele>
        <time>2022-11-27T12:05:26Z</time>
      </trkpt>
      <trkpt lat="45.26091" lon="6.02834">
        <ele>1893</ele>
        <time>2022-11-27T12:05:27Z</time>
      </trkpt>
      <trkpt lat="45.2609" lon="6.02824">
        <ele>1890</ele>
        <time>2022-11-27T12:05:29Z</time>
      </trkpt>
      <trkpt lat="45.26091" lon="6.02819">
        <ele>1889</ele>
        <time>2022-11-27T12:05:30Z</time>
      </trkpt>
      <trkpt lat="45.2609" lon="6.02813">
        <ele>1888</ele>
        <time>2022-11-27T12:05:31Z</time>
      </trkpt>
      <trkpt lat="45.26084" lon="6.02807">
        <ele>1885</ele>
        <time>2022-11-27T12:05:33Z</time>
      </trkpt>
      <trkpt lat="45.26084" lon="6.02803">
        <ele>1884</ele>
        <time>2022-11-27T12:05:34Z</time>
      </trkpt>
      <trkpt lat="45.26087" lon="6.02799">
        <ele>1883</ele>
        <time>2022-11-27T12:05:35Z</time>
      </trkpt>
      <trkpt lat="45.26086" lon="6.02792">
        <ele>1882</ele>
        <time>2022-11-27T12:05:36Z</time>
      </trkpt>
      <trkpt lat="45.26084" lon="6.02788">
        <ele>1882</ele>
        <time>2022-11-27T12:05:37Z</time>
      </trkpt>
      <trkpt lat="45.26085" lon="6.02783">
        <ele>1881</ele>
        <time>2022-11-27T12:05:38Z</time>
      </trkpt>
      <trkpt lat="45.26088" lon="6.02777">
        <ele>1880</ele>
        <time>2022-11-27T12:05:39Z</time>
      </trkpt>
      <trkpt lat="45.26086" lon="6.02771">
        <ele>1878</ele>
        <time>2022-11-27T12:05:40Z</time>
      </trkpt>
      <trkpt lat="45.26083" lon="6.02766">
        <ele>1876</ele>
        <time>2022-11-27T12:05:41Z</time>
      </trkpt>
      <trkpt lat="45.26083" lon="6.02761">
        <ele>1876</ele>
        <time>2022-11-27T12:05:42Z</time>
      </trkpt>
      <trkpt lat="45.26084" lon="6.02757">
        <ele>1875</ele>
        <time>2022-11-27T12:05:43Z</time>
      </trkpt>
      <trkpt lat="45.26082" lon="6.0275">
        <ele>1873</ele>
        <time>2022-11-27T12:05:45Z</time>
      </trkpt>
      <trkpt lat="45.26082" lon="6.02745">
        <ele>1872</ele>
        <time>2022-11-27T12:05:46Z</time>
      </trkpt>
      <trkpt lat="45.26081" lon="6.0274">
        <ele>1872</ele>
        <time>2022-11-27T12:05:47Z</time>
      </trkpt>
      <trkpt lat="45.26081" lon="6.02736">
        <ele>1871</ele>
        <time>2022-11-27T12:05:48Z</time>
      </trkpt>
      <trkpt lat="45.26083" lon="6.02732">
        <ele>1870</ele>
        <time>2022-11-27T12:05:49Z</time>
      </trkpt>
      <trkpt lat="45.26086" lon="6.0273">
        <ele>1870</ele>
        <time>2022-11-27T12:05:50Z</time>
      </trkpt>
      <trkpt lat="45.26087" lon="6.02726">
        <ele>1869</ele>
        <time>2022-11-27T12:05:51Z</time>
      </trkpt>
      <trkpt lat="45.26086" lon="6.02721">
        <ele>1867</ele>
        <time>2022-11-27T12:05:52Z</time>
      </trkpt>
      <trkpt lat="45.26087" lon="6.02717">
        <ele>1867</ele>
        <time>2022-11-27T12:05:53Z</time>
      </trkpt>
      <trkpt lat="45.26093" lon="6.02705">
        <ele>1865</ele>
        <time>2022-11-27T12:05:56Z</time>
      </trkpt>
      <trkpt lat="45.26097" lon="6.02693">
        <ele>1863</ele>
        <time>2022-11-27T12:05:58Z</time>
      </trkpt>
      <trkpt lat="45.261" lon="6.02686">
        <ele>1861</ele>
        <time>2022-11-27T12:06:00Z</time>
      </trkpt>
      <trkpt lat="45.26104" lon="6.02686">
        <ele>1861</ele>
        <time>2022-11-27T12:06:01Z</time>
      </trkpt>
      <trkpt lat="45.26107" lon="6.02681">
        <ele>1861</ele>
        <time>2022-11-27T12:06:02Z</time>
      </trkpt>
      <trkpt lat="45.26112" lon="6.02676">
        <ele>1859</ele>
        <time>2022-11-27T12:06:04Z</time>
      </trkpt>
      <trkpt lat="45.26114" lon="6.02677">
        <ele>1857</ele>
        <time>2022-11-27T12:06:09Z</time>
      </trkpt>
      <trkpt lat="45.26115" lon="6.02681">
        <ele>1856</ele>
        <time>2022-11-27T12:06:16Z</time>
      </trkpt>
      <trkpt lat="45.2612" lon="6.02686">
        <ele>1854</ele>
        <time>2022-11-27T12:06:18Z</time>
      </trkpt>
      <trkpt lat="45.26122" lon="6.02693">
        <ele>1852</ele>
        <time>2022-11-27T12:06:20Z</time>
      </trkpt>
      <trkpt lat="45.26126" lon="6.02698">
        <ele>1851</ele>
        <time>2022-11-27T12:06:21Z</time>
      </trkpt>
      <trkpt lat="45.26131" lon="6.027">
        <ele>1849</ele>
        <time>2022-11-27T12:06:23Z</time>
      </trkpt>
      <trkpt lat="45.26134" lon="6.0271">
        <ele>1847</ele>
        <time>2022-11-27T12:06:26Z</time>
      </trkpt>
      <trkpt lat="45.26136" lon="6.02722">
        <ele>1845</ele>
        <time>2022-11-27T12:06:29Z</time>
      </trkpt>
      <trkpt lat="45.26139" lon="6.02723">
        <ele>1844</ele>
        <time>2022-11-27T12:06:30Z</time>
      </trkpt>
      <trkpt lat="45.26147" lon="6.02721">
        <ele>1841</ele>
        <time>2022-11-27T12:06:33Z</time>
      </trkpt>
      <trkpt lat="45.26149" lon="6.02725">
        <ele>1841</ele>
        <time>2022-11-27T12:06:34Z</time>
      </trkpt>
      <trkpt lat="45.26152" lon="6.02729">
        <ele>1839</ele>
        <time>2022-11-27T12:06:35Z</time>
      </trkpt>
      <trkpt lat="45.26155" lon="6.0273">
        <ele>1838</ele>
        <time>2022-11-27T12:06:36Z</time>
      </trkpt>
      <trkpt lat="45.26158" lon="6.02733">
        <ele>1837</ele>
        <time>2022-11-27T12:06:37Z</time>
      </trkpt>
      <trkpt lat="45.26158" lon="6.02737">
        <ele>1837</ele>
        <time>2022-11-27T12:06:38Z</time>
      </trkpt>
      <trkpt lat="45.2616" lon="6.02742">
        <ele>1836</ele>
        <time>2022-11-27T12:06:39Z</time>
      </trkpt>
      <trkpt lat="45.26169" lon="6.0274">
        <ele>1834</ele>
        <time>2022-11-27T12:06:41Z</time>
      </trkpt>
      <trkpt lat="45.26171" lon="6.02749">
        <ele>1832</ele>
        <time>2022-11-27T12:06:44Z</time>
      </trkpt>
      <trkpt lat="45.26174" lon="6.0275">
        <ele>1831</ele>
        <time>2022-11-27T12:06:45Z</time>
      </trkpt>
      <trkpt lat="45.26178" lon="6.02749">
        <ele>1829</ele>
        <time>2022-11-27T12:06:46Z</time>
      </trkpt>
      <trkpt lat="45.26182" lon="6.02752">
        <ele>1829</ele>
        <time>2022-11-27T12:06:47Z</time>
      </trkpt>
      <trkpt lat="45.26186" lon="6.02752">
        <ele>1828</ele>
        <time>2022-11-27T12:06:48Z</time>
      </trkpt>
      <trkpt lat="45.2619" lon="6.02752">
        <ele>1827</ele>
        <time>2022-11-27T12:06:49Z</time>
      </trkpt>
      <trkpt lat="45.26193" lon="6.02754">
        <ele>1826</ele>
        <time>2022-11-27T12:06:51Z</time>
      </trkpt>
      <trkpt lat="45.26192" lon="6.02758">
        <ele>1824</ele>
        <time>2022-11-27T12:06:53Z</time>
      </trkpt>
      <trkpt lat="45.26194" lon="6.02764">
        <ele>1823</ele>
        <time>2022-11-27T12:06:54Z</time>
      </trkpt>
      <trkpt lat="45.26196" lon="6.02766">
        <ele>1823</ele>
        <time>2022-11-27T12:06:55Z</time>
      </trkpt>
      <trkpt lat="45.26203" lon="6.02767">
        <ele>1821</ele>
        <time>2022-11-27T12:06:57Z</time>
      </trkpt>
      <trkpt lat="45.26205" lon="6.0277">
        <ele>1820</ele>
        <time>2022-11-27T12:06:58Z</time>
      </trkpt>
      <trkpt lat="45.26206" lon="6.02773">
        <ele>1820</ele>
        <time>2022-11-27T12:06:59Z</time>
      </trkpt>
      <trkpt lat="45.26208" lon="6.02776">
        <ele>1819</ele>
        <time>2022-11-27T12:07:00Z</time>
      </trkpt>
      <trkpt lat="45.2621" lon="6.02776">
        <ele>1818</ele>
        <time>2022-11-27T12:07:01Z</time>
      </trkpt>
      <trkpt lat="45.26214" lon="6.02776">
        <ele>1817</ele>
        <time>2022-11-27T12:07:03Z</time>
      </trkpt>
      <trkpt lat="45.26216" lon="6.0278">
        <ele>1815</ele>
        <time>2022-11-27T12:07:05Z</time>
      </trkpt>
      <trkpt lat="45.26218" lon="6.02784">
        <ele>1814</ele>
        <time>2022-11-27T12:07:06Z</time>
      </trkpt>
      <trkpt lat="45.26221" lon="6.02786">
        <ele>1812</ele>
        <time>2022-11-27T12:07:07Z</time>
      </trkpt>
      <trkpt lat="45.26222" lon="6.0279">
        <ele>1812</ele>
        <time>2022-11-27T12:07:08Z</time>
      </trkpt>
      <trkpt lat="45.26225" lon="6.02792">
        <ele>1810</ele>
        <time>2022-11-27T12:07:09Z</time>
      </trkpt>
      <trkpt lat="45.2623" lon="6.02792">
        <ele>1808</ele>
        <time>2022-11-27T12:07:11Z</time>
      </trkpt>
      <trkpt lat="45.26232" lon="6.02793">
        <ele>1807</ele>
        <time>2022-11-27T12:07:13Z</time>
      </trkpt>
      <trkpt lat="45.26233" lon="6.02799">
        <ele>1805</ele>
        <time>2022-11-27T12:07:15Z</time>
      </trkpt>
      <trkpt lat="45.26236" lon="6.02802">
        <ele>1804</ele>
        <time>2022-11-27T12:07:16Z</time>
      </trkpt>
      <trkpt lat="45.2624" lon="6.02801">
        <ele>1803</ele>
        <time>2022-11-27T12:07:17Z</time>
      </trkpt>
      <trkpt lat="45.26248" lon="6.02798">
        <ele>1801</ele>
        <time>2022-11-27T12:07:20Z</time>
      </trkpt>
      <trkpt lat="45.2625" lon="6.02803">
        <ele>1800</ele>
        <time>2022-11-27T12:07:22Z</time>
      </trkpt>
      <trkpt lat="45.2625" lon="6.02808">
        <ele>1799</ele>
        <time>2022-11-27T12:07:23Z</time>
      </trkpt>
      <trkpt lat="45.26254" lon="6.02812">
        <ele>1799</ele>
        <time>2022-11-27T12:07:24Z</time>
      </trkpt>
      <trkpt lat="45.26258" lon="6.02811">
        <ele>1798</ele>
        <time>2022-11-27T12:07:25Z</time>
      </trkpt>
      <trkpt lat="45.26262" lon="6.02814">
        <ele>1797</ele>
        <time>2022-11-27T12:07:26Z</time>
      </trkpt>
      <trkpt lat="45.26265" lon="6.02813">
        <ele>1796</ele>
        <time>2022-11-27T12:07:27Z</time>
      </trkpt>
      <trkpt lat="45.26271" lon="6.02803">
        <ele>1793</ele>
        <time>2022-11-27T12:07:30Z</time>
      </trkpt>
      <trkpt lat="45.26276" lon="6.02812">
        <ele>1792</ele>
        <time>2022-11-27T12:07:33Z</time>
      </trkpt>
      <trkpt lat="45.26277" lon="6.02816">
        <ele>1792</ele>
        <time>2022-11-27T12:07:34Z</time>
      </trkpt>
      <trkpt lat="45.2628" lon="6.02821">
        <ele>1791</ele>
        <time>2022-11-27T12:07:35Z</time>
      </trkpt>
      <trkpt lat="45.26289" lon="6.02826">
        <ele>1789</ele>
        <time>2022-11-27T12:07:37Z</time>
      </trkpt>
      <trkpt lat="45.26294" lon="6.02825">
        <ele>1787</ele>
        <time>2022-11-27T12:07:39Z</time>
      </trkpt>
      <trkpt lat="45.26295" lon="6.02825">
        <ele>1786</ele>
        <time>2022-11-27T12:07:59Z</time>
      </trkpt>
      <trkpt lat="45.26298" lon="6.02823">
        <ele>1784</ele>
        <time>2022-11-27T12:08:00Z</time>
      </trkpt>
      <trkpt lat="45.26302" lon="6.02812">
        <ele>1781</ele>
        <time>2022-11-27T12:08:03Z</time>
      </trkpt>
      <trkpt lat="45.26304" lon="6.02806">
        <ele>1779</ele>
        <time>2022-11-27T12:08:04Z</time>
      </trkpt>
      <trkpt lat="45.26308" lon="6.02804">
        <ele>1778</ele>
        <time>2022-11-27T12:08:05Z</time>
      </trkpt>
      <trkpt lat="45.26317" lon="6.02806">
        <ele>1776</ele>
        <time>2022-11-27T12:08:07Z</time>
      </trkpt>
      <trkpt lat="45.26324" lon="6.02798">
        <ele>1773</ele>
        <time>2022-11-27T12:08:09Z</time>
      </trkpt>
      <trkpt lat="45.26329" lon="6.02796">
        <ele>1772</ele>
        <time>2022-11-27T12:08:10Z</time>
      </trkpt>
      <trkpt lat="45.26355" lon="6.02777">
        <ele>1766</ele>
        <time>2022-11-27T12:08:15Z</time>
      </trkpt>
      <trkpt lat="45.2636" lon="6.02771">
        <ele>1764</ele>
        <time>2022-11-27T12:08:16Z</time>
      </trkpt>
      <trkpt lat="45.2637" lon="6.0276">
        <ele>1762</ele>
        <time>2022-11-27T12:08:18Z</time>
      </trkpt>
      <trkpt lat="45.26373" lon="6.02753">
        <ele>1761</ele>
        <time>2022-11-27T12:08:19Z</time>
      </trkpt>
      <trkpt lat="45.26381" lon="6.02721">
        <ele>1756</ele>
        <time>2022-11-27T12:08:24Z</time>
      </trkpt>
      <trkpt lat="45.26381" lon="6.02714">
        <ele>1755</ele>
        <time>2022-11-27T12:08:25Z</time>
      </trkpt>
      <trkpt lat="45.2638" lon="6.02706">
        <ele>1755</ele>
        <time>2022-11-27T12:08:26Z</time>
      </trkpt>
      <trkpt lat="45.26378" lon="6.02684">
        <ele>1752</ele>
        <time>2022-11-27T12:08:29Z</time>
      </trkpt>
      <trkpt lat="45.26379" lon="6.02676">
        <ele>1752</ele>
        <time>2022-11-27T12:08:30Z</time>
      </trkpt>
      <trkpt lat="45.26378" lon="6.02669">
        <ele>1752</ele>
        <time>2022-11-27T12:08:31Z</time>
      </trkpt>
      <trkpt lat="45.26373" lon="6.02657">
        <ele>1751</ele>
        <time>2022-11-27T12:08:33Z</time>
      </trkpt>
      <trkpt lat="45.26359" lon="6.02622">
        <ele>1746</ele>
        <time>2022-11-27T12:08:39Z</time>
      </trkpt>
      <trkpt lat="45.26344" lon="6.02596">
        <ele>1744</ele>
        <time>2022-11-27T12:08:53Z</time>
      </trkpt>
      <trkpt lat="45.26335" lon="6.02586">
        <ele>1743</ele>
        <time>2022-11-27T12:08:57Z</time>
      </trkpt>
      <trkpt lat="45.26291" lon="6.02552">
        <ele>1738</ele>
        <time>2022-11-27T12:09:09Z</time>
      </trkpt>
      <trkpt lat="45.26284" lon="6.02543">
        <ele>1738</ele>
        <time>2022-11-27T12:09:11Z</time>
      </trkpt>
      <trkpt lat="45.2628" lon="6.02535">
        <ele>1738</ele>
        <time>2022-11-27T12:09:13Z</time>
      </trkpt>
      <trkpt lat="45.26277" lon="6.02523">
        <ele>1736</ele>
        <time>2022-11-27T12:09:15Z</time>
      </trkpt>
      <trkpt lat="45.26269" lon="6.02513">
        <ele>1736</ele>
        <time>2022-11-27T12:09:17Z</time>
      </trkpt>
      <trkpt lat="45.26265" lon="6.02501">
        <ele>1735</ele>
        <time>2022-11-27T12:09:19Z</time>
      </trkpt>
      <trkpt lat="45.26262" lon="6.02497">
        <ele>1735</ele>
        <time>2022-11-27T12:09:20Z</time>
      </trkpt>
      <trkpt lat="45.26257" lon="6.02495">
        <ele>1735</ele>
        <time>2022-11-27T12:09:21Z</time>
      </trkpt>
      <trkpt lat="45.26252" lon="6.02495">
        <ele>1734</ele>
        <time>2022-11-27T12:09:22Z</time>
      </trkpt>
      <trkpt lat="45.26248" lon="6.02496">
        <ele>1733</ele>
        <time>2022-11-27T12:09:23Z</time>
      </trkpt>
      <trkpt lat="45.26247" lon="6.02493">
        <ele>1732</ele>
        <time>2022-11-27T12:09:24Z</time>
      </trkpt>
      <trkpt lat="45.26246" lon="6.02488">
        <ele>1732</ele>
        <time>2022-11-27T12:09:25Z</time>
      </trkpt>
      <trkpt lat="45.26242" lon="6.02483">
        <ele>1732</ele>
        <time>2022-11-27T12:09:26Z</time>
      </trkpt>
      <trkpt lat="45.26232" lon="6.02471">
        <ele>1730</ele>
        <time>2022-11-27T12:09:29Z</time>
      </trkpt>
      <trkpt lat="45.26225" lon="6.02454">
        <ele>1728</ele>
        <time>2022-11-27T12:09:32Z</time>
      </trkpt>
      <trkpt lat="45.26224" lon="6.02447">
        <ele>1727</ele>
        <time>2022-11-27T12:09:33Z</time>
      </trkpt>
      <trkpt lat="45.26224" lon="6.02438">
        <ele>1726</ele>
        <time>2022-11-27T12:09:34Z</time>
      </trkpt>
      <trkpt lat="45.26223" lon="6.02431">
        <ele>1726</ele>
        <time>2022-11-27T12:09:35Z</time>
      </trkpt>
      <trkpt lat="45.26221" lon="6.02416">
        <ele>1724</ele>
        <time>2022-11-27T12:09:37Z</time>
      </trkpt>
      <trkpt lat="45.26219" lon="6.02409">
        <ele>1724</ele>
        <time>2022-11-27T12:09:38Z</time>
      </trkpt>
      <trkpt lat="45.26218" lon="6.02402">
        <ele>1723</ele>
        <time>2022-11-27T12:09:39Z</time>
      </trkpt>
      <trkpt lat="45.26215" lon="6.0239">
        <ele>1722</ele>
        <time>2022-11-27T12:09:41Z</time>
      </trkpt>
      <trkpt lat="45.26215" lon="6.02383">
        <ele>1722</ele>
        <time>2022-11-27T12:09:42Z</time>
      </trkpt>
      <trkpt lat="45.26212" lon="6.02371">
        <ele>1722</ele>
        <time>2022-11-27T12:09:44Z</time>
      </trkpt>
      <trkpt lat="45.26211" lon="6.02364">
        <ele>1722</ele>
        <time>2022-11-27T12:09:45Z</time>
      </trkpt>
      <trkpt lat="45.26208" lon="6.02351">
        <ele>1721</ele>
        <time>2022-11-27T12:09:47Z</time>
      </trkpt>
      <trkpt lat="45.26205" lon="6.02324">
        <ele>1720</ele>
        <time>2022-11-27T12:09:51Z</time>
      </trkpt>
      <trkpt lat="45.26201" lon="6.02313">
        <ele>1719</ele>
        <time>2022-11-27T12:09:53Z</time>
      </trkpt>
      <trkpt lat="45.26199" lon="6.02296">
        <ele>1719</ele>
        <time>2022-11-27T12:09:56Z</time>
      </trkpt>
      <trkpt lat="45.26192" lon="6.02285">
        <ele>1717</ele>
        <time>2022-11-27T12:09:59Z</time>
      </trkpt>
      <trkpt lat="45.26184" lon="6.02266">
        <ele>1715</ele>
        <time>2022-11-27T12:10:02Z</time>
      </trkpt>
      <trkpt lat="45.26181" lon="6.0226">
        <ele>1714</ele>
        <time>2022-11-27T12:10:03Z</time>
      </trkpt>
      <trkpt lat="45.26177" lon="6.02247">
        <ele>1713</ele>
        <time>2022-11-27T12:10:05Z</time>
      </trkpt>
      <trkpt lat="45.26175" lon="6.02239">
        <ele>1712</ele>
        <time>2022-11-27T12:10:06Z</time>
      </trkpt>
      <trkpt lat="45.26157" lon="6.02173">
        <ele>1706</ele>
        <time>2022-11-27T12:10:15Z</time>
      </trkpt>
      <trkpt lat="45.26149" lon="6.02157">
        <ele>1706</ele>
        <time>2022-11-27T12:10:18Z</time>
      </trkpt>
      <trkpt lat="45.26149" lon="6.02152">
        <ele>1706</ele>
        <time>2022-11-27T12:10:19Z</time>
      </trkpt>
      <trkpt lat="45.26149" lon="6.02121">
        <ele>1705</ele>
        <time>2022-11-27T12:10:25Z</time>
      </trkpt>
      <trkpt lat="45.26147" lon="6.02107">
        <ele>1704</ele>
        <time>2022-11-27T12:10:28Z</time>
      </trkpt>
      <trkpt lat="45.26147" lon="6.02092">
        <ele>1704</ele>
        <time>2022-11-27T12:10:32Z</time>
      </trkpt>
      <trkpt lat="45.26146" lon="6.02089">
        <ele>1703</ele>
        <time>2022-11-27T12:10:33Z</time>
      </trkpt>
      <trkpt lat="45.26145" lon="6.02087">
        <ele>1702</ele>
        <time>2022-11-27T12:10:34Z</time>
      </trkpt>
      <trkpt lat="45.26143" lon="6.0208">
        <ele>1702</ele>
        <time>2022-11-27T12:10:36Z</time>
      </trkpt>
      <trkpt lat="45.2614" lon="6.02071">
        <ele>1701</ele>
        <time>2022-11-27T12:10:38Z</time>
      </trkpt>
      <trkpt lat="45.26132" lon="6.02056">
        <ele>1699</ele>
        <time>2022-11-27T12:10:41Z</time>
      </trkpt>
      <trkpt lat="45.26129" lon="6.02053">
        <ele>1698</ele>
        <time>2022-11-27T12:10:42Z</time>
      </trkpt>
      <trkpt lat="45.26126" lon="6.02047">
        <ele>1697</ele>
        <time>2022-11-27T12:10:43Z</time>
      </trkpt>
      <trkpt lat="45.26118" lon="6.02038">
        <ele>1696</ele>
        <time>2022-11-27T12:10:45Z</time>
      </trkpt>
      <trkpt lat="45.26111" lon="6.02022">
        <ele>1695</ele>
        <time>2022-11-27T12:10:48Z</time>
      </trkpt>
      <trkpt lat="45.26105" lon="6.02013">
        <ele>1694</ele>
        <time>2022-11-27T12:10:50Z</time>
      </trkpt>
      <trkpt lat="45.26101" lon="6.02002">
        <ele>1693</ele>
        <time>2022-11-27T12:10:52Z</time>
      </trkpt>
      <trkpt lat="45.26097" lon="6.01998">
        <ele>1693</ele>
        <time>2022-11-27T12:10:53Z</time>
      </trkpt>
      <trkpt lat="45.26095" lon="6.01993">
        <ele>1692</ele>
        <time>2022-11-27T12:10:54Z</time>
      </trkpt>
      <trkpt lat="45.26092" lon="6.01989">
        <ele>1692</ele>
        <time>2022-11-27T12:10:55Z</time>
      </trkpt>
      <trkpt lat="45.26088" lon="6.01987">
        <ele>1692</ele>
        <time>2022-11-27T12:10:56Z</time>
      </trkpt>
      <trkpt lat="45.26083" lon="6.01984">
        <ele>1691</ele>
        <time>2022-11-27T12:10:57Z</time>
      </trkpt>
      <trkpt lat="45.2608" lon="6.0198">
        <ele>1690</ele>
        <time>2022-11-27T12:10:58Z</time>
      </trkpt>
      <trkpt lat="45.26073" lon="6.01975">
        <ele>1689</ele>
        <time>2022-11-27T12:11:00Z</time>
      </trkpt>
      <trkpt lat="45.2606" lon="6.0196">
        <ele>1687</ele>
        <time>2022-11-27T12:11:05Z</time>
      </trkpt>
      <trkpt lat="45.26059" lon="6.01956">
        <ele>1687</ele>
        <time>2022-11-27T12:11:06Z</time>
      </trkpt>
      <trkpt lat="45.26063" lon="6.01949">
        <ele>1686</ele>
        <time>2022-11-27T12:11:08Z</time>
      </trkpt>
      <trkpt lat="45.26066" lon="6.01946">
        <ele>1685</ele>
        <time>2022-11-27T12:11:09Z</time>
      </trkpt>
      <trkpt lat="45.26077" lon="6.01948">
        <ele>1684</ele>
        <time>2022-11-27T12:11:12Z</time>
      </trkpt>
      <trkpt lat="45.26131" lon="6.01966">
        <ele>1681</ele>
        <time>2022-11-27T12:11:25Z</time>
      </trkpt>
      <trkpt lat="45.26154" lon="6.01966">
        <ele>1679</ele>
        <time>2022-11-27T12:11:30Z</time>
      </trkpt>
      <trkpt lat="45.26163" lon="6.01962">
        <ele>1678</ele>
        <time>2022-11-27T12:11:32Z</time>
      </trkpt>
      <trkpt lat="45.26166" lon="6.01963">
        <ele>1677</ele>
        <time>2022-11-27T12:11:33Z</time>
      </trkpt>
      <trkpt lat="45.26174" lon="6.01962">
        <ele>1677</ele>
        <time>2022-11-27T12:11:35Z</time>
      </trkpt>
      <trkpt lat="45.26182" lon="6.01963">
        <ele>1676</ele>
        <time>2022-11-27T12:11:37Z</time>
      </trkpt>
      <trkpt lat="45.26189" lon="6.01966">
        <ele>1676</ele>
        <time>2022-11-27T12:11:39Z</time>
      </trkpt>
      <trkpt lat="45.26192" lon="6.01966">
        <ele>1675</ele>
        <time>2022-11-27T12:11:40Z</time>
      </trkpt>
      <trkpt lat="45.26194" lon="6.01963">
        <ele>1674</ele>
        <time>2022-11-27T12:11:45Z</time>
      </trkpt>
      <trkpt lat="45.26199" lon="6.01957">
        <ele>1673</ele>
        <time>2022-11-27T12:11:53Z</time>
      </trkpt>
      <trkpt lat="45.26208" lon="6.01957">
        <ele>1672</ele>
        <time>2022-11-27T12:11:56Z</time>
      </trkpt>
      <trkpt lat="45.26212" lon="6.01953">
        <ele>1671</ele>
        <time>2022-11-27T12:11:57Z</time>
      </trkpt>
      <trkpt lat="45.26214" lon="6.0195">
        <ele>1671</ele>
        <time>2022-11-27T12:11:58Z</time>
      </trkpt>
      <trkpt lat="45.26218" lon="6.01951">
        <ele>1669</ele>
        <time>2022-11-27T12:12:00Z</time>
      </trkpt>
      <trkpt lat="45.2622" lon="6.01957">
        <ele>1668</ele>
        <time>2022-11-27T12:12:01Z</time>
      </trkpt>
      <trkpt lat="45.26226" lon="6.01958">
        <ele>1667</ele>
        <time>2022-11-27T12:12:03Z</time>
      </trkpt>
      <trkpt lat="45.26228" lon="6.01966">
        <ele>1666</ele>
        <time>2022-11-27T12:12:05Z</time>
      </trkpt>
      <trkpt lat="45.26231" lon="6.0197">
        <ele>1665</ele>
        <time>2022-11-27T12:12:06Z</time>
      </trkpt>
      <trkpt lat="45.26237" lon="6.01968">
        <ele>1663</ele>
        <time>2022-11-27T12:12:07Z</time>
      </trkpt>
      <trkpt lat="45.26241" lon="6.01962">
        <ele>1661</ele>
        <time>2022-11-27T12:12:08Z</time>
      </trkpt>
      <trkpt lat="45.26247" lon="6.01955">
        <ele>1658</ele>
        <time>2022-11-27T12:12:10Z</time>
      </trkpt>
      <trkpt lat="45.2625" lon="6.01957">
        <ele>1657</ele>
        <time>2022-11-27T12:12:11Z</time>
      </trkpt>
      <trkpt lat="45.26255" lon="6.01965">
        <ele>1655</ele>
        <time>2022-11-27T12:12:13Z</time>
      </trkpt>
      <trkpt lat="45.2626" lon="6.01967">
        <ele>1654</ele>
        <time>2022-11-27T12:12:14Z</time>
      </trkpt>
      <trkpt lat="45.26264" lon="6.01963">
        <ele>1654</ele>
        <time>2022-11-27T12:12:15Z</time>
      </trkpt>
      <trkpt lat="45.26267" lon="6.01952">
        <ele>1652</ele>
        <time>2022-11-27T12:12:17Z</time>
      </trkpt>
      <trkpt lat="45.26271" lon="6.01954">
        <ele>1650</ele>
        <time>2022-11-27T12:12:19Z</time>
      </trkpt>
      <trkpt lat="45.26276" lon="6.01951">
        <ele>1649</ele>
        <time>2022-11-27T12:12:20Z</time>
      </trkpt>
      <trkpt lat="45.26279" lon="6.01944">
        <ele>1649</ele>
        <time>2022-11-27T12:12:21Z</time>
      </trkpt>
      <trkpt lat="45.2628" lon="6.01941">
        <ele>1648</ele>
        <time>2022-11-27T12:12:22Z</time>
      </trkpt>
      <trkpt lat="45.26289" lon="6.01922">
        <ele>1645</ele>
        <time>2022-11-27T12:12:27Z</time>
      </trkpt>
      <trkpt lat="45.26292" lon="6.01916">
        <ele>1643</ele>
        <time>2022-11-27T12:12:28Z</time>
      </trkpt>
      <trkpt lat="45.26294" lon="6.01911">
        <ele>1642</ele>
        <time>2022-11-27T12:12:29Z</time>
      </trkpt>
      <trkpt lat="45.26293" lon="6.01906">
        <ele>1641</ele>
        <time>2022-11-27T12:12:30Z</time>
      </trkpt>
      <trkpt lat="45.26298" lon="6.01902">
        <ele>1640</ele>
        <time>2022-11-27T12:12:32Z</time>
      </trkpt>
      <trkpt lat="45.26299" lon="6.01897">
        <ele>1638</ele>
        <time>2022-11-27T12:12:33Z</time>
      </trkpt>
      <trkpt lat="45.26303" lon="6.01892">
        <ele>1638</ele>
        <time>2022-11-27T12:12:34Z</time>
      </trkpt>
      <trkpt lat="45.26303" lon="6.01885">
        <ele>1637</ele>
        <time>2022-11-27T12:12:35Z</time>
      </trkpt>
      <trkpt lat="45.26303" lon="6.01879">
        <ele>1637</ele>
        <time>2022-11-27T12:12:36Z</time>
      </trkpt>
      <trkpt lat="45.26304" lon="6.01875">
        <ele>1636</ele>
        <time>2022-11-27T12:12:37Z</time>
      </trkpt>
      <trkpt lat="45.26306" lon="6.01875">
        <ele>1633</ele>
        <time>2022-11-27T12:12:49Z</time>
      </trkpt>
      <trkpt lat="45.26308" lon="6.01881">
        <ele>1632</ele>
        <time>2022-11-27T12:12:52Z</time>
      </trkpt>
      <trkpt lat="45.26313" lon="6.01881">
        <ele>1631</ele>
        <time>2022-11-27T12:12:53Z</time>
      </trkpt>
      <trkpt lat="45.26315" lon="6.01878">
        <ele>1631</ele>
        <time>2022-11-27T12:12:54Z</time>
      </trkpt>
      <trkpt lat="45.26316" lon="6.01874">
        <ele>1630</ele>
        <time>2022-11-27T12:12:55Z</time>
      </trkpt>
      <trkpt lat="45.26321" lon="6.01877">
        <ele>1629</ele>
        <time>2022-11-27T12:12:57Z</time>
      </trkpt>
      <trkpt lat="45.26325" lon="6.01877">
        <ele>1629</ele>
        <time>2022-11-27T12:12:58Z</time>
      </trkpt>
      <trkpt lat="45.26328" lon="6.01875">
        <ele>1628</ele>
        <time>2022-11-27T12:12:59Z</time>
      </trkpt>
      <trkpt lat="45.26331" lon="6.01873">
        <ele>1628</ele>
        <time>2022-11-27T12:13:00Z</time>
      </trkpt>
      <trkpt lat="45.26334" lon="6.01868">
        <ele>1627</ele>
        <time>2022-11-27T12:13:01Z</time>
      </trkpt>
      <trkpt lat="45.26339" lon="6.01854">
        <ele>1625</ele>
        <time>2022-11-27T12:13:03Z</time>
      </trkpt>
      <trkpt lat="45.2634" lon="6.01851">
        <ele>1624</ele>
        <time>2022-11-27T12:13:05Z</time>
      </trkpt>
      <trkpt lat="45.26342" lon="6.01852">
        <ele>1623</ele>
        <time>2022-11-27T12:13:06Z</time>
      </trkpt>
      <trkpt lat="45.26351" lon="6.01856">
        <ele>1621</ele>
        <time>2022-11-27T12:13:08Z</time>
      </trkpt>
      <trkpt lat="45.26356" lon="6.01856">
        <ele>1619</ele>
        <time>2022-11-27T12:13:09Z</time>
      </trkpt>
      <trkpt lat="45.26368" lon="6.01865">
        <ele>1617</ele>
        <time>2022-11-27T12:13:12Z</time>
      </trkpt>
      <trkpt lat="45.26385" lon="6.01863">
        <ele>1614</ele>
        <time>2022-11-27T12:13:15Z</time>
      </trkpt>
      <trkpt lat="45.26398" lon="6.01854">
        <ele>1610</ele>
        <time>2022-11-27T12:13:17Z</time>
      </trkpt>
      <trkpt lat="45.26404" lon="6.01853">
        <ele>1610</ele>
        <time>2022-11-27T12:13:18Z</time>
      </trkpt>
      <trkpt lat="45.2641" lon="6.0185">
        <ele>1609</ele>
        <time>2022-11-27T12:13:19Z</time>
      </trkpt>
      <trkpt lat="45.26415" lon="6.01841">
        <ele>1607</ele>
        <time>2022-11-27T12:13:21Z</time>
      </trkpt>
      <trkpt lat="45.26418" lon="6.01839">
        <ele>1608</ele>
        <time>2022-11-27T12:13:22Z</time>
      </trkpt>
      <trkpt lat="45.26421" lon="6.01834">
        <ele>1607</ele>
        <time>2022-11-27T12:13:23Z</time>
      </trkpt>
      <trkpt lat="45.26424" lon="6.01827">
        <ele>1605</ele>
        <time>2022-11-27T12:13:25Z</time>
      </trkpt>
      <trkpt lat="45.26429" lon="6.0182">
        <ele>1604</ele>
        <time>2022-11-27T12:13:27Z</time>
      </trkpt>
      <trkpt lat="45.26433" lon="6.01817">
        <ele>1604</ele>
        <time>2022-11-27T12:13:28Z</time>
      </trkpt>
      <trkpt lat="45.26434" lon="6.01813">
        <ele>1603</ele>
        <time>2022-11-27T12:13:29Z</time>
      </trkpt>
      <trkpt lat="45.26431" lon="6.01798">
        <ele>1600</ele>
        <time>2022-11-27T12:13:32Z</time>
      </trkpt>
      <trkpt lat="45.26433" lon="6.01795">
        <ele>1600</ele>
        <time>2022-11-27T12:13:33Z</time>
      </trkpt>
      <trkpt lat="45.26435" lon="6.01784">
        <ele>1598</ele>
        <time>2022-11-27T12:13:35Z</time>
      </trkpt>
      <trkpt lat="45.26446" lon="6.01759">
        <ele>1594</ele>
        <time>2022-11-27T12:13:40Z</time>
      </trkpt>
      <trkpt lat="45.26458" lon="6.01716">
        <ele>1587</ele>
        <time>2022-11-27T12:13:47Z</time>
      </trkpt>
      <trkpt lat="45.26458" lon="6.01709">
        <ele>1586</ele>
        <time>2022-11-27T12:13:48Z</time>
      </trkpt>
      <trkpt lat="45.26458" lon="6.01702">
        <ele>1585</ele>
        <time>2022-11-27T12:13:49Z</time>
      </trkpt>
      <trkpt lat="45.26463" lon="6.01686">
        <ele>1582</ele>
        <time>2022-11-27T12:13:51Z</time>
      </trkpt>
      <trkpt lat="45.26477" lon="6.01632">
        <ele>1578</ele>
        <time>2022-11-27T12:13:57Z</time>
      </trkpt>
      <trkpt lat="45.26499" lon="6.01598">
        <ele>1576</ele>
        <time>2022-11-27T12:14:03Z</time>
      </trkpt>
      <trkpt lat="45.26503" lon="6.01586">
        <ele>1576</ele>
        <time>2022-11-27T12:14:06Z</time>
      </trkpt>
      <trkpt lat="45.26503" lon="6.01583">
        <ele>1577</ele>
        <time>2022-11-27T12:14:08Z</time>
      </trkpt>
      <trkpt lat="45.26502" lon="6.01582">
        <ele>1578</ele>
        <time>2022-11-27T12:14:19Z</time>
      </trkpt>
      <trkpt lat="45.265" lon="6.01583">
        <ele>1576</ele>
        <time>2022-11-27T12:14:34Z</time>
      </trkpt>
      <trkpt lat="45.26498" lon="6.01586">
        <ele>1576</ele>
        <time>2022-11-27T12:14:37Z</time>
      </trkpt>
      <trkpt lat="45.26496" lon="6.01585">
        <ele>1575</ele>
        <time>2022-11-27T12:14:41Z</time>
      </trkpt>
      <trkpt lat="45.265" lon="6.01582">
        <ele>1577</ele>
        <time>2022-11-27T12:14:49Z</time>
      </trkpt>
      <trkpt lat="45.26502" lon="6.01581">
        <ele>1577</ele>
        <time>2022-11-27T12:14:53Z</time>
      </trkpt>
      <trkpt lat="45.26504" lon="6.01578">
        <ele>1579</ele>
        <time>2022-11-27T12:15:20Z</time>
      </trkpt>
      <trkpt lat="45.26505" lon="6.01575">
        <ele>1580</ele>
        <time>2022-11-27T12:15:23Z</time>
      </trkpt>
      <trkpt lat="45.26511" lon="6.01571">
        <ele>1580</ele>
        <time>2022-11-27T12:15:30Z</time>
      </trkpt>
      <trkpt lat="45.26514" lon="6.01569">
        <ele>1580</ele>
        <time>2022-11-27T12:15:33Z</time>
      </trkpt>
      <trkpt lat="45.26526" lon="6.01559">
        <ele>1579</ele>
        <time>2022-11-27T12:15:46Z</time>
      </trkpt>
      <trkpt lat="45.26529" lon="6.0156">
        <ele>1578</ele>
        <time>2022-11-27T12:15:49Z</time>
      </trkpt>
      <trkpt lat="45.26532" lon="6.0156">
        <ele>1578</ele>
        <time>2022-11-27T12:15:52Z</time>
      </trkpt>
      <trkpt lat="45.26533" lon="6.01564">
        <ele>1578</ele>
        <time>2022-11-27T12:15:55Z</time>
      </trkpt>
      <trkpt lat="45.26534" lon="6.01568">
        <ele>1577</ele>
        <time>2022-11-27T12:15:58Z</time>
      </trkpt>
      <trkpt lat="45.26536" lon="6.01576">
        <ele>1576</ele>
        <time>2022-11-27T12:16:04Z</time>
      </trkpt>
      <trkpt lat="45.26542" lon="6.0158">
        <ele>1575</ele>
        <time>2022-11-27T12:16:10Z</time>
      </trkpt>
      <trkpt lat="45.2656" lon="6.01587">
        <ele>1573</ele>
        <time>2022-11-27T12:16:25Z</time>
      </trkpt>
      <trkpt lat="45.26566" lon="6.01588">
        <ele>1573</ele>
        <time>2022-11-27T12:16:30Z</time>
      </trkpt>
      <trkpt lat="45.2657" lon="6.01587">
        <ele>1572</ele>
        <time>2022-11-27T12:16:32Z</time>
      </trkpt>
      <trkpt lat="45.26575" lon="6.01583">
        <ele>1570</ele>
        <time>2022-11-27T12:16:36Z</time>
      </trkpt>
      <trkpt lat="45.26579" lon="6.01577">
        <ele>1569</ele>
        <time>2022-11-27T12:16:40Z</time>
      </trkpt>
      <trkpt lat="45.26582" lon="6.01575">
        <ele>1569</ele>
        <time>2022-11-27T12:16:43Z</time>
      </trkpt>
      <trkpt lat="45.26588" lon="6.01574">
        <ele>1568</ele>
        <time>2022-11-27T12:16:47Z</time>
      </trkpt>
      <trkpt lat="45.26599" lon="6.01567">
        <ele>1566</ele>
        <time>2022-11-27T12:16:59Z</time>
      </trkpt>
      <trkpt lat="45.266" lon="6.01567">
        <ele>1566</ele>
        <time>2022-11-27T12:17:11Z</time>
      </trkpt>
      <trkpt lat="45.266" lon="6.01564">
        <ele>1567</ele>
        <time>2022-11-27T12:17:17Z</time>
      </trkpt>
      <trkpt lat="45.26598" lon="6.01562">
        <ele>1568</ele>
        <time>2022-11-27T12:17:23Z</time>
      </trkpt>
      <trkpt lat="45.26597" lon="6.01558">
        <ele>1569</ele>
        <time>2022-11-27T12:17:50Z</time>
      </trkpt>
      <trkpt lat="45.26596" lon="6.01558">
        <ele>1570</ele>
        <time>2022-11-27T12:18:19Z</time>
      </trkpt>
      <trkpt lat="45.26595" lon="6.01556">
        <ele>1571</ele>
        <time>2022-11-27T12:19:54Z</time>
      </trkpt>
      <trkpt lat="45.26596" lon="6.01553">
        <ele>1570</ele>
        <time>2022-11-27T12:20:06Z</time>
      </trkpt>
      <trkpt lat="45.26594" lon="6.01552">
        <ele>1570</ele>
        <time>2022-11-27T12:20:09Z</time>
      </trkpt>
      <trkpt lat="45.26592" lon="6.01556">
        <ele>1569</ele>
        <time>2022-11-27T12:20:25Z</time>
      </trkpt>
      <trkpt lat="45.26593" lon="6.0156">
        <ele>1570</ele>
        <time>2022-11-27T12:20:33Z</time>
      </trkpt>
      <trkpt lat="45.26595" lon="6.0156">
        <ele>1570</ele>
        <time>2022-11-27T12:20:35Z</time>
      </trkpt>
    </trkseg>
  </trk>
</gpx>